Darstellungsparameter: Aktuell verwendete Einstellungen:
Skalierung der Graphiken ... ?
xyx+y,   Skalierungsfaktor:      Skalierung: Modus: x, Faktor: 1
Darstellungszeitraum ... ?
Vom - - bis: - -   Zeitraum: 04.03.2011 - 03.03.2021
Min/Max/Avg-Anzeige ... ?
Zeige MMA aktuell
Zeige MMA Monat
Zeige MMA alles
Zeige --A aktuell
Zeige --A Monat
Zeige --A alles
Keine MMA-Anzeige
MMA:
Average (ber die Originaldaten)
MMA-Basis: 23.02.2003 - 03.08.2020
Quicknavigation für Darstellung... ?
Tage:      1T, 2T, 3T, 5T -1T -2T -3T -5T +1T +2T +3T +5T
Wochen: 1W, 2W, 3W -1W -2W -3W +1W +2W +3W
Monate: 1M, 3M, 6M -1M -3M -6M +1M +3M +6M
Jahre:    1J, 3J, 5J, 10J -1J -3J -5J -10J +1J +3J +5J +10J
Nutze für die Darstellung ... ?
Originaldaten oder ...
Mittelwerte Minima Maxima auf...
Stundenbasis Tagesbasis Wochenbasis
Monatsbasis Jahresbasis      Datenbasis: Mittelwerte auf Stundenbasis
Darstellen als:
Statistik (Auto) Statistik J:M      Darstellung:
Zur Graphik,    zurück zur Übersicht aller Sensoren.
 
Tabellarische Datenbersicht: ?
 
Sensor: Nr:Datum:Temp:Abs-Feuchte:Windchill:Wind:
Aussen-T/F 1 04-03-2011 00:00:00 -1.62 C 2.96 g/m*3 -1.62 C 0 km/h
2 04-03-2011 01:00:00 -1.88 C 2.98 g/m*3 -1.88 C 0 km/h
3 04-03-2011 02:00:00 -2.24 C 2.91 g/m*3 -2.24 C 0 km/h
4 04-03-2011 03:00:00 -2.78 C 2.87 g/m*3 -2.78 C 0 km/h
5 04-03-2011 04:00:00 -3.54 C 2.8 g/m*3 -3.54 C 0 km/h
6 04-03-2011 05:00:00 -4.36 C 2.75 g/m*3 -4.36 C 0 km/h
7 04-03-2011 06:00:00 -4.64 C 2.75 g/m*3 -4.64 C 0 km/h
8 04-03-2011 07:00:00 -4.7 C 2.74 g/m*3 -4.7 C 0 km/h
9 04-03-2011 08:00:00 -3.98 C 2.91 g/m*3 -3.98 C 0 km/h
10 04-03-2011 09:00:00 -2.78 C 3.14 g/m*3 -2.78 C 0 km/h
11 04-03-2011 10:00:00 -0.1 C 3.45 g/m*3 -0.1 C 0 km/h
12 04-03-2011 11:00:00 3.6 C 3.16 g/m*3 3.6 C 0 km/h
13 04-03-2011 12:00:00 7.46 C 3 g/m*3 7.46 C 0 km/h
14 04-03-2011 13:00:00 10.32 C 2.76 g/m*3 10.32 C 0 km/h
15 04-03-2011 14:00:00 9.66 C 2.94 g/m*3 9.66 C 0 km/h
16 04-03-2011 15:00:00 11.96 C 3.02 g/m*3 11.96 C 0 km/h
17 04-03-2011 16:00:00 15.74 C 2.87 g/m*3 15.74 C 0 km/h
18 04-03-2011 17:00:00 10.92 C 3.39 g/m*3 10.92 C 0 km/h
19 04-03-2011 18:00:00 5.38 C 3.67 g/m*3 5.38 C 0 km/h
20 04-03-2011 19:00:00 4.46 C 3.57 g/m*3 4.46 C 0 km/h
21 04-03-2011 20:00:00 2.72 C 3.83 g/m*3 2.72 C 0 km/h
22 04-03-2011 21:00:00 1.82 C 3.88 g/m*3 1.82 C 0 km/h
23 04-03-2011 22:00:00 1.02 C 3.88 g/m*3 1.02 C 0 km/h
24 04-03-2011 23:00:00 -0.06 C 3.84 g/m*3 -0.06 C 0 km/h
25 05-03-2011 00:00:00 -1.04 C 3.74 g/m*3 -1.04 C 0 km/h
Sensor: Nr:Datum:Temp:Abs-Feuchte:Windchill:Wind:
Aussen-T/F 26 05-03-2011 01:00:00 -1.88 C 3.61 g/m*3 -1.88 C 0 km/h
27 05-03-2011 02:00:00 -3.04 C 3.33 g/m*3 -3.04 C 0 km/h
28 05-03-2011 03:00:00 -3.58 C 3.22 g/m*3 -3.58 C 0 km/h
29 05-03-2011 04:00:00 -3.74 C 3.22 g/m*3 -3.74 C 0 km/h
30 05-03-2011 05:00:00 -3.84 C 3.22 g/m*3 -3.84 C 0 km/h
31 05-03-2011 06:00:00 -2.78 C 3.48 g/m*3 -2.78 C 0 km/h
32 05-03-2011 07:00:00 -2.4 C 3.59 g/m*3 -2.4 C 0 km/h
33 05-03-2011 08:00:00 -1.56 C 3.79 g/m*3 -1.56 C 0 km/h
34 05-03-2011 09:00:00 -0.54 C 3.92 g/m*3 -0.54 C 0 km/h
35 05-03-2011 10:00:00 1.56 C 4.09 g/m*3 1.56 C 0 km/h
36 05-03-2011 11:00:00 2.82 C 3.79 g/m*3 2.82 C 0 km/h
37 05-03-2011 12:00:00 4.48 C 3.72 g/m*3 4.48 C 0 km/h
38 05-03-2011 13:00:00 5.68 C 3.44 g/m*3 5.68 C 0 km/h
39 05-03-2011 14:00:00 4 C 3.34 g/m*3 4 C 0 km/h
40 05-03-2011 15:00:00 3.98 C 3.37 g/m*3 3.98 C 0 km/h
41 05-03-2011 16:00:00 3.38 C 3.39 g/m*3 3.38 C 0 km/h
42 05-03-2011 17:00:00 2.62 C 3.57 g/m*3 2.62 C 0 km/h
43 05-03-2011 18:00:00 1.36 C 3.83 g/m*3 1.36 C 0 km/h
44 05-03-2011 19:00:00 1.14 C 4.07 g/m*3 1.14 C 0 km/h
45 05-03-2011 20:00:00 1.48 C 4.14 g/m*3 1.48 C 0 km/h
46 05-03-2011 21:00:00 -0.5 C 3.8 g/m*3 -0.5 C 0 km/h
47 05-03-2011 22:00:00 -1.22 C 3.73 g/m*3 -1.22 C 0 km/h
48 05-03-2011 23:00:00 -1.62 C 3.67 g/m*3 -1.62 C 0 km/h
49 06-03-2011 00:00:00 -1.62 C 3.74 g/m*3 -1.62 C 0 km/h
50 06-03-2011 01:00:00 -1.94 C 3.69 g/m*3 -1.94 C 0 km/h
Sensor: Nr:Datum:Temp:Abs-Feuchte:Windchill:Wind:
Aussen-T/F 51 06-03-2011 02:00:00 -0.48 C 4.15 g/m*3 -0.48 C 0 km/h
52 06-03-2011 03:00:00 -0.02 C 4.23 g/m*3 -0.02 C 0 km/h
53 06-03-2011 04:00:00 -0.08 C 3.97 g/m*3 -0.08 C 0 km/h
54 06-03-2011 05:00:00 -1.52 C 3.31 g/m*3 -1.52 C 0 km/h
55 06-03-2011 06:00:00 -2.82 C 3.22 g/m*3 -2.82 C 0 km/h
56 06-03-2011 07:00:00 -1.94 C 3.38 g/m*3 -1.94 C 0 km/h
57 06-03-2011 08:00:00 -0.34 C 3.48 g/m*3 -0.34 C 0 km/h
58 06-03-2011 09:00:00 1.24 C 3.13 g/m*3 1.24 C 0 km/h
59 06-03-2011 10:00:00 2.14 C 2.82 g/m*3 2.14 C 0 km/h
60 06-03-2011 11:00:00 3.76 C 2.69 g/m*3 3.76 C 0 km/h
61 06-03-2011 12:00:00 5.26 C 2.6 g/m*3 5.26 C 0 km/h
62 06-03-2011 13:00:00 5.92 C 2.43 g/m*3 5.92 C 0 km/h
63 06-03-2011 14:00:00 6.66 C 2.3 g/m*3 6.66 C 0 km/h
64 06-03-2011 15:00:00 9.1 C 2.16 g/m*3 9.1 C 0 km/h
65 06-03-2011 16:00:00 12.66 C 2.22 g/m*3 12.66 C 0 km/h
66 06-03-2011 17:00:00 8.86 C 2.36 g/m*3 8.86 C 0 km/h
67 06-03-2011 18:00:00 2.02 C 2.92 g/m*3 2.02 C 0 km/h
68 06-03-2011 19:00:00 0.04 C 3.02 g/m*3 0.04 C 0 km/h
69 06-03-2011 20:00:00 -0.52 C 3.02 g/m*3 -0.52 C 0 km/h
70 06-03-2011 21:00:00 -1.1 C 2.95 g/m*3 -1.1 C 0 km/h
71 06-03-2011 22:00:00 -1.6 C 2.88 g/m*3 -1.6 C 0 km/h
72 06-03-2011 23:00:00 -2.1 C 2.75 g/m*3 -2.1 C 0 km/h
73 07-03-2011 00:00:00 -2.42 C 2.7 g/m*3 -2.42 C 0 km/h
74 07-03-2011 01:00:00 -3.02 C 2.69 g/m*3 -3.02 C 0 km/h
75 07-03-2011 02:00:00 -3.62 C 2.62 g/m*3 -3.62 C 0 km/h
Sensor: Nr:Datum:Temp:Abs-Feuchte:Windchill:Wind:
Aussen-T/F 76 07-03-2011 03:00:00 -4.18 C 2.56 g/m*3 -4.18 C 0 km/h
77 07-03-2011 04:00:00 -4.64 C 2.51 g/m*3 -4.64 C 0 km/h
78 07-03-2011 05:00:00 -4.64 C 2.5 g/m*3 -4.64 C 0 km/h
79 07-03-2011 06:00:00 -4.6 C 2.44 g/m*3 -4.6 C 0 km/h
80 07-03-2011 07:00:00 -4.62 C 2.39 g/m*3 -4.62 C 0 km/h
81 07-03-2011 08:00:00 -3.76 C 2.34 g/m*3 -3.76 C 0 km/h
82 07-03-2011 09:00:00 -2.92 C 2.38 g/m*3 -2.92 C 0 km/h
83 07-03-2011 10:00:00 1.04 C 2.09 g/m*3 1.04 C 0 km/h
84 07-03-2011 11:00:00 4.28 C 1.3 g/m*3 4.28 C 0 km/h
85 07-03-2011 12:00:00 7.74 C 1.63 g/m*3 7.74 C 0 km/h
86 07-03-2011 13:00:00 8.3 C 1.69 g/m*3 8.3 C 0 km/h
87 07-03-2011 14:00:00 8.36 C 1.69 g/m*3 8.36 C 0 km/h
88 07-03-2011 15:00:00 11 C 2 g/m*3 11 C 0 km/h
89 07-03-2011 16:00:00 13.64 C 2.36 g/m*3 13.64 C 0 km/h
90 07-03-2011 17:00:00 10.42 C 1.93 g/m*3 10.42 C 0 km/h
91 07-03-2011 18:00:00 2.44 C 1.96 g/m*3 2.44 C 0 km/h
92 07-03-2011 19:00:00 0.4 C 2.18 g/m*3 0.4 C 0 km/h
93 07-03-2011 20:00:00 -0.44 C 2.15 g/m*3 -0.44 C 0 km/h
94 07-03-2011 21:00:00 -0.38 C 2.14 g/m*3 -0.38 C 0 km/h
95 07-03-2011 22:00:00 -1.28 C 2.12 g/m*3 -1.28 C 0 km/h
96 07-03-2011 23:00:00 -1.74 C 2.14 g/m*3 -1.74 C 0 km/h
97 08-03-2011 00:00:00 -3.42 C 2.09 g/m*3 -3.42 C 0 km/h
98 08-03-2011 01:00:00 -4.4 C 2.1 g/m*3 -4.4 C 0 km/h
99 08-03-2011 02:00:00 -5.04 C 2.01 g/m*3 -5.04 C 0 km/h
100 08-03-2011 03:00:00 -5.9 C 2 g/m*3 -5.9 C 0 km/h
Sensor: Nr:Datum:Temp:Abs-Feuchte:Windchill:Wind:
Aussen-T/F 101 08-03-2011 04:00:00 -6.24 C 2.07 g/m*3 -6.24 C 0 km/h
102 08-03-2011 05:00:00 -5.76 C 2.04 g/m*3 -5.76 C 0 km/h
103 08-03-2011 06:00:00 -6.36 C 1.97 g/m*3 -6.36 C 0 km/h
104 08-03-2011 07:00:00 -5.98 C 2.1 g/m*3 -5.98 C 0 km/h
105 08-03-2011 08:00:00 -5.08 C 2.2 g/m*3 -5.08 C 0 km/h
106 08-03-2011 09:00:00 -3.56 C 2.34 g/m*3 -3.56 C 0 km/h
107 08-03-2011 10:00:00 0.34 C 2.46 g/m*3 0.34 C 0 km/h
108 08-03-2011 11:00:00 4.5 C 2.34 g/m*3 4.5 C 0 km/h
109 08-03-2011 12:00:00 9.08 C 2.04 g/m*3 9.08 C 0 km/h
110 08-03-2011 13:00:00 10.82 C 2 g/m*3 10.82 C 0 km/h
111 08-03-2011 14:00:00 12.28 C 2.34 g/m*3 12.28 C 0 km/h
112 08-03-2011 15:00:00 13.96 C 2.5 g/m*3 13.96 C 0 km/h
113 08-03-2011 16:00:00 15.04 C 2.57 g/m*3 15.04 C 0 km/h
114 08-03-2011 17:00:00 11.96 C 3.08 g/m*3 11.96 C 0 km/h
115 08-03-2011 18:00:00 7.16 C 3.55 g/m*3 7.16 C 0 km/h
116 08-03-2011 19:00:00 5.48 C 3.83 g/m*3 5.48 C 0 km/h
117 08-03-2011 20:00:00 3.3 C 4.3 g/m*3 3.3 C 0 km/h
118 08-03-2011 21:00:00 1.9 C 4.24 g/m*3 1.9 C 0 km/h
119 08-03-2011 22:00:00 1.36 C 4.33 g/m*3 1.36 C 0 km/h
120 08-03-2011 23:00:00 0.78 C 4.27 g/m*3 0.78 C 0 km/h
121 09-03-2011 00:00:00 -0.46 C 4 g/m*3 -0.46 C 0 km/h
122 09-03-2011 01:00:00 -0.68 C 4.02 g/m*3 -0.68 C 0 km/h
123 09-03-2011 02:00:00 0.74 C 4.53 g/m*3 0.74 C 0 km/h
124 09-03-2011 03:00:00 2.78 C 4.98 g/m*3 2.78 C 0 km/h
125 09-03-2011 04:00:00 3.26 C 4.47 g/m*3 3.26 C 0 km/h
Sensor: Nr:Datum:Temp:Abs-Feuchte:Windchill:Wind:
Aussen-T/F 126 09-03-2011 05:00:00 2.44 C 4.37 g/m*3 2.44 C 0 km/h
127 09-03-2011 06:00:00 2.36 C 4.45 g/m*3 2.36 C 0 km/h
128 09-03-2011 07:00:00 3 C 4.44 g/m*3 3 C 0 km/h
129 09-03-2011 08:00:00 3.76 C 4.43 g/m*3 3.76 C 0 km/h
130 09-03-2011 09:00:00 7.96 C 4.24 g/m*3 7.96 C 0 km/h
131 09-03-2011 10:00:00 9.2 C 4.14 g/m*3 9.2 C 0 km/h
132 09-03-2011 11:00:00 10.02 C 4.53 g/m*3 10.02 C 0 km/h
133 09-03-2011 12:00:00 9.98 C 4.62 g/m*3 9.98 C 0 km/h
134 09-03-2011 13:00:00 11.38 C 4.47 g/m*3 11.38 C 0 km/h
135 09-03-2011 14:00:00 11.8 C 4.04 g/m*3 11.8 C 0 km/h
136 09-03-2011 15:00:00 11.32 C 3.72 g/m*3 11.32 C 0 km/h
137 09-03-2011 16:00:00 10.8 C 3.8 g/m*3 10.8 C 0 km/h
138 09-03-2011 17:00:00 10.12 C 4.34 g/m*3 10.12 C 0 km/h
139 09-03-2011 18:00:00 9.28 C 4.67 g/m*3 9.28 C 0 km/h
140 09-03-2011 19:00:00 8.76 C 4.79 g/m*3 8.76 C 0 km/h
141 09-03-2011 20:00:00 8.08 C 4.89 g/m*3 8.08 C 0 km/h
142 09-03-2011 21:00:00 7.66 C 4.88 g/m*3 7.66 C 0 km/h
143 09-03-2011 22:00:00 6.64 C 5.03 g/m*3 6.64 C 0 km/h
144 09-03-2011 23:00:00 5.4 C 5.08 g/m*3 5.4 C 0 km/h
145 10-03-2011 00:00:00 5.56 C 4.85 g/m*3 5.56 C 0 km/h
146 10-03-2011 01:00:00 5.28 C 4.85 g/m*3 5.28 C 0 km/h
147 10-03-2011 02:00:00 4.42 C 4.81 g/m*3 4.42 C 0 km/h
148 10-03-2011 03:00:00 5.16 C 4.61 g/m*3 5.16 C 0 km/h
149 10-03-2011 04:00:00 4.62 C 4.64 g/m*3 4.62 C 0 km/h
150 10-03-2011 05:00:00 4.94 C 4.6 g/m*3 4.94 C 0 km/h
Sensor: Nr:Datum:Temp:Abs-Feuchte:Windchill:Wind:
Aussen-T/F 151 10-03-2011 06:00:00 4.6 C 4.72 g/m*3 4.6 C 0 km/h
152 10-03-2011 07:00:00 4.66 C 4.69 g/m*3 4.66 C 0 km/h
153 10-03-2011 08:00:00 5.88 C 4.59 g/m*3 5.88 C 0 km/h
154 10-03-2011 09:00:00 6.94 C 4.43 g/m*3 6.94 C 0 km/h
155 10-03-2011 10:00:00 8.06 C 4.3 g/m*3 8.06 C 0 km/h
156 10-03-2011 11:00:00 8.92 C 4.26 g/m*3 8.92 C 0 km/h
157 10-03-2011 12:00:00 9.68 C 4.18 g/m*3 9.68 C 0 km/h
158 10-03-2011 13:00:00 9.9 C 3.88 g/m*3 9.9 C 0 km/h
159 10-03-2011 14:00:00 9.22 C 4.01 g/m*3 9.22 C 0 km/h
160 10-03-2011 15:00:00 8.52 C 4.05 g/m*3 8.52 C 0 km/h
161 10-03-2011 16:00:00 8.3 C 4.18 g/m*3 8.3 C 0 km/h
162 10-03-2011 17:00:00 8.18 C 4.3 g/m*3 8.18 C 0 km/h
163 10-03-2011 18:00:00 8.4 C 4.41 g/m*3 8.4 C 0 km/h
164 10-03-2011 19:00:00 8.84 C 4.45 g/m*3 8.84 C 0 km/h
165 10-03-2011 20:00:00 8.86 C 4.54 g/m*3 8.86 C 0 km/h
166 10-03-2011 21:00:00 8.54 C 4.79 g/m*3 8.54 C 0 km/h
167 10-03-2011 22:00:00 8.78 C 4.83 g/m*3 8.78 C 0 km/h
168 10-03-2011 23:00:00 8.94 C 4.81 g/m*3 8.94 C 0 km/h
169 11-03-2011 00:00:00 8.82 C 4.92 g/m*3 8.82 C 0 km/h
170 11-03-2011 01:00:00 8.68 C 4.98 g/m*3 8.68 C 0 km/h
171 11-03-2011 02:00:00 8.6 C 5.05 g/m*3 8.6 C 0 km/h
172 11-03-2011 03:00:00 8.48 C 5.15 g/m*3 8.48 C 0 km/h
173 11-03-2011 04:00:00 8.22 C 5.3 g/m*3 8.22 C 0 km/h
174 11-03-2011 05:00:00 8.4 C 5.21 g/m*3 8.4 C 0 km/h
175 11-03-2011 06:00:00 8.18 C 5.24 g/m*3 8.18 C 0 km/h
Sensor: Nr:Datum:Temp:Abs-Feuchte:Windchill:Wind:
Aussen-T/F 176 11-03-2011 07:00:00 8.64 C 5.1 g/m*3 8.64 C 0 km/h
177 11-03-2011 08:00:00 8.84 C 5.11 g/m*3 8.84 C 0 km/h
178 11-03-2011 09:00:00 9.34 C 4.96 g/m*3 9.34 C 0 km/h
179 11-03-2011 10:00:00 10.46 C 4.8 g/m*3 10.46 C 0 km/h
180 11-03-2011 11:00:00 10.92 C 4.52 g/m*3 10.92 C 0 km/h
181 11-03-2011 12:00:00 11.24 C 4.15 g/m*3 11.24 C 0 km/h
182 11-03-2011 13:00:00 11.5 C 3.88 g/m*3 11.5 C 0 km/h
183 11-03-2011 14:00:00 11.14 C 3.92 g/m*3 11.14 C 0 km/h
184 11-03-2011 15:00:00 11.14 C 3.86 g/m*3 11.14 C 0 km/h
185 11-03-2011 16:00:00 11.12 C 3.77 g/m*3 11.12 C 0 km/h
186 11-03-2011 17:00:00 10.8 C 3.64 g/m*3 10.8 C 0 km/h
187 11-03-2011 18:00:00 9.64 C 3.78 g/m*3 9.64 C 0 km/h
188 11-03-2011 19:00:00 8.2 C 4.34 g/m*3 8.2 C 0 km/h
189 11-03-2011 20:00:00 6.82 C 4.35 g/m*3 6.82 C 0 km/h
190 11-03-2011 21:00:00 4.88 C 4.49 g/m*3 4.88 C 0 km/h
191 11-03-2011 22:00:00 3.5 C 4.57 g/m*3 3.5 C 0 km/h
192 11-03-2011 23:00:00 2.24 C 4.47 g/m*3 2.24 C 0 km/h
193 12-03-2011 00:00:00 0.92 C 4.27 g/m*3 0.92 C 0 km/h
194 12-03-2011 01:00:00 0.22 C 4.16 g/m*3 0.22 C 0 km/h
195 12-03-2011 02:00:00 -0.32 C 4.09 g/m*3 -0.32 C 0 km/h
196 12-03-2011 03:00:00 -0.74 C 4.01 g/m*3 -0.74 C 0 km/h
197 12-03-2011 04:00:00 -1.24 C 3.9 g/m*3 -1.24 C 0 km/h
198 12-03-2011 05:00:00 -1.62 C 3.81 g/m*3 -1.62 C 0 km/h
199 12-03-2011 06:00:00 -1.96 C 3.73 g/m*3 -1.96 C 0 km/h
200 12-03-2011 07:00:00 -2 C 3.75 g/m*3 -2 C 0 km/h
Sensor: Nr:Datum:Temp:Abs-Feuchte:Windchill:Wind:
Aussen-T/F 201 12-03-2011 08:00:00 -0.32 C 4.26 g/m*3 -0.32 C 0 km/h
202 12-03-2011 09:00:00 1.76 C 4.83 g/m*3 1.76 C 0 km/h
203 12-03-2011 10:00:00 5.72 C 5.3 g/m*3 5.72 C 0 km/h
204 12-03-2011 11:00:00 10.74 C 4.88 g/m*3 10.74 C 0 km/h
205 12-03-2011 12:00:00 14.6 C 4.45 g/m*3 14.6 C 0 km/h
206 12-03-2011 13:00:00 16.16 C 4.46 g/m*3 16.16 C 0 km/h
207 12-03-2011 14:00:00 16.58 C 4.32 g/m*3 16.58 C 0 km/h
208 12-03-2011 15:00:00 16.3 C 4.38 g/m*3 16.3 C 0 km/h
209 12-03-2011 16:00:00 18.02 C 4.37 g/m*3 18.02 C 0 km/h
210 12-03-2011 17:00:00 14.98 C 4.87 g/m*3 14.98 C 0 km/h
211 12-03-2011 18:00:00 10.98 C 5.2 g/m*3 10.98 C 0 km/h
212 12-03-2011 19:00:00 10.88 C 4.63 g/m*3 10.88 C 0 km/h
213 12-03-2011 20:00:00 11.34 C 4.29 g/m*3 11.34 C 0 km/h
214 12-03-2011 21:00:00 12.22 C 4.3 g/m*3 12.22 C 0 km/h
215 12-03-2011 22:00:00 12.1 C 4.55 g/m*3 12.1 C 0 km/h
216 12-03-2011 23:00:00 11.14 C 4.79 g/m*3 11.14 C 0 km/h
217 13-03-2011 00:00:00 10.1 C 5.48 g/m*3 10.1 C 0 km/h
218 13-03-2011 01:00:00 10.22 C 5.62 g/m*3 10.22 C 0 km/h
219 13-03-2011 02:00:00 10.6 C 5.8 g/m*3 10.6 C 0 km/h
220 13-03-2011 03:00:00 9.98 C 5.86 g/m*3 9.98 C 0 km/h
221 13-03-2011 04:00:00 9.06 C 6.21 g/m*3 9.06 C 0 km/h
222 13-03-2011 05:00:00 7.9 C 6.9 g/m*3 7.9 C 0 km/h
223 13-03-2011 06:00:00 7.7 C 6.96 g/m*3 7.7 C 0 km/h
224 13-03-2011 07:00:00 7.82 C 6.9 g/m*3 7.82 C 0 km/h
225 13-03-2011 08:00:00 8.72 C 6.89 g/m*3 8.72 C 0 km/h
Sensor: Nr:Datum:Temp:Abs-Feuchte:Windchill:Wind:
Aussen-T/F 226 13-03-2011 09:00:00 10.86 C 6.55 g/m*3 10.86 C 0 km/h
227 13-03-2011 10:00:00 12.64 C 6.1 g/m*3 12.64 C 0 km/h
228 13-03-2011 11:00:00 14.34 C 5.76 g/m*3 14.34 C 0 km/h
229 13-03-2011 12:00:00 14.74 C 5.53 g/m*3 14.74 C 0 km/h
230 13-03-2011 13:00:00 14.7 C 5.34 g/m*3 14.7 C 0 km/h
231 13-03-2011 14:00:00 15.12 C 5.4 g/m*3 15.12 C 0 km/h
232 13-03-2011 15:00:00 15.36 C 5.32 g/m*3 15.36 C 0 km/h
233 13-03-2011 16:00:00 14.5 C 5.47 g/m*3 14.5 C 0 km/h
234 13-03-2011 17:00:00 12.9 C 6.04 g/m*3 12.9 C 0 km/h
235 13-03-2011 18:00:00 11.52 C 6.33 g/m*3 11.52 C 0 km/h
236 13-03-2011 19:00:00 10.76 C 6.65 g/m*3 10.76 C 0 km/h
237 13-03-2011 20:00:00 9.62 C 7.69 g/m*3 9.62 C 0 km/h
238 13-03-2011 21:00:00 9.22 C 7.74 g/m*3 9.22 C 0 km/h
239 13-03-2011 22:00:00 8.86 C 7.72 g/m*3 8.86 C 0 km/h
240 13-03-2011 23:00:00 8.66 C 7.68 g/m*3 8.66 C 0 km/h
241 14-03-2011 00:00:00 8.6 C 7.66 g/m*3 8.6 C 0 km/h
242 14-03-2011 01:00:00 8.56 C 7.71 g/m*3 8.56 C 0 km/h
243 14-03-2011 02:00:00 8.48 C 7.67 g/m*3 8.48 C 0 km/h
244 14-03-2011 03:00:00 8.22 C 7.55 g/m*3 8.22 C 0 km/h
245 14-03-2011 04:00:00 8.34 C 7.61 g/m*3 8.34 C 0 km/h
246 14-03-2011 05:00:00 8.34 C 7.67 g/m*3 8.34 C 0 km/h
247 14-03-2011 06:00:00 7.8 C 7.43 g/m*3 7.8 C 0 km/h
248 14-03-2011 07:00:00 8.04 C 7.59 g/m*3 8.04 C 0 km/h
249 14-03-2011 08:00:00 8.6 C 7.82 g/m*3 8.6 C 0 km/h
250 14-03-2011 09:00:00 9.34 C 8.14 g/m*3 9.34 C 0 km/h
Sensor: Nr:Datum:Temp:Abs-Feuchte:Windchill:Wind:
Aussen-T/F 251 14-03-2011 10:00:00 11.32 C 7.97 g/m*3 11.32 C 0 km/h
252 14-03-2011 11:00:00 12.72 C 7.27 g/m*3 12.72 C 0 km/h
253 14-03-2011 12:00:00 13.12 C 7.04 g/m*3 13.12 C 0 km/h
254 14-03-2011 13:00:00 14.26 C 6.74 g/m*3 14.26 C 0 km/h
255 14-03-2011 14:00:00 14 C 6.59 g/m*3 14 C 0 km/h
256 14-03-2011 15:00:00 13.68 C 6.5 g/m*3 13.68 C 0 km/h
257 14-03-2011 16:00:00 15.14 C 6.05 g/m*3 15.14 C 0 km/h
258 14-03-2011 17:00:00 13.08 C 6.38 g/m*3 13.08 C 0 km/h
259 14-03-2011 18:00:00 11.2 C 6.95 g/m*3 11.2 C 0 km/h
260 14-03-2011 19:00:00 10.04 C 7.03 g/m*3 10.04 C 0 km/h
261 14-03-2011 20:00:00 8.4 C 6.94 g/m*3 8.4 C 0 km/h
262 14-03-2011 21:00:00 7.98 C 6.92 g/m*3 7.98 C 0 km/h
263 14-03-2011 22:00:00 7.26 C 6.86 g/m*3 7.26 C 0 km/h
264 14-03-2011 23:00:00 5.86 C 6.37 g/m*3 5.86 C 0 km/h
265 15-03-2011 00:00:00 5.2 C 6.17 g/m*3 5.2 C 0 km/h
266 15-03-2011 01:00:00 4.88 C 6.13 g/m*3 4.88 C 0 km/h
267 15-03-2011 02:00:00 5.96 C 6.59 g/m*3 5.96 C 0 km/h
268 15-03-2011 03:00:00 5.7 C 6.55 g/m*3 5.7 C 0 km/h
269 15-03-2011 04:00:00 5.78 C 6.57 g/m*3 5.78 C 0 km/h
270 15-03-2011 05:00:00 5.3 C 6.38 g/m*3 5.3 C 0 km/h
271 15-03-2011 06:00:00 4.58 C 6.08 g/m*3 4.58 C 0 km/h
272 15-03-2011 07:00:00 5 C 6.25 g/m*3 5 C 0 km/h
273 15-03-2011 08:00:00 5.34 C 6.39 g/m*3 5.34 C 0 km/h
274 15-03-2011 09:00:00 6.6 C 6.9 g/m*3 6.6 C 0 km/h
275 15-03-2011 10:00:00 9.5 C 7.97 g/m*3 9.5 C 0 km/h
Sensor: Nr:Datum:Temp:Abs-Feuchte:Windchill:Wind:
Aussen-T/F 276 15-03-2011 11:00:00 13.04 C 7.34 g/m*3 13.04 C 0 km/h
277 15-03-2011 12:00:00 17.82 C 5.99 g/m*3 17.82 C 0 km/h
278 15-03-2011 13:00:00 19.16 C 5.72 g/m*3 19.16 C 0 km/h
279 15-03-2011 14:00:00 18.9 C 5.48 g/m*3 18.9 C 0 km/h
280 15-03-2011 15:00:00 21.06 C 5.18 g/m*3 21.06 C 0 km/h
281 15-03-2011 16:00:00 20.7 C 4.93 g/m*3 20.7 C 0 km/h
282 15-03-2011 17:00:00 18.1 C 5.47 g/m*3 18.1 C 0 km/h
283 15-03-2011 18:00:00 13.78 C 6.16 g/m*3 13.78 C 0 km/h
284 15-03-2011 19:00:00 12.1 C 6.39 g/m*3 12.1 C 0 km/h
285 15-03-2011 20:00:00 11.02 C 6.47 g/m*3 11.02 C 0 km/h
286 15-03-2011 21:00:00 9.78 C 6.58 g/m*3 9.78 C 0 km/h
287 15-03-2011 22:00:00 9.24 C 6.46 g/m*3 9.24 C 0 km/h
288 15-03-2011 23:00:00 9.2 C 6.16 g/m*3 9.2 C 0 km/h
289 16-03-2011 00:00:00 8.6 C 6.14 g/m*3 8.6 C 0 km/h
290 16-03-2011 01:00:00 6.88 C 6.09 g/m*3 6.88 C 0 km/h
291 16-03-2011 02:00:00 6.64 C 6.27 g/m*3 6.64 C 0 km/h
292 16-03-2011 03:00:00 6.86 C 6.17 g/m*3 6.86 C 0 km/h
293 16-03-2011 04:00:00 7.2 C 6 g/m*3 7.2 C 0 km/h
294 16-03-2011 05:00:00 7.04 C 5.86 g/m*3 7.04 C 0 km/h
295 16-03-2011 06:00:00 7.14 C 5.96 g/m*3 7.14 C 0 km/h
296 16-03-2011 07:00:00 7.78 C 5.98 g/m*3 7.78 C 0 km/h
297 16-03-2011 08:00:00 9.1 C 5.87 g/m*3 9.1 C 0 km/h
298 16-03-2011 09:00:00 9.88 C 5.74 g/m*3 9.88 C 0 km/h
299 16-03-2011 10:00:00 10.28 C 5.62 g/m*3 10.28 C 0 km/h
300 16-03-2011 11:00:00 11.34 C 5.5 g/m*3 11.34 C 0 km/h
Sensor: Nr:Datum:Temp:Abs-Feuchte:Windchill:Wind:
Aussen-T/F 301 16-03-2011 12:00:00 11.2 C 5.45 g/m*3 11.2 C 0 km/h
302 16-03-2011 13:00:00 11.58 C 5.48 g/m*3 11.58 C 0 km/h
303 16-03-2011 14:00:00 11.58 C 5.48 g/m*3 11.58 C 0 km/h
304 16-03-2011 15:00:00 10.76 C 5.5 g/m*3 10.76 C 0 km/h
305 16-03-2011 16:00:00 10.06 C 5.41 g/m*3 10.06 C 0 km/h
306 16-03-2011 17:00:00 9.52 C 5.47 g/m*3 9.52 C 0 km/h
307 16-03-2011 18:00:00 8.68 C 5.44 g/m*3 8.68 C 0 km/h
308 16-03-2011 19:00:00 8.16 C 5.4 g/m*3 8.16 C 0 km/h
309 16-03-2011 20:00:00 7.9 C 5.4 g/m*3 7.9 C 0 km/h
310 16-03-2011 21:00:00 7.4 C 5.34 g/m*3 7.4 C 0 km/h
311 16-03-2011 22:00:00 7.12 C 5.36 g/m*3 7.12 C 0 km/h
312 16-03-2011 23:00:00 6.96 C 5.46 g/m*3 6.96 C 0 km/h
313 17-03-2011 00:00:00 6.84 C 5.52 g/m*3 6.84 C 0 km/h
314 17-03-2011 01:00:00 6.8 C 5.52 g/m*3 6.8 C 0 km/h
315 17-03-2011 02:00:00 6.78 C 5.59 g/m*3 6.78 C 0 km/h
316 17-03-2011 03:00:00 6.76 C 5.64 g/m*3 6.76 C 0 km/h
317 17-03-2011 04:00:00 6.78 C 5.65 g/m*3 6.78 C 0 km/h
318 17-03-2011 05:00:00 6.76 C 5.69 g/m*3 6.76 C 0 km/h
319 17-03-2011 06:00:00 6.78 C 5.7 g/m*3 6.78 C 0 km/h
320 17-03-2011 07:00:00 6.44 C 5.78 g/m*3 6.44 C 0 km/h
321 17-03-2011 08:00:00 6.32 C 5.65 g/m*3 6.32 C 0 km/h
322 17-03-2011 09:00:00 5.94 C 5.71 g/m*3 5.94 C 0 km/h
323 17-03-2011 10:00:00 5.84 C 5.99 g/m*3 5.84 C 0 km/h
324 17-03-2011 11:00:00 5.98 C 5.96 g/m*3 5.98 C 0 km/h
325 17-03-2011 12:00:00 6.12 C 5.98 g/m*3 6.12 C 0 km/h
Sensor: Nr:Datum:Temp:Abs-Feuchte:Windchill:Wind:
Aussen-T/F 326 17-03-2011 13:00:00 6.1 C 6.01 g/m*3 6.1 C 0 km/h
327 17-03-2011 14:00:00 5.94 C 6.04 g/m*3 5.94 C 0 km/h
328 17-03-2011 15:00:00 5.92 C 6.09 g/m*3 5.92 C 0 km/h
329 17-03-2011 16:00:00 6 C 6.01 g/m*3 6 C 0 km/h
330 17-03-2011 17:00:00 5.94 C 6.03 g/m*3 5.94 C 0 km/h
331 17-03-2011 18:00:00 5.98 C 6.1 g/m*3 5.98 C 0 km/h
332 17-03-2011 19:00:00 6.22 C 6.11 g/m*3 6.22 C 0 km/h
333 17-03-2011 20:00:00 6.32 C 6.12 g/m*3 6.32 C 0 km/h
334 17-03-2011 21:00:00 6.32 C 6.06 g/m*3 6.32 C 0 km/h
335 17-03-2011 22:00:00 6.22 C 5.94 g/m*3 6.22 C 0 km/h
336 17-03-2011 23:00:00 5.98 C 5.83 g/m*3 5.98 C 0 km/h
337 18-03-2011 00:00:00 5.98 C 5.62 g/m*3 5.98 C 0 km/h
338 18-03-2011 01:00:00 5.7 C 5.62 g/m*3 5.7 C 0 km/h
339 18-03-2011 02:00:00 5.44 C 5.71 g/m*3 5.44 C 0 km/h
340 18-03-2011 03:00:00 5.12 C 5.79 g/m*3 5.12 C 0 km/h
341 18-03-2011 04:00:00 5.16 C 5.69 g/m*3 5.16 C 0 km/h
342 18-03-2011 05:00:00 5.04 C 5.64 g/m*3 5.04 C 0 km/h
343 18-03-2011 06:00:00 4.84 C 5.54 g/m*3 4.84 C 0 km/h
344 18-03-2011 07:00:00 4.82 C 5.36 g/m*3 4.82 C 0 km/h
345 18-03-2011 08:00:00 5.2 C 5.04 g/m*3 5.2 C 0 km/h
346 18-03-2011 09:00:00 5.72 C 4.79 g/m*3 5.72 C 0 km/h
347 18-03-2011 10:00:00 6.3 C 4.53 g/m*3 6.3 C 0 km/h
348 18-03-2011 11:00:00 6.78 C 4.75 g/m*3 6.78 C 0 km/h
349 18-03-2011 12:00:00 7.5 C 4.67 g/m*3 7.5 C 0 km/h
350 18-03-2011 13:00:00 8.76 C 4.58 g/m*3 8.76 C 0 km/h
Sensor: Nr:Datum:Temp:Abs-Feuchte:Windchill:Wind:
Aussen-T/F 351 18-03-2011 14:00:00 8.78 C 4.52 g/m*3 8.78 C 0 km/h
352 18-03-2011 15:00:00 8.9 C 4.49 g/m*3 8.9 C 0 km/h
353 18-03-2011 16:00:00 8.74 C 4.49 g/m*3 8.74 C 0 km/h
354 18-03-2011 17:00:00 7.94 C 4.83 g/m*3 7.94 C 0 km/h
355 18-03-2011 18:00:00 7.34 C 5.1 g/m*3 7.34 C 0 km/h
356 18-03-2011 19:00:00 6.86 C 5.22 g/m*3 6.86 C 0 km/h
357 18-03-2011 20:00:00 6.4 C 5.31 g/m*3 6.4 C 0 km/h
358 18-03-2011 21:00:00 6.2 C 5.34 g/m*3 6.2 C 0 km/h
359 18-03-2011 22:00:00 5.44 C 5.76 g/m*3 5.44 C 0 km/h
360 18-03-2011 23:00:00 5.08 C 5.97 g/m*3 5.08 C 0 km/h
361 19-03-2011 00:00:00 4.72 C 5.98 g/m*3 4.72 C 0 km/h
362 19-03-2011 01:00:00 4.52 C 5.95 g/m*3 4.52 C 0 km/h
363 19-03-2011 02:00:00 4.38 C 5.93 g/m*3 4.38 C 0 km/h
364 19-03-2011 03:00:00 4.48 C 5.97 g/m*3 4.48 C 0 km/h
365 19-03-2011 04:00:00 4.68 C 6.11 g/m*3 4.68 C 0 km/h
366 19-03-2011 05:00:00 4.68 C 6.12 g/m*3 4.68 C 0 km/h
367 19-03-2011 06:00:00 4.54 C 6.06 g/m*3 4.54 C 0 km/h
368 19-03-2011 07:00:00 4.38 C 6 g/m*3 4.38 C 0 km/h
369 19-03-2011 08:00:00 4.74 C 6.05 g/m*3 4.74 C 0 km/h
370 19-03-2011 09:00:00 5.78 C 5.74 g/m*3 5.78 C 0 km/h
371 19-03-2011 10:00:00 6.8 C 5.29 g/m*3 6.8 C 0 km/h
372 19-03-2011 11:00:00 7.36 C 4.95 g/m*3 7.36 C 0 km/h
373 19-03-2011 12:00:00 11.32 C 3.55 g/m*3 11.32 C 0 km/h
374 19-03-2011 13:00:00 12.08 C 2.93 g/m*3 12.08 C 0 km/h
375 19-03-2011 14:00:00 12.6 C 2.61 g/m*3 12.6 C 0 km/h
Sensor: Nr:Datum:Temp:Abs-Feuchte:Windchill:Wind:
Aussen-T/F 376 19-03-2011 15:00:00 16 C 2.72 g/m*3 16 C 0 km/h
377 19-03-2011 16:00:00 17.46 C 2.97 g/m*3 17.46 C 0 km/h
378 19-03-2011 17:00:00 15.38 C 2.62 g/m*3 15.38 C 0 km/h
379 19-03-2011 18:00:00 8.5 C 3.33 g/m*3 8.5 C 0 km/h
380 19-03-2011 19:00:00 3.86 C 3.46 g/m*3 3.86 C 0 km/h
381 19-03-2011 20:00:00 2.58 C 3.68 g/m*3 2.58 C 0 km/h
382 19-03-2011 21:00:00 0.88 C 3.68 g/m*3 0.88 C 0 km/h
383 19-03-2011 22:00:00 -0.76 C 3.58 g/m*3 -0.76 C 0 km/h
384 19-03-2011 23:00:00 -1.84 C 3.38 g/m*3 -1.84 C 0 km/h
385 20-03-2011 00:00:00 -2.44 C 3.35 g/m*3 -2.44 C 0 km/h
386 20-03-2011 01:00:00 -2.86 C 3.32 g/m*3 -2.86 C 0 km/h
387 20-03-2011 02:00:00 -3.3 C 3.27 g/m*3 -3.3 C 0 km/h
388 20-03-2011 03:00:00 -3.62 C 3.23 g/m*3 -3.62 C 0 km/h
389 20-03-2011 04:00:00 -3.86 C 3.19 g/m*3 -3.86 C 0 km/h
390 20-03-2011 05:00:00 -3.78 C 3.25 g/m*3 -3.78 C 0 km/h
391 20-03-2011 06:00:00 -3.72 C 3.3 g/m*3 -3.72 C 0 km/h
392 20-03-2011 07:00:00 -3.76 C 3.3 g/m*3 -3.76 C 0 km/h
393 20-03-2011 08:00:00 -2.52 C 3.63 g/m*3 -2.52 C 0 km/h
394 20-03-2011 09:00:00 -0.6 C 4.13 g/m*3 -0.6 C 0 km/h
395 20-03-2011 10:00:00 2.66 C 4.37 g/m*3 2.66 C 0 km/h
396 20-03-2011 11:00:00 5.52 C 3.8 g/m*3 5.52 C 0 km/h
397 20-03-2011 12:00:00 11.74 C 2.66 g/m*3 11.74 C 0 km/h
398 20-03-2011 13:00:00 12.58 C 2.21 g/m*3 12.58 C 0 km/h
399 20-03-2011 14:00:00 13.02 C 2.27 g/m*3 13.02 C 0 km/h
400 20-03-2011 15:00:00 17.44 C 2.97 g/m*3 17.44 C 0 km/h
Sensor: Nr:Datum:Temp:Abs-Feuchte:Windchill:Wind:
Aussen-T/F 401 20-03-2011 16:00:00 18.98 C 3.26 g/m*3 18.98 C 0 km/h
402 20-03-2011 17:00:00 15.94 C 2.72 g/m*3 15.94 C 0 km/h
403 20-03-2011 18:00:00 7.92 C 3.54 g/m*3 7.92 C 0 km/h
404 20-03-2011 19:00:00 4.36 C 3.65 g/m*3 4.36 C 0 km/h
405 20-03-2011 20:00:00 2.64 C 3.49 g/m*3 2.64 C 0 km/h
406 20-03-2011 21:00:00 0.76 C 3.35 g/m*3 0.76 C 0 km/h
407 20-03-2011 22:00:00 -0.44 C 3.25 g/m*3 -0.44 C 0 km/h
408 20-03-2011 23:00:00 -1.26 C 3.18 g/m*3 -1.26 C 0 km/h
409 21-03-2011 00:00:00 -1.64 C 3.21 g/m*3 -1.64 C 0 km/h
410 21-03-2011 01:00:00 -2.5 C 3.15 g/m*3 -2.5 C 0 km/h
411 21-03-2011 02:00:00 -2.62 C 3.28 g/m*3 -2.62 C 0 km/h
412 21-03-2011 03:00:00 -3.08 C 3.25 g/m*3 -3.08 C 0 km/h
413 21-03-2011 04:00:00 -3.5 C 3.2 g/m*3 -3.5 C 0 km/h
414 21-03-2011 05:00:00 -3.86 C 3.15 g/m*3 -3.86 C 0 km/h
415 21-03-2011 06:00:00 -3.94 C 3.16 g/m*3 -3.94 C 0 km/h
416 21-03-2011 07:00:00 -3.22 C 3.36 g/m*3 -3.22 C 0 km/h
417 21-03-2011 08:00:00 -2.12 C 3.63 g/m*3 -2.12 C 0 km/h
418 21-03-2011 09:00:00 -0.64 C 3.87 g/m*3 -0.64 C 0 km/h
419 21-03-2011 10:00:00 2.56 C 4.22 g/m*3 2.56 C 0 km/h
420 21-03-2011 11:00:00 7.38 C 3.72 g/m*3 7.38 C 0 km/h
421 21-03-2011 12:00:00 13.6 C 3.18 g/m*3 13.6 C 0 km/h
422 21-03-2011 13:00:00 14.34 C 2.46 g/m*3 14.34 C 0 km/h
423 21-03-2011 14:00:00 16.04 C 2.73 g/m*3 16.04 C 0 km/h
424 21-03-2011 15:00:00 19.7 C 3.4 g/m*3 19.7 C 0 km/h
425 21-03-2011 16:00:00 19.98 C 3.45 g/m*3 19.98 C 0 km/h
Sensor: Nr:Datum:Temp:Abs-Feuchte:Windchill:Wind:
Aussen-T/F 426 21-03-2011 17:00:00 17.66 C 3.07 g/m*3 17.66 C 0 km/h
427 21-03-2011 18:00:00 10.58 C 3.65 g/m*3 10.58 C 0 km/h
428 21-03-2011 19:00:00 6.66 C 3.97 g/m*3 6.66 C 0 km/h
429 21-03-2011 20:00:00 5.06 C 4.09 g/m*3 5.06 C 0 km/h
430 21-03-2011 21:00:00 3.14 C 4.05 g/m*3 3.14 C 0 km/h
431 21-03-2011 22:00:00 1.74 C 3.94 g/m*3 1.74 C 0 km/h
432 21-03-2011 23:00:00 0.6 C 3.89 g/m*3 0.6 C 0 km/h
433 22-03-2011 00:00:00 -0.16 C 3.78 g/m*3 -0.16 C 0 km/h
434 22-03-2011 01:00:00 -0.86 C 3.75 g/m*3 -0.86 C 0 km/h
435 22-03-2011 02:00:00 -1.36 C 3.72 g/m*3 -1.36 C 0 km/h
436 22-03-2011 03:00:00 -1.86 C 3.62 g/m*3 -1.86 C 0 km/h
437 22-03-2011 04:00:00 -2.24 C 3.55 g/m*3 -2.24 C 0 km/h
438 22-03-2011 05:00:00 -2.56 C 3.53 g/m*3 -2.56 C 0 km/h
439 22-03-2011 06:00:00 -2.22 C 3.67 g/m*3 -2.22 C 0 km/h
440 22-03-2011 07:00:00 -2.12 C 3.72 g/m*3 -2.12 C 0 km/h
441 22-03-2011 08:00:00 -0.94 C 4.08 g/m*3 -0.94 C 0 km/h
442 22-03-2011 09:00:00 0.8 C 4.59 g/m*3 0.8 C 0 km/h
443 22-03-2011 10:00:00 4.84 C 4.81 g/m*3 4.84 C 0 km/h
444 22-03-2011 11:00:00 8.82 C 4.18 g/m*3 8.82 C 0 km/h
445 22-03-2011 12:00:00 15.66 C 3.52 g/m*3 15.66 C 0 km/h
446 22-03-2011 13:00:00 16.9 C 2.88 g/m*3 16.9 C 0 km/h
447 22-03-2011 14:00:00 18.88 C 3.24 g/m*3 18.88 C 0 km/h
448 22-03-2011 15:00:00 22.26 C 3.94 g/m*3 22.26 C 0 km/h
449 22-03-2011 16:00:00 21.74 C 3.82 g/m*3 21.74 C 0 km/h
450 22-03-2011 17:00:00 19.04 C 3.27 g/m*3 19.04 C 0 km/h
Sensor: Nr:Datum:Temp:Abs-Feuchte:Windchill:Wind:
Aussen-T/F 451 22-03-2011 18:00:00 13.28 C 3.21 g/m*3 13.28 C 0 km/h
452 22-03-2011 19:00:00 9.68 C 3.89 g/m*3 9.68 C 0 km/h
453 22-03-2011 20:00:00 9.14 C 4.11 g/m*3 9.14 C 0 km/h
454 22-03-2011 21:00:00 7.5 C 4.63 g/m*3 7.5 C 0 km/h
455 22-03-2011 22:00:00 5.88 C 4.82 g/m*3 5.88 C 0 km/h
456 22-03-2011 23:00:00 3.9 C 4.8 g/m*3 3.9 C 0 km/h
457 23-03-2011 00:00:00 2.68 C 4.67 g/m*3 2.68 C 0 km/h
458 23-03-2011 01:00:00 2.22 C 4.72 g/m*3 2.22 C 0 km/h
459 23-03-2011 02:00:00 1.7 C 4.69 g/m*3 1.7 C 0 km/h
460 23-03-2011 03:00:00 0.58 C 4.39 g/m*3 0.58 C 0 km/h
461 23-03-2011 04:00:00 0.3 C 4.38 g/m*3 0.3 C 0 km/h
462 23-03-2011 05:00:00 0.06 C 4.37 g/m*3 0.06 C 0 km/h
463 23-03-2011 06:00:00 -0.1 C 4.37 g/m*3 -0.1 C 0 km/h
464 23-03-2011 07:00:00 0.54 C 4.61 g/m*3 0.54 C 0 km/h
465 23-03-2011 08:00:00 2.04 C 5.04 g/m*3 2.04 C 0 km/h
466 23-03-2011 09:00:00 4.54 C 5.6 g/m*3 4.54 C 0 km/h
467 23-03-2011 10:00:00 8.02 C 5.53 g/m*3 8.02 C 0 km/h
468 23-03-2011 11:00:00 11.9 C 5.4 g/m*3 11.9 C 0 km/h
469 23-03-2011 12:00:00 16.98 C 4.97 g/m*3 16.98 C 0 km/h
470 23-03-2011 13:00:00 17.72 C 4.44 g/m*3 17.72 C 0 km/h
471 23-03-2011 14:00:00 20.16 C 4.29 g/m*3 20.16 C 0 km/h
472 23-03-2011 15:00:00 22.58 C 4.05 g/m*3 22.58 C 0 km/h
473 23-03-2011 16:00:00 22.24 C 4.29 g/m*3 22.24 C 0 km/h
474 23-03-2011 17:00:00 19.14 C 4.86 g/m*3 19.14 C 0 km/h
475 23-03-2011 18:00:00 13.36 C 5.68 g/m*3 13.36 C 0 km/h
Sensor: Nr:Datum:Temp:Abs-Feuchte:Windchill:Wind:
Aussen-T/F 476 23-03-2011 19:00:00 10.72 C 5.92 g/m*3 10.72 C 0 km/h
477 23-03-2011 20:00:00 9.6 C 5.99 g/m*3 9.6 C 0 km/h
478 23-03-2011 21:00:00 8.08 C 6 g/m*3 8.08 C 0 km/h
479 23-03-2011 22:00:00 6.22 C 5.86 g/m*3 6.22 C 0 km/h
480 23-03-2011 23:00:00 4.96 C 5.72 g/m*3 4.96 C 0 km/h
481 24-03-2011 00:00:00 4.26 C 5.54 g/m*3 4.26 C 0 km/h
482 24-03-2011 01:00:00 3.4 C 5.35 g/m*3 3.4 C 0 km/h
483 24-03-2011 02:00:00 2.94 C 5.23 g/m*3 2.94 C 0 km/h
484 24-03-2011 03:00:00 2.56 C 5.18 g/m*3 2.56 C 0 km/h
485 24-03-2011 04:00:00 2.26 C 5.1 g/m*3 2.26 C 0 km/h
486 24-03-2011 05:00:00 1.84 C 4.99 g/m*3 1.84 C 0 km/h
487 24-03-2011 06:00:00 1.4 C 4.91 g/m*3 1.4 C 0 km/h
488 24-03-2011 07:00:00 1.56 C 4.96 g/m*3 1.56 C 0 km/h
489 24-03-2011 08:00:00 2.8 C 5.4 g/m*3 2.8 C 0 km/h
490 24-03-2011 09:00:00 4.98 C 6.18 g/m*3 4.98 C 0 km/h
491 24-03-2011 10:00:00 8.06 C 6.67 g/m*3 8.06 C 0 km/h
492 24-03-2011 11:00:00 12.1 C 5.1 g/m*3 12.1 C 0 km/h
493 24-03-2011 12:00:00 17.36 C 3.99 g/m*3 17.36 C 0 km/h
494 24-03-2011 13:00:00 18.78 C 3.31 g/m*3 18.78 C 0 km/h
495 24-03-2011 14:00:00 21.26 C 3.72 g/m*3 21.26 C 0 km/h
496 24-03-2011 15:00:00 24.54 C 4.49 g/m*3 24.54 C 0 km/h
497 24-03-2011 16:00:00 22.62 C 4.02 g/m*3 22.62 C 0 km/h
498 24-03-2011 17:00:00 20.12 C 3.65 g/m*3 20.12 C 0 km/h
499 24-03-2011 18:00:00 13.84 C 3.65 g/m*3 13.84 C 0 km/h
500 24-03-2011 19:00:00 9.84 C 4.15 g/m*3 9.84 C 0 km/h
Sensor: Nr:Datum:Temp:Abs-Feuchte:Windchill:Wind:
Aussen-T/F 501 24-03-2011 20:00:00 8 C 4.43 g/m*3 8 C 0 km/h
502 24-03-2011 21:00:00 6.08 C 4.01 g/m*3 6.08 C 0 km/h
503 24-03-2011 22:00:00 4.72 C 4 g/m*3 4.72 C 0 km/h
504 24-03-2011 23:00:00 4.14 C 3.95 g/m*3 4.14 C 0 km/h
505 25-03-2011 00:00:00 3.32 C 3.99 g/m*3 3.32 C 0 km/h
506 25-03-2011 01:00:00 1.92 C 3.98 g/m*3 1.92 C 0 km/h
507 25-03-2011 02:00:00 2.02 C 4.12 g/m*3 2.02 C 0 km/h
508 25-03-2011 03:00:00 1.04 C 4.07 g/m*3 1.04 C 0 km/h
509 25-03-2011 04:00:00 0.7 C 4.12 g/m*3 0.7 C 0 km/h
510 25-03-2011 05:00:00 0.08 C 4.04 g/m*3 0.08 C 0 km/h
511 25-03-2011 06:00:00 0.12 C 4.17 g/m*3 0.12 C 0 km/h
512 25-03-2011 07:00:00 1 C 4.42 g/m*3 1 C 0 km/h
513 25-03-2011 08:00:00 3.58 C 4.62 g/m*3 3.58 C 0 km/h
514 25-03-2011 09:00:00 6.64 C 4.36 g/m*3 6.64 C 0 km/h
515 25-03-2011 10:00:00 10.02 C 4.18 g/m*3 10.02 C 0 km/h
516 25-03-2011 11:00:00 13.34 C 4.22 g/m*3 13.34 C 0 km/h
517 25-03-2011 12:00:00 18.02 C 3.91 g/m*3 18.02 C 0 km/h
518 25-03-2011 13:00:00 20.04 C 4.16 g/m*3 20.04 C 0 km/h
519 25-03-2011 14:00:00 22.9 C 4.37 g/m*3 22.9 C 0 km/h
520 25-03-2011 15:00:00 24.52 C 4.48 g/m*3 24.52 C 0 km/h
521 25-03-2011 16:00:00 22.02 C 4.27 g/m*3 22.02 C 0 km/h
522 25-03-2011 17:00:00 18.94 C 4.9 g/m*3 18.94 C 0 km/h
523 25-03-2011 18:00:00 14.78 C 5.36 g/m*3 14.78 C 0 km/h
524 25-03-2011 19:00:00 11.5 C 5.6 g/m*3 11.5 C 0 km/h
525 25-03-2011 20:00:00 10.06 C 5.85 g/m*3 10.06 C 0 km/h
Sensor: Nr:Datum:Temp:Abs-Feuchte:Windchill:Wind:
Aussen-T/F 526 25-03-2011 21:00:00 9.08 C 5.72 g/m*3 9.08 C 0 km/h
527 25-03-2011 22:00:00 8.55 C 5.78 g/m*3 8.55 C 0 km/h
528 25-03-2011 23:00:00 7.38 C 5.75 g/m*3 7.38 C 0 km/h
529 26-03-2011 00:00:00 5.56 C 5.58 g/m*3 5.56 C 0 km/h
530 26-03-2011 01:00:00 5.24 C 5.8 g/m*3 5.24 C 0 km/h
531 26-03-2011 02:00:00 4.62 C 5.59 g/m*3 4.62 C 0 km/h
532 26-03-2011 03:00:00 3.94 C 5.52 g/m*3 3.94 C 0 km/h
533 26-03-2011 04:00:00 4.44 C 5.75 g/m*3 4.44 C 0 km/h
534 26-03-2011 05:00:00 4.86 C 5.6 g/m*3 4.86 C 0 km/h
535 26-03-2011 06:00:00 4.86 C 5.51 g/m*3 4.86 C 0 km/h
536 26-03-2011 07:00:00 5.64 C 5.54 g/m*3 5.64 C 0 km/h
537 26-03-2011 08:00:00 6.32 C 5.66 g/m*3 6.32 C 0 km/h
538 26-03-2011 09:00:00 8.88 C 5.32 g/m*3 8.88 C 0 km/h
539 26-03-2011 10:00:00 9.16 C 4.6 g/m*3 9.16 C 0 km/h
540 26-03-2011 11:00:00 10.56 C 3.91 g/m*3 10.56 C 0 km/h
541 26-03-2011 12:00:00 12.56 C 3.42 g/m*3 12.56 C 0 km/h
542 26-03-2011 13:00:00 13.34 C 3.24 g/m*3 13.34 C 0 km/h
543 26-03-2011 14:00:00 14.58 C 3.1 g/m*3 14.58 C 0 km/h
544 26-03-2011 15:00:00 15.32 C 2.95 g/m*3 15.32 C 0 km/h
545 26-03-2011 16:00:00 12.66 C 3.46 g/m*3 12.66 C 0 km/h
546 26-03-2011 17:00:00 11.1 C 3.87 g/m*3 11.1 C 0 km/h
547 26-03-2011 18:00:00 9.4 C 4.12 g/m*3 9.4 C 0 km/h
548 26-03-2011 19:00:00 8 C 4.45 g/m*3 8 C 0 km/h
549 26-03-2011 20:00:00 6.74 C 4.54 g/m*3 6.74 C 0 km/h
550 26-03-2011 21:00:00 6.12 C 4.73 g/m*3 6.12 C 0 km/h
Sensor: Nr:Datum:Temp:Abs-Feuchte:Windchill:Wind:
Aussen-T/F 551 26-03-2011 22:00:00 5.64 C 4.83 g/m*3 5.64 C 0 km/h
552 26-03-2011 23:00:00 5.32 C 4.84 g/m*3 5.32 C 0 km/h
553 27-03-2011 00:00:00 5.06 C 4.91 g/m*3 5.06 C 0 km/h
554 27-03-2011 01:00:00 4.98 C 4.94 g/m*3 4.98 C 0 km/h
555 27-03-2011 02:00:00 4.82 C 4.87 g/m*3 4.82 C 0 km/h
556 27-03-2011 04:00:00 4.88 C 4.81 g/m*3 4.88 C 0 km/h
557 27-03-2011 05:00:00 4.68 C 4.86 g/m*3 4.68 C 0 km/h
558 27-03-2011 06:00:00 4.4 C 4.75 g/m*3 4.4 C 0 km/h
559 27-03-2011 07:00:00 4.4 C 4.78 g/m*3 4.4 C 0 km/h
560 27-03-2011 08:00:00 5.56 C 4.78 g/m*3 5.56 C 0 km/h
561 27-03-2011 09:00:00 7.16 C 4.62 g/m*3 7.16 C 0 km/h
562 27-03-2011 10:00:00 8.34 C 4.48 g/m*3 8.34 C 0 km/h
563 27-03-2011 11:00:00 10.02 C 4.42 g/m*3 10.02 C 0 km/h
564 27-03-2011 12:00:00 11.32 C 4.39 g/m*3 11.32 C 0 km/h
565 27-03-2011 13:00:00 14.1 C 4.59 g/m*3 14.1 C 0 km/h
566 27-03-2011 14:00:00 15.86 C 4.16 g/m*3 15.86 C 0 km/h
567 27-03-2011 15:00:00 18.86 C 3.78 g/m*3 18.86 C 0 km/h
568 27-03-2011 16:00:00 19.96 C 3.45 g/m*3 19.96 C 0 km/h
569 27-03-2011 17:00:00 17.8 C 3.52 g/m*3 17.8 C 0 km/h
570 27-03-2011 18:00:00 15.46 C 3.98 g/m*3 15.46 C 0 km/h
571 27-03-2011 19:00:00 12.36 C 4.69 g/m*3 12.36 C 0 km/h
572 27-03-2011 20:00:00 9.06 C 4.81 g/m*3 9.06 C 0 km/h
573 27-03-2011 21:00:00 7.78 C 4.96 g/m*3 7.78 C 0 km/h
574 27-03-2011 22:00:00 7.74 C 4.99 g/m*3 7.74 C 0 km/h
575 27-03-2011 23:00:00 6.7 C 5.11 g/m*3 6.7 C 0 km/h
Sensor: Nr:Datum:Temp:Abs-Feuchte:Windchill:Wind:
Aussen-T/F 576 28-03-2011 00:00:00 5.46 C 5.13 g/m*3 5.46 C 0 km/h
577 28-03-2011 01:00:00 4 C 5 g/m*3 4 C 0 km/h
578 28-03-2011 02:00:00 2.8 C 4.89 g/m*3 2.8 C 0 km/h
579 28-03-2011 03:00:00 2.14 C 4.81 g/m*3 2.14 C 0 km/h
580 28-03-2011 04:00:00 2.68 C 5.1 g/m*3 2.68 C 0 km/h
581 28-03-2011 05:00:00 1.84 C 4.85 g/m*3 1.84 C 0 km/h
582 28-03-2011 06:00:00 1.14 C 4.67 g/m*3 1.14 C 0 km/h
583 28-03-2011 07:00:00 0.62 C 4.58 g/m*3 0.62 C 0 km/h
584 28-03-2011 08:00:00 1.14 C 4.77 g/m*3 1.14 C 0 km/h
585 28-03-2011 09:00:00 2.42 C 5.15 g/m*3 2.42 C 0 km/h
586 28-03-2011 10:00:00 4.66 C 5.49 g/m*3 4.66 C 0 km/h
587 28-03-2011 11:00:00 8.6 C 4.35 g/m*3 8.6 C 0 km/h
588 28-03-2011 12:00:00 11.28 C 3.44 g/m*3 11.28 C 0 km/h
589 28-03-2011 13:00:00 13.88 C 3.07 g/m*3 13.88 C 0 km/h
590 28-03-2011 14:00:00 14.58 C 2.5 g/m*3 14.58 C 0 km/h
591 28-03-2011 15:00:00 17.22 C 2.93 g/m*3 17.22 C 0 km/h
592 28-03-2011 16:00:00 18.94 C 3.25 g/m*3 18.94 C 0 km/h
593 28-03-2011 17:00:00 17.94 C 3.06 g/m*3 17.94 C 0 km/h
594 28-03-2011 18:00:00 16.12 C 2.74 g/m*3 16.12 C 0 km/h
595 28-03-2011 19:00:00 12.38 C 2.88 g/m*3 12.38 C 0 km/h
596 28-03-2011 20:00:00 9.38 C 3.22 g/m*3 9.38 C 0 km/h
597 28-03-2011 21:00:00 6.9 C 3.68 g/m*3 6.9 C 0 km/h
598 28-03-2011 22:00:00 5.7 C 3.8 g/m*3 5.7 C 0 km/h
599 28-03-2011 23:00:00 3.52 C 3.97 g/m*3 3.52 C 0 km/h
600 29-03-2011 00:00:00 1.3 C 3.86 g/m*3 1.3 C 0 km/h
Sensor: Nr:Datum:Temp:Abs-Feuchte:Windchill:Wind:
Aussen-T/F 601 29-03-2011 01:00:00 0.46 C 3.81 g/m*3 0.46 C 0 km/h
602 29-03-2011 02:00:00 -0.34 C 3.7 g/m*3 -0.34 C 0 km/h
603 29-03-2011 03:00:00 -0.84 C 3.72 g/m*3 -0.84 C 0 km/h
604 29-03-2011 04:00:00 -1.46 C 3.67 g/m*3 -1.46 C 0 km/h
605 29-03-2011 05:00:00 -2 C 3.58 g/m*3 -2 C 0 km/h
606 29-03-2011 06:00:00 -2 C 3.66 g/m*3 -2 C 0 km/h
607 29-03-2011 07:00:00 -2.22 C 3.64 g/m*3 -2.22 C 0 km/h
608 29-03-2011 08:00:00 -1.64 C 3.8 g/m*3 -1.64 C 0 km/h
609 29-03-2011 09:00:00 -0.24 C 4.21 g/m*3 -0.24 C 0 km/h
610 29-03-2011 10:00:00 2.38 C 4.69 g/m*3 2.38 C 0 km/h
611 29-03-2011 11:00:00 6.68 C 4.34 g/m*3 6.68 C 0 km/h
612 29-03-2011 12:00:00 10.4 C 4.12 g/m*3 10.4 C 0 km/h
613 29-03-2011 13:00:00 16.1 C 3.73 g/m*3 16.1 C 0 km/h
614 29-03-2011 14:00:00 18.2 C 3.17 g/m*3 18.2 C 0 km/h
615 29-03-2011 15:00:00 20.6 C 3.58 g/m*3 20.6 C 0 km/h
616 29-03-2011 16:00:00 23.64 C 4.26 g/m*3 23.64 C 0 km/h
617 29-03-2011 17:00:00 21.6 C 3.79 g/m*3 21.6 C 0 km/h
618 29-03-2011 18:00:00 20.18 C 3.49 g/m*3 20.18 C 0 km/h
619 29-03-2011 19:00:00 14.96 C 4.3 g/m*3 14.96 C 0 km/h
620 29-03-2011 20:00:00 10.66 C 4.68 g/m*3 10.66 C 0 km/h
621 29-03-2011 21:00:00 8.56 C 4.78 g/m*3 8.56 C 0 km/h
622 29-03-2011 22:00:00 7.52 C 4.78 g/m*3 7.52 C 0 km/h
623 29-03-2011 23:00:00 5.6 C 4.71 g/m*3 5.6 C 0 km/h
624 30-03-2011 00:00:00 4.12 C 4.54 g/m*3 4.12 C 0 km/h
625 30-03-2011 01:00:00 3.08 C 4.57 g/m*3 3.08 C 0 km/h
Sensor: Nr:Datum:Temp:Abs-Feuchte:Windchill:Wind:
Aussen-T/F 626 30-03-2011 02:00:00 3.06 C 4.79 g/m*3 3.06 C 0 km/h
627 30-03-2011 03:00:00 1.82 C 4.53 g/m*3 1.82 C 0 km/h
628 30-03-2011 04:00:00 1.02 C 4.42 g/m*3 1.02 C 0 km/h
629 30-03-2011 05:00:00 0.64 C 4.44 g/m*3 0.64 C 0 km/h
630 30-03-2011 06:00:00 0.14 C 4.32 g/m*3 0.14 C 0 km/h
631 30-03-2011 07:00:00 0.62 C 4.53 g/m*3 0.62 C 0 km/h
632 30-03-2011 08:00:00 2.94 C 5.09 g/m*3 2.94 C 0 km/h
633 30-03-2011 09:00:00 5.08 C 4.66 g/m*3 5.08 C 0 km/h
634 30-03-2011 10:00:00 8.5 C 4.78 g/m*3 8.5 C 0 km/h
635 30-03-2011 11:00:00 11.28 C 4.65 g/m*3 11.28 C 0 km/h
636 30-03-2011 12:00:00 12.7 C 5.41 g/m*3 12.7 C 0 km/h
637 30-03-2011 13:00:00 14.46 C 5.83 g/m*3 14.46 C 0 km/h
638 30-03-2011 14:00:00 16.16 C 5.67 g/m*3 16.16 C 0 km/h
639 30-03-2011 15:00:00 17.16 C 5.55 g/m*3 17.16 C 0 km/h
640 30-03-2011 16:00:00 15.96 C 5.49 g/m*3 15.96 C 0 km/h
641 30-03-2011 17:00:00 13.94 C 7.16 g/m*3 13.94 C 0 km/h
642 30-03-2011 18:00:00 14.16 C 7.24 g/m*3 14.16 C 0 km/h
643 30-03-2011 19:00:00 12.7 C 6.35 g/m*3 12.7 C 0 km/h
644 30-03-2011 20:00:00 11.5 C 6.49 g/m*3 11.5 C 0 km/h
645 30-03-2011 21:00:00 10.36 C 6.69 g/m*3 10.36 C 0 km/h
646 30-03-2011 22:00:00 9.8 C 6.77 g/m*3 9.8 C 0 km/h
647 30-03-2011 23:00:00 9.52 C 7 g/m*3 9.52 C 0 km/h
648 31-03-2011 00:00:00 10.24 C 7.33 g/m*3 10.24 C 0 km/h
649 31-03-2011 01:00:00 9.92 C 7.37 g/m*3 9.92 C 0 km/h
650 31-03-2011 02:00:00 9.54 C 7.15 g/m*3 9.54 C 0 km/h
Sensor: Nr:Datum:Temp:Abs-Feuchte:Windchill:Wind:
Aussen-T/F 651 31-03-2011 03:00:00 9.44 C 7.24 g/m*3 9.44 C 0 km/h
652 31-03-2011 04:00:00 10.48 C 6.95 g/m*3 10.48 C 0 km/h
653 31-03-2011 05:00:00 10.46 C 6.95 g/m*3 10.46 C 0 km/h
654 31-03-2011 06:00:00 10.4 C 7.09 g/m*3 10.4 C 0 km/h
655 31-03-2011 07:00:00 10.5 C 7.1 g/m*3 10.5 C 0 km/h
656 31-03-2011 08:00:00 10.88 C 7.21 g/m*3 10.88 C 0 km/h
657 31-03-2011 09:00:00 11.4 C 7.27 g/m*3 11.4 C 0 km/h
658 31-03-2011 10:00:00 11.86 C 7.23 g/m*3 11.86 C 0 km/h
659 31-03-2011 11:00:00 11.46 C 7.56 g/m*3 11.46 C 0 km/h
660 31-03-2011 12:00:00 11.62 C 8.2 g/m*3 11.62 C 0 km/h
661 31-03-2011 13:00:00 12.02 C 8.32 g/m*3 12.02 C 0 km/h
662 31-03-2011 14:00:00 12.1 C 8.41 g/m*3 12.1 C 0 km/h
663 31-03-2011 15:00:00 13.06 C 8.51 g/m*3 13.06 C 0 km/h
664 31-03-2011 16:00:00 14.76 C 8.42 g/m*3 14.76 C 0 km/h
665 31-03-2011 17:00:00 14.48 C 8.4 g/m*3 14.48 C 0 km/h
666 31-03-2011 18:00:00 13.82 C 8.73 g/m*3 13.82 C 0 km/h
667 31-03-2011 19:00:00 14.2 C 8.6 g/m*3 14.2 C 0 km/h
668 31-03-2011 20:00:00 13.82 C 8.4 g/m*3 13.82 C 0 km/h
669 31-03-2011 21:00:00 14.06 C 8.5 g/m*3 14.06 C 0 km/h
670 31-03-2011 22:00:00 14.22 C 8.26 g/m*3 14.22 C 0 km/h
671 31-03-2011 23:00:00 14.18 C 8.42 g/m*3 14.18 C 0 km/h
672 01-04-2011 00:00:00 13.68 C 8.63 g/m*3 13.68 C 0 km/h
673 01-04-2011 01:00:00 13.08 C 8.57 g/m*3 13.08 C 0 km/h
674 01-04-2011 02:00:00 11.96 C 8.59 g/m*3 11.96 C 0 km/h
675 01-04-2011 03:00:00 12.36 C 8.52 g/m*3 12.36 C 0 km/h
Sensor: Nr:Datum:Temp:Abs-Feuchte:Windchill:Wind:
Aussen-T/F 676 01-04-2011 04:00:00 12.06 C 8.3 g/m*3 12.06 C 0 km/h
677 01-04-2011 05:00:00 11.34 C 8.08 g/m*3 11.34 C 0 km/h
678 01-04-2011 06:00:00 10.14 C 7.96 g/m*3 10.14 C 0 km/h
679 01-04-2011 07:00:00 10.22 C 8.08 g/m*3 10.22 C 0 km/h
680 01-04-2011 08:00:00 10.86 C 8.43 g/m*3 10.86 C 0 km/h
681 01-04-2011 09:00:00 12.74 C 8.39 g/m*3 12.74 C 0 km/h
682 01-04-2011 10:00:00 15.36 C 8 g/m*3 15.36 C 0 km/h
683 01-04-2011 11:00:00 15.9 C 7.88 g/m*3 15.9 C 0 km/h
684 01-04-2011 12:00:00 16.92 C 7.95 g/m*3 16.92 C 0 km/h
685 01-04-2011 13:00:00 16.92 C 8.01 g/m*3 16.92 C 0 km/h
686 01-04-2011 14:00:00 18.32 C 7.8 g/m*3 18.32 C 0 km/h
687 01-04-2011 15:00:00 18.68 C 7.48 g/m*3 18.68 C 0 km/h
688 01-04-2011 16:00:00 18.6 C 7.29 g/m*3 18.6 C 0 km/h
689 01-04-2011 17:00:00 17.18 C 7.61 g/m*3 17.18 C 0 km/h
690 01-04-2011 18:00:00 16.54 C 7.69 g/m*3 16.54 C 0 km/h
691 01-04-2011 19:00:00 15.6 C 7.93 g/m*3 15.6 C 0 km/h
692 01-04-2011 20:00:00 14.28 C 8.15 g/m*3 14.28 C 0 km/h
693 01-04-2011 21:00:00 12.2 C 8.16 g/m*3 12.2 C 0 km/h
694 01-04-2011 22:00:00 10.86 C 8.24 g/m*3 10.86 C 0 km/h
695 01-04-2011 23:00:00 9.84 C 7.98 g/m*3 9.84 C 0 km/h
696 02-04-2011 00:00:00 8.82 C 7.7 g/m*3 8.82 C 0 km/h
697 02-04-2011 01:00:00 8.06 C 7.42 g/m*3 8.06 C 0 km/h
698 02-04-2011 02:00:00 7.38 C 7.15 g/m*3 7.38 C 0 km/h
699 02-04-2011 03:00:00 6.4 C 6.78 g/m*3 6.4 C 0 km/h
700 02-04-2011 04:00:00 6.38 C 6.8 g/m*3 6.38 C 0 km/h
Sensor: Nr:Datum:Temp:Abs-Feuchte:Windchill:Wind:
Aussen-T/F 701 02-04-2011 05:00:00 6.52 C 6.91 g/m*3 6.52 C 0 km/h
702 02-04-2011 06:00:00 6.6 C 6.96 g/m*3 6.6 C 0 km/h
703 02-04-2011 07:00:00 6.3 C 6.84 g/m*3 6.3 C 0 km/h
704 02-04-2011 08:00:00 6.36 C 6.91 g/m*3 6.36 C 0 km/h
705 02-04-2011 09:00:00 7.46 C 7.36 g/m*3 7.46 C 0 km/h
706 02-04-2011 10:00:00 9 C 7.74 g/m*3 9 C 0 km/h
707 02-04-2011 11:00:00 12.12 C 8.74 g/m*3 12.12 C 0 km/h
708 02-04-2011 12:00:00 17.68 C 8.53 g/m*3 17.68 C 0 km/h
709 02-04-2011 13:00:00 22.24 C 7.04 g/m*3 22.24 C 0 km/h
710 02-04-2011 14:00:00 23.76 C 6.22 g/m*3 23.76 C 0 km/h
711 02-04-2011 15:00:00 27.42 C 5.64 g/m*3 27.42 C 0 km/h
712 02-04-2011 16:00:00 29.94 C 6.05 g/m*3 29.94 C 0 km/h
713 02-04-2011 17:00:00 28.22 C 5.67 g/m*3 28.22 C 0 km/h
714 02-04-2011 18:00:00 23.66 C 6.87 g/m*3 23.66 C 0 km/h
715 02-04-2011 19:00:00 19.58 C 7.96 g/m*3 19.58 C 0 km/h
716 02-04-2011 20:00:00 16.26 C 7.75 g/m*3 16.26 C 0 km/h
717 02-04-2011 21:00:00 15.18 C 7.73 g/m*3 15.18 C 0 km/h
718 02-04-2011 22:00:00 13.74 C 7.72 g/m*3 13.74 C 0 km/h
719 02-04-2011 23:00:00 12.16 C 7.56 g/m*3 12.16 C 0 km/h
720 03-04-2011 00:00:00 10.3 C 7.36 g/m*3 10.3 C 0 km/h
721 03-04-2011 01:00:00 9.06 C 7.35 g/m*3 9.06 C 0 km/h
722 03-04-2011 02:00:00 8.5 C 7.33 g/m*3 8.5 C 0 km/h
723 03-04-2011 03:00:00 8.32 C 7.34 g/m*3 8.32 C 0 km/h
724 03-04-2011 04:00:00 9 C 7.67 g/m*3 9 C 0 km/h
725 03-04-2011 05:00:00 9.56 C 7.73 g/m*3 9.56 C 0 km/h
Sensor: Nr:Datum:Temp:Abs-Feuchte:Windchill:Wind:
Aussen-T/F 726 03-04-2011 06:00:00 8.86 C 7.29 g/m*3 8.86 C 0 km/h
727 03-04-2011 07:00:00 8.8 C 7.49 g/m*3 8.8 C 0 km/h
728 03-04-2011 08:00:00 10.1 C 7.6 g/m*3 10.1 C 0 km/h
729 03-04-2011 09:00:00 11.56 C 7.4 g/m*3 11.56 C 0 km/h
730 03-04-2011 10:00:00 13.38 C 7.55 g/m*3 13.38 C 0 km/h
731 03-04-2011 11:00:00 15.94 C 7.49 g/m*3 15.94 C 0 km/h
732 03-04-2011 12:00:00 16.82 C 7.47 g/m*3 16.82 C 0 km/h
733 03-04-2011 13:00:00 19 C 7.5 g/m*3 19 C 0 km/h
734 03-04-2011 14:00:00 19.18 C 7.41 g/m*3 19.18 C 0 km/h
735 03-04-2011 15:00:00 15.04 C 7.76 g/m*3 15.04 C 0 km/h
736 03-04-2011 16:00:00 11.92 C 8.5 g/m*3 11.92 C 0 km/h
737 03-04-2011 17:00:00 12.12 C 8.95 g/m*3 12.12 C 0 km/h
738 03-04-2011 18:00:00 12.24 C 8.85 g/m*3 12.24 C 0 km/h
739 03-04-2011 19:00:00 11.42 C 8.72 g/m*3 11.42 C 0 km/h
740 03-04-2011 20:00:00 11 C 8.67 g/m*3 11 C 0 km/h
741 03-04-2011 21:00:00 10.72 C 8.69 g/m*3 10.72 C 0 km/h
742 03-04-2011 22:00:00 10.6 C 8.69 g/m*3 10.6 C 0 km/h
743 03-04-2011 23:00:00 10.04 C 8.29 g/m*3 10.04 C 0 km/h
744 04-04-2011 00:00:00 9.56 C 8.04 g/m*3 9.56 C 0 km/h
745 04-04-2011 01:00:00 8.8 C 7.56 g/m*3 8.8 C 0 km/h
746 04-04-2011 02:00:00 8.16 C 7.08 g/m*3 8.16 C 0 km/h
747 04-04-2011 03:00:00 7.78 C 7.19 g/m*3 7.78 C 0 km/h
748 04-04-2011 04:00:00 7.48 C 7.18 g/m*3 7.48 C 0 km/h
749 04-04-2011 05:00:00 7.14 C 7.12 g/m*3 7.14 C 0 km/h
750 04-04-2011 06:00:00 7.16 C 7.12 g/m*3 7.16 C 0 km/h
Sensor: Nr:Datum:Temp:Abs-Feuchte:Windchill:Wind:
Aussen-T/F 751 04-04-2011 07:00:00 7.1 C 7.11 g/m*3 7.1 C 0 km/h
752 04-04-2011 08:00:00 7.94 C 7.43 g/m*3 7.94 C 0 km/h
753 04-04-2011 09:00:00 9.26 C 7.06 g/m*3 9.26 C 0 km/h
754 04-04-2011 10:00:00 10.58 C 6.43 g/m*3 10.58 C 0 km/h
755 04-04-2011 11:00:00 11.34 C 6.01 g/m*3 11.34 C 0 km/h
756 04-04-2011 12:00:00 13.26 C 5.88 g/m*3 13.26 C 0 km/h
757 04-04-2011 13:00:00 14.04 C 5.68 g/m*3 14.04 C 0 km/h
758 04-04-2011 14:00:00 14.88 C 4.86 g/m*3 14.88 C 0 km/h
759 04-04-2011 15:00:00 15.94 C 4.72 g/m*3 15.94 C 0 km/h
760 04-04-2011 16:00:00 16.46 C 4.68 g/m*3 16.46 C 0 km/h
761 04-04-2011 17:00:00 16.72 C 4.27 g/m*3 16.72 C 0 km/h
762 04-04-2011 18:00:00 13.52 C 4.59 g/m*3 13.52 C 0 km/h
763 04-04-2011 19:00:00 11.5 C 5.37 g/m*3 11.5 C 0 km/h
764 04-04-2011 20:00:00 10.66 C 5.78 g/m*3 10.66 C 0 km/h
765 04-04-2011 21:00:00 9.28 C 6.32 g/m*3 9.28 C 0 km/h
766 04-04-2011 22:00:00 9.02 C 6.44 g/m*3 9.02 C 0 km/h
767 04-04-2011 23:00:00 8.82 C 6.59 g/m*3 8.82 C 0 km/h
768 05-04-2011 00:00:00 8.18 C 6.41 g/m*3 8.18 C 0 km/h
769 05-04-2011 01:00:00 6.52 C 6.32 g/m*3 6.52 C 0 km/h
770 05-04-2011 02:00:00 5.44 C 6.06 g/m*3 5.44 C 0 km/h
771 05-04-2011 03:00:00 4.22 C 5.7 g/m*3 4.22 C 0 km/h
772 05-04-2011 04:00:00 3.7 C 5.56 g/m*3 3.7 C 0 km/h
773 05-04-2011 05:00:00 2.54 C 5.26 g/m*3 2.54 C 0 km/h
774 05-04-2011 06:00:00 1.52 C 4.95 g/m*3 1.52 C 0 km/h
775 05-04-2011 07:00:00 2.32 C 5.24 g/m*3 2.32 C 0 km/h
Sensor: Nr:Datum:Temp:Abs-Feuchte:Windchill:Wind:
Aussen-T/F 776 05-04-2011 08:00:00 4.7 C 6.05 g/m*3 4.7 C 0 km/h
777 05-04-2011 09:00:00 6.94 C 6.11 g/m*3 6.94 C 0 km/h
778 05-04-2011 10:00:00 10.04 C 5.86 g/m*3 10.04 C 0 km/h
779 05-04-2011 11:00:00 12.34 C 5.53 g/m*3 12.34 C 0 km/h
780 05-04-2011 12:00:00 13.64 C 5.17 g/m*3 13.64 C 0 km/h
781 05-04-2011 13:00:00 14.54 C 5.01 g/m*3 14.54 C 0 km/h
782 05-04-2011 14:00:00 14.18 C 5.07 g/m*3 14.18 C 0 km/h
783 05-04-2011 15:00:00 14.6 C 5.06 g/m*3 14.6 C 0 km/h
784 05-04-2011 16:00:00 14.48 C 5.14 g/m*3 14.48 C 0 km/h
785 05-04-2011 17:00:00 15.4 C 5.05 g/m*3 15.4 C 0 km/h
786 05-04-2011 18:00:00 14.9 C 5 g/m*3 14.9 C 0 km/h
787 05-04-2011 19:00:00 14.3 C 5.18 g/m*3 14.3 C 0 km/h
788 05-04-2011 20:00:00 11.12 C 6.43 g/m*3 11.12 C 0 km/h
789 05-04-2011 21:00:00 9.42 C 7.57 g/m*3 9.42 C 0 km/h
790 05-04-2011 22:00:00 9.2 C 7.79 g/m*3 9.2 C 0 km/h
791 05-04-2011 23:00:00 9.16 C 7.84 g/m*3 9.16 C 0 km/h
792 06-04-2011 00:00:00 9.3 C 7.91 g/m*3 9.3 C 0 km/h
793 06-04-2011 01:00:00 9.5 C 8.01 g/m*3 9.5 C 0 km/h
794 06-04-2011 02:00:00 9.64 C 7.97 g/m*3 9.64 C 0 km/h
795 06-04-2011 03:00:00 9.72 C 7.86 g/m*3 9.72 C 0 km/h
796 06-04-2011 04:00:00 10.04 C 7.63 g/m*3 10.04 C 0 km/h
797 06-04-2011 05:00:00 10.2 C 7.52 g/m*3 10.2 C 0 km/h
798 06-04-2011 06:00:00 10.36 C 7.52 g/m*3 10.36 C 0 km/h
799 06-04-2011 07:00:00 10.78 C 7.38 g/m*3 10.78 C 0 km/h
800 06-04-2011 08:00:00 11.82 C 7.25 g/m*3 11.82 C 0 km/h
Sensor: Nr:Datum:Temp:Abs-Feuchte:Windchill:Wind:
Aussen-T/F 801 06-04-2011 09:00:00 12.88 C 7.29 g/m*3 12.88 C 0 km/h
802 06-04-2011 10:00:00 14.52 C 7.17 g/m*3 14.52 C 0 km/h
803 06-04-2011 11:00:00 15.56 C 7.32 g/m*3 15.56 C 0 km/h
804 06-04-2011 12:00:00 17.48 C 7.59 g/m*3 17.48 C 0 km/h
805 06-04-2011 13:00:00 19.46 C 7.9 g/m*3 19.46 C 0 km/h
806 06-04-2011 14:00:00 21.18 C 8.14 g/m*3 21.18 C 0 km/h
807 06-04-2011 15:00:00 24.9 C 7.69 g/m*3 24.9 C 0 km/h
808 06-04-2011 16:00:00 26.26 C 7.61 g/m*3 26.26 C 0 km/h
809 06-04-2011 17:00:00 27.08 C 7.34 g/m*3 27.08 C 0 km/h
810 06-04-2011 18:00:00 25.2 C 7.54 g/m*3 25.2 C 0 km/h
811 06-04-2011 19:00:00 20.82 C 9.06 g/m*3 20.82 C 0 km/h
812 06-04-2011 20:00:00 17.3 C 9.52 g/m*3 17.3 C 0 km/h
813 06-04-2011 21:00:00 15.92 C 9.65 g/m*3 15.92 C 0 km/h
814 06-04-2011 22:00:00 14.12 C 9.48 g/m*3 14.12 C 0 km/h
815 06-04-2011 23:00:00 12.56 C 9.16 g/m*3 12.56 C 0 km/h
816 07-04-2011 00:00:00 11.8 C 9.03 g/m*3 11.8 C 0 km/h
817 07-04-2011 01:00:00 11.14 C 8.81 g/m*3 11.14 C 0 km/h
818 07-04-2011 02:00:00 10.275 C 8.41 g/m*3 10.28 C 0 km/h
819 07-04-2011 03:00:00 10.08 C 8.35 g/m*3 10.08 C 0 km/h
820 07-04-2011 04:00:00 10.34 C 8.6 g/m*3 10.34 C 0 km/h
821 07-04-2011 05:00:00 9.56 C 8.3 g/m*3 9.56 C 0 km/h
822 07-04-2011 06:00:00 9.44 C 8.25 g/m*3 9.44 C 0 km/h
823 07-04-2011 07:00:00 9.96 C 8.51 g/m*3 9.96 C 0 km/h
824 07-04-2011 08:00:00 11.5 C 9.38 g/m*3 11.5 C 0 km/h
825 07-04-2011 09:00:00 13.5 C 9.83 g/m*3 13.5 C 0 km/h
Sensor: Nr:Datum:Temp:Abs-Feuchte:Windchill:Wind:
Aussen-T/F 826 07-04-2011 10:00:00 16.78 C 9.22 g/m*3 16.78 C 0 km/h
827 07-04-2011 11:00:00 18.74 C 8.83 g/m*3 18.74 C 0 km/h
828 07-04-2011 12:00:00 20.04 C 7.59 g/m*3 20.04 C 0 km/h
829 07-04-2011 13:00:00 21.04 C 6.24 g/m*3 21.04 C 0 km/h
830 07-04-2011 14:00:00 22.8 C 4.67 g/m*3 22.8 C 0 km/h
831 07-04-2011 15:00:00 26.08 C 4.89 g/m*3 26.08 C 0 km/h
832 07-04-2011 16:00:00 26.92 C 5.12 g/m*3 26.92 C 0 km/h
833 07-04-2011 17:00:00 24.16 C 4.39 g/m*3 24.16 C 0 km/h
834 07-04-2011 18:00:00 22.9 C 4.78 g/m*3 22.9 C 0 km/h
835 07-04-2011 19:00:00 20.36 C 6 g/m*3 20.36 C 0 km/h
836 07-04-2011 20:00:00 17.92 C 7.12 g/m*3 17.92 C 0 km/h
837 07-04-2011 21:00:00 16.28 C 7.43 g/m*3 16.28 C 0 km/h
838 07-04-2011 22:00:00 15.34 C 7.46 g/m*3 15.34 C 0 km/h
839 07-04-2011 23:00:00 14.3 C 7.52 g/m*3 14.3 C 0 km/h
840 08-04-2011 00:00:00 13.86 C 7.22 g/m*3 13.86 C 0 km/h
841 08-04-2011 01:00:00 12.38 C 6.87 g/m*3 12.38 C 0 km/h
842 08-04-2011 02:00:00 10.48 C 6.82 g/m*3 10.48 C 0 km/h
843 08-04-2011 03:00:00 9.12 C 6.81 g/m*3 9.12 C 0 km/h
844 08-04-2011 04:00:00 8.04 C 6.61 g/m*3 8.04 C 0 km/h
845 08-04-2011 05:00:00 9 C 6.59 g/m*3 9 C 0 km/h
846 08-04-2011 06:00:00 8.5 C 6.47 g/m*3 8.5 C 0 km/h
847 08-04-2011 07:00:00 7.12 C 6.56 g/m*3 7.12 C 0 km/h
848 08-04-2011 08:00:00 8.22 C 6.88 g/m*3 8.22 C 0 km/h
849 08-04-2011 09:00:00 9.44 C 6.4 g/m*3 9.44 C 0 km/h
850 08-04-2011 10:00:00 10.82 C 6.02 g/m*3 10.82 C 0 km/h
Sensor: Nr:Datum:Temp:Abs-Feuchte:Windchill:Wind:
Aussen-T/F 851 08-04-2011 11:00:00 12.4 C 5.57 g/m*3 12.4 C 0 km/h
852 08-04-2011 12:00:00 14.04 C 5.18 g/m*3 14.04 C 0 km/h
853 08-04-2011 13:00:00 16.04 C 5.11 g/m*3 16.04 C 0 km/h
854 08-04-2011 14:00:00 17.86 C 4.75 g/m*3 17.86 C 0 km/h
855 08-04-2011 15:00:00 22.5 C 4.27 g/m*3 22.5 C 0 km/h
856 08-04-2011 16:00:00 23.34 C 4.28 g/m*3 23.34 C 0 km/h
857 08-04-2011 17:00:00 21.74 C 5.05 g/m*3 21.74 C 0 km/h
858 08-04-2011 18:00:00 19.82 C 5.34 g/m*3 19.82 C 0 km/h
859 08-04-2011 19:00:00 16.9 C 6.04 g/m*3 16.9 C 0 km/h
860 08-04-2011 20:00:00 14.84 C 6.55 g/m*3 14.84 C 0 km/h
861 08-04-2011 21:00:00 13.24 C 6.88 g/m*3 13.24 C 0 km/h
862 08-04-2011 22:00:00 12.44 C 7.03 g/m*3 12.44 C 0 km/h
863 08-04-2011 23:00:00 11.68 C 7.04 g/m*3 11.68 C 0 km/h
864 09-04-2011 00:00:00 11.34 C 6.54 g/m*3 11.34 C 0 km/h
865 09-04-2011 01:00:00 10.72 C 6.16 g/m*3 10.72 C 0 km/h
866 09-04-2011 02:00:00 9.86 C 5.9 g/m*3 9.86 C 0 km/h
867 09-04-2011 03:00:00 8.56 C 5.76 g/m*3 8.56 C 0 km/h
868 09-04-2011 04:00:00 7.54 C 5.99 g/m*3 7.54 C 0 km/h
869 09-04-2011 05:00:00 8.04 C 6.27 g/m*3 8.04 C 0 km/h
870 09-04-2011 06:00:00 8.52 C 6.09 g/m*3 8.52 C 0 km/h
871 09-04-2011 07:00:00 8.34 C 5.97 g/m*3 8.34 C 0 km/h
872 09-04-2011 08:00:00 9.14 C 5.71 g/m*3 9.14 C 0 km/h
873 09-04-2011 09:00:00 9.9 C 5.43 g/m*3 9.9 C 0 km/h
874 09-04-2011 10:00:00 10.16 C 5.3 g/m*3 10.16 C 0 km/h
875 09-04-2011 11:00:00 11.14 C 5.11 g/m*3 11.14 C 0 km/h
Sensor: Nr:Datum:Temp:Abs-Feuchte:Windchill:Wind:
Aussen-T/F 876 09-04-2011 12:00:00 12.34 C 4.88 g/m*3 12.34 C 0 km/h
877 09-04-2011 13:00:00 14.64 C 4.64 g/m*3 14.64 C 0 km/h
878 09-04-2011 14:00:00 17.08 C 4.22 g/m*3 17.08 C 0 km/h
879 09-04-2011 15:00:00 20.28 C 3.79 g/m*3 20.28 C 0 km/h
880 09-04-2011 16:00:00 23.72 C 4.28 g/m*3 23.72 C 0 km/h
881 09-04-2011 17:00:00 24.14 C 4.39 g/m*3 24.14 C 0 km/h
882 09-04-2011 18:00:00 22.84 C 4.07 g/m*3 22.84 C 0 km/h
883 09-04-2011 19:00:00 18.48 C 3.86 g/m*3 18.48 C 0 km/h
884 09-04-2011 20:00:00 13.8 C 4.55 g/m*3 13.8 C 0 km/h
885 09-04-2011 21:00:00 12.02 C 4.76 g/m*3 12.02 C 0 km/h
886 09-04-2011 22:00:00 10.18 C 5.15 g/m*3 10.18 C 0 km/h
887 09-04-2011 23:00:00 8.48 C 5.22 g/m*3 8.48 C 0 km/h
888 10-04-2011 00:00:00 6.78 C 5.18 g/m*3 6.78 C 0 km/h
889 10-04-2011 01:00:00 5.32 C 4.96 g/m*3 5.32 C 0 km/h
890 10-04-2011 02:00:00 4.54 C 4.96 g/m*3 4.54 C 0 km/h
891 10-04-2011 03:00:00 4.06 C 5.04 g/m*3 4.06 C 0 km/h
892 10-04-2011 04:00:00 3.48 C 5.07 g/m*3 3.48 C 0 km/h
893 10-04-2011 05:00:00 2.9 C 5 g/m*3 2.9 C 0 km/h
894 10-04-2011 06:00:00 2.52 C 4.98 g/m*3 2.52 C 0 km/h
895 10-04-2011 07:00:00 2.82 C 5.17 g/m*3 2.82 C 0 km/h
896 10-04-2011 08:00:00 4.08 C 5.59 g/m*3 4.08 C 0 km/h
897 10-04-2011 09:00:00 5.8 C 5.99 g/m*3 5.8 C 0 km/h
898 10-04-2011 10:00:00 8.98 C 5.95 g/m*3 8.98 C 0 km/h
899 10-04-2011 11:00:00 12.46 C 5.42 g/m*3 12.46 C 0 km/h
900 10-04-2011 12:00:00 15.26 C 4.95 g/m*3 15.26 C 0 km/h
Sensor: Nr:Datum:Temp:Abs-Feuchte:Windchill:Wind:
Aussen-T/F 901 10-04-2011 13:00:00 18.54 C 4.54 g/m*3 18.54 C 0 km/h
902 10-04-2011 14:00:00 21.9 C 4.05 g/m*3 21.9 C 0 km/h
903 10-04-2011 15:00:00 27.1 C 5.18 g/m*3 27.1 C 0 km/h
904 10-04-2011 16:00:00 28.18 C 5.49 g/m*3 28.18 C 0 km/h
905 10-04-2011 17:00:00 26.9 C 5.12 g/m*3 26.9 C 0 km/h
906 10-04-2011 18:00:00 25.82 C 4.92 g/m*3 25.82 C 0 km/h
907 10-04-2011 19:00:00 20.38 C 5.05 g/m*3 20.38 C 0 km/h
908 10-04-2011 20:00:00 14.7 C 5.09 g/m*3 14.7 C 0 km/h
909 10-04-2011 21:00:00 12.36 C 5.51 g/m*3 12.36 C 0 km/h
910 10-04-2011 22:00:00 10.68 C 5.59 g/m*3 10.68 C 0 km/h
911 10-04-2011 23:00:00 9.22 C 5.49 g/m*3 9.22 C 0 km/h
912 11-04-2011 00:00:00 8.14 C 5.56 g/m*3 8.14 C 0 km/h
913 11-04-2011 01:00:00 7.28 C 5.65 g/m*3 7.28 C 0 km/h
914 11-04-2011 02:00:00 6.52 C 5.78 g/m*3 6.52 C 0 km/h
915 11-04-2011 03:00:00 6.06 C 5.95 g/m*3 6.06 C 0 km/h
916 11-04-2011 04:00:00 5.24 C 5.8 g/m*3 5.24 C 0 km/h
917 11-04-2011 05:00:00 4.78 C 5.8 g/m*3 4.78 C 0 km/h
918 11-04-2011 06:00:00 4.36 C 5.76 g/m*3 4.36 C 0 km/h
919 11-04-2011 07:00:00 4.58 C 5.88 g/m*3 4.58 C 0 km/h
920 11-04-2011 08:00:00 5.86 C 6.33 g/m*3 5.86 C 0 km/h
921 11-04-2011 09:00:00 7.74 C 6.65 g/m*3 7.74 C 0 km/h
922 11-04-2011 10:00:00 10.68 C 6.59 g/m*3 10.68 C 0 km/h
923 11-04-2011 11:00:00 15.64 C 6.16 g/m*3 15.64 C 0 km/h
924 11-04-2011 12:00:00 19.54 C 5.79 g/m*3 19.54 C 0 km/h
925 11-04-2011 13:00:00 21.76 C 4.02 g/m*3 21.76 C 0 km/h
Sensor: Nr:Datum:Temp:Abs-Feuchte:Windchill:Wind:
Aussen-T/F 926 11-04-2011 14:00:00 23.64 C 4.26 g/m*3 23.64 C 0 km/h
927 11-04-2011 15:00:00 27.46 C 5.28 g/m*3 27.46 C 0 km/h
928 11-04-2011 16:00:00 28.54 C 5.6 g/m*3 28.54 C 0 km/h
929 11-04-2011 17:00:00 27.16 C 5.19 g/m*3 27.16 C 0 km/h
930 11-04-2011 18:00:00 25.8 C 5.1 g/m*3 25.8 C 0 km/h
931 11-04-2011 19:00:00 21.48 C 6.03 g/m*3 21.48 C 0 km/h
932 11-04-2011 20:00:00 19.8 C 6.11 g/m*3 19.8 C 0 km/h
933 11-04-2011 21:00:00 18.82 C 6.51 g/m*3 18.82 C 0 km/h
934 11-04-2011 22:00:00 17.62 C 6.58 g/m*3 17.62 C 0 km/h
935 11-04-2011 23:00:00 15.82 C 6.25 g/m*3 15.82 C 0 km/h
936 12-04-2011 00:00:00 15.4 C 6.18 g/m*3 15.4 C 0 km/h
937 12-04-2011 01:00:00 14.94 C 6.26 g/m*3 14.94 C 0 km/h
938 12-04-2011 02:00:00 14.34 C 6.68 g/m*3 14.34 C 0 km/h
939 12-04-2011 03:00:00 13.88 C 6.8 g/m*3 13.88 C 0 km/h
940 12-04-2011 04:00:00 10.38 C 6.74 g/m*3 10.38 C 0 km/h
941 12-04-2011 05:00:00 9.4 C 6.44 g/m*3 9.4 C 0 km/h
942 12-04-2011 06:00:00 9.12 C 6.06 g/m*3 9.12 C 0 km/h
943 12-04-2011 07:00:00 8.58 C 5.89 g/m*3 8.58 C 0 km/h
944 12-04-2011 08:00:00 9.58 C 5.76 g/m*3 9.58 C 0 km/h
945 12-04-2011 09:00:00 10.2 C 5.71 g/m*3 10.2 C 0 km/h
946 12-04-2011 10:00:00 10.02 C 5.08 g/m*3 10.02 C 0 km/h
947 12-04-2011 11:00:00 10.54 C 5.02 g/m*3 10.54 C 0 km/h
948 12-04-2011 12:00:00 9.52 C 5.16 g/m*3 9.52 C 0 km/h
949 12-04-2011 13:00:00 9.38 C 5.17 g/m*3 9.38 C 0 km/h
950 12-04-2011 14:00:00 9.22 C 5.4 g/m*3 9.22 C 0 km/h
Sensor: Nr:Datum:Temp:Abs-Feuchte:Windchill:Wind:
Aussen-T/F 951 12-04-2011 15:00:00 12.3 C 4.58 g/m*3 12.3 C 0 km/h
952 12-04-2011 16:00:00 11.96 C 5.1 g/m*3 11.96 C 0 km/h
953 12-04-2011 17:00:00 11.18 C 4.9 g/m*3 11.18 C 0 km/h
954 12-04-2011 18:00:00 12.48 C 5.58 g/m*3 12.48 C 0 km/h
955 12-04-2011 19:00:00 9.1 C 5.31 g/m*3 9.1 C 0 km/h
956 12-04-2011 20:00:00 7.6 C 3.98 g/m*3 7.6 C 0 km/h
957 12-04-2011 21:00:00 6.8 C 3.98 g/m*3 6.8 C 0 km/h
958 12-04-2011 22:00:00 5.54 C 4.38 g/m*3 5.54 C 0 km/h
959 12-04-2011 23:00:00 5.24 C 4.67 g/m*3 5.24 C 0 km/h
960 13-04-2011 00:00:00 4.6 C 4.45 g/m*3 4.6 C 0 km/h
961 13-04-2011 01:00:00 4.66 C 4.54 g/m*3 4.66 C 0 km/h
962 13-04-2011 02:00:00 3.32 C 4.73 g/m*3 3.32 C 0 km/h
963 13-04-2011 03:00:00 2.48 C 4.72 g/m*3 2.48 C 0 km/h
964 13-04-2011 04:00:00 1.74 C 4.72 g/m*3 1.74 C 0 km/h
965 13-04-2011 05:00:00 1.9 C 4.86 g/m*3 1.9 C 0 km/h
966 13-04-2011 06:00:00 1.74 C 4.8 g/m*3 1.74 C 0 km/h
967 13-04-2011 07:00:00 2.06 C 4.87 g/m*3 2.06 C 0 km/h
968 13-04-2011 08:00:00 2.9 C 4.97 g/m*3 2.9 C 0 km/h
969 13-04-2011 09:00:00 5.86 C 4.83 g/m*3 5.86 C 0 km/h
970 13-04-2011 10:00:00 9.02 C 4.03 g/m*3 9.02 C 0 km/h
971 13-04-2011 11:00:00 10.28 C 3.75 g/m*3 10.28 C 0 km/h
972 13-04-2011 12:00:00 11.32 C 3.37 g/m*3 11.32 C 0 km/h
973 13-04-2011 13:00:00 13.2 C 3.08 g/m*3 13.2 C 0 km/h
974 13-04-2011 14:00:00 13.96 C 2.55 g/m*3 13.96 C 0 km/h
975 13-04-2011 15:00:00 15.24 C 2.73 g/m*3 15.24 C 0 km/h
Sensor: Nr:Datum:Temp:Abs-Feuchte:Windchill:Wind:
Aussen-T/F 976 13-04-2011 16:00:00 13.22 C 3.01 g/m*3 13.22 C 0 km/h
977 13-04-2011 17:00:00 13.24 C 3.18 g/m*3 13.24 C 0 km/h
978 13-04-2011 18:00:00 12.72 C 3.23 g/m*3 12.72 C 0 km/h
979 13-04-2011 19:00:00 10.66 C 3.9 g/m*3 10.66 C 0 km/h
980 13-04-2011 20:00:00 8.3 C 4 g/m*3 8.3 C 0 km/h
981 13-04-2011 21:00:00 7.76 C 3.97 g/m*3 7.76 C 0 km/h
982 13-04-2011 22:00:00 6.48 C 4.43 g/m*3 6.48 C 0 km/h
983 13-04-2011 23:00:00 5.76 C 4.6 g/m*3 5.76 C 0 km/h
984 14-04-2011 00:00:00 4.44 C 4.56 g/m*3 4.44 C 0 km/h
985 14-04-2011 01:00:00 3.92 C 4.67 g/m*3 3.92 C 0 km/h
986 14-04-2011 02:00:00 3.12 C 4.65 g/m*3 3.12 C 0 km/h
987 14-04-2011 03:00:00 2.7 C 4.77 g/m*3 2.7 C 0 km/h
988 14-04-2011 04:00:00 3.66 C 4.82 g/m*3 3.66 C 0 km/h
989 14-04-2011 05:00:00 3.76 C 4.71 g/m*3 3.76 C 0 km/h
990 14-04-2011 06:00:00 3.9 C 4.79 g/m*3 3.9 C 0 km/h
991 14-04-2011 07:00:00 4.52 C 4.9 g/m*3 4.52 C 0 km/h
992 14-04-2011 08:00:00 5.46 C 4.92 g/m*3 5.46 C 0 km/h
993 14-04-2011 09:00:00 7.18 C 4.7 g/m*3 7.18 C 0 km/h
994 14-04-2011 10:00:00 9.08 C 4.68 g/m*3 9.08 C 0 km/h
995 14-04-2011 11:00:00 11 C 3.86 g/m*3 11 C 0 km/h
996 14-04-2011 12:00:00 13.82 C 3.27 g/m*3 13.82 C 0 km/h
997 14-04-2011 13:00:00 14.28 C 3.02 g/m*3 14.28 C 0 km/h
998 14-04-2011 14:00:00 15.04 C 2.91 g/m*3 15.04 C 0 km/h
999 14-04-2011 15:00:00 14.88 C 2.9 g/m*3 14.88 C 0 km/h
1000 14-04-2011 16:00:00 15.38 C 2.83 g/m*3 15.38 C 0 km/h
Sensor: Nr:Datum:Temp:Abs-Feuchte:Windchill:Wind:
Aussen-T/F 1001 14-04-2011 17:00:00 15.04 C 2.6 g/m*3 15.04 C 0 km/h
1002 14-04-2011 18:00:00 14.26 C 2.77 g/m*3 14.26 C 0 km/h
1003 14-04-2011 19:00:00 12.3 C 3.67 g/m*3 12.3 C 0 km/h
1004 14-04-2011 20:00:00 7.56 C 4.26 g/m*3 7.56 C 0 km/h
1005 14-04-2011 21:00:00 6.04 C 4.5 g/m*3 6.04 C 0 km/h
1006 14-04-2011 22:00:00 4.64 C 4.49 g/m*3 4.64 C 0 km/h
1007 14-04-2011 23:00:00 3.28 C 4.5 g/m*3 3.28 C 0 km/h
1008 15-04-2011 00:00:00 2.52 C 4.58 g/m*3 2.52 C 0 km/h
1009 15-04-2011 01:00:00 2.78 C 4.79 g/m*3 2.78 C 0 km/h
1010 15-04-2011 02:00:00 3.22 C 4.75 g/m*3 3.22 C 0 km/h
1011 15-04-2011 03:00:00 1.68 C 4.45 g/m*3 1.68 C 0 km/h
1012 15-04-2011 04:00:00 0.82 C 4.42 g/m*3 0.82 C 0 km/h
1013 15-04-2011 05:00:00 0.76 C 4.49 g/m*3 0.76 C 0 km/h
1014 15-04-2011 06:00:00 -0.1 C 4.25 g/m*3 -0.1 C 0 km/h
1015 15-04-2011 07:00:00 0.18 C 4.39 g/m*3 0.18 C 0 km/h
1016 15-04-2011 08:00:00 1.1 C 4.71 g/m*3 1.1 C 0 km/h
1017 15-04-2011 09:00:00 2.74 C 5.25 g/m*3 2.74 C 0 km/h
1018 15-04-2011 10:00:00 5.96 C 6.1 g/m*3 5.96 C 0 km/h
1019 15-04-2011 11:00:00 10.18 C 4.51 g/m*3 10.18 C 0 km/h
1020 15-04-2011 12:00:00 12.22 C 2.96 g/m*3 12.22 C 0 km/h
1021 15-04-2011 13:00:00 15.04 C 2.57 g/m*3 15.04 C 0 km/h
1022 15-04-2011 14:00:00 17.48 C 2.98 g/m*3 17.48 C 0 km/h
1023 15-04-2011 15:00:00 17.5 C 2.98 g/m*3 17.5 C 0 km/h
1024 15-04-2011 16:00:00 16.44 C 2.8 g/m*3 16.44 C 0 km/h
1025 15-04-2011 17:00:00 16.1 C 2.74 g/m*3 16.1 C 0 km/h
Sensor: Nr:Datum:Temp:Abs-Feuchte:Windchill:Wind:
Aussen-T/F 1026 15-04-2011 18:00:00 17.54 C 2.99 g/m*3 17.54 C 0 km/h
1027 15-04-2011 19:00:00 11.56 C 3.61 g/m*3 11.56 C 0 km/h
1028 15-04-2011 20:00:00 7.7 C 3.97 g/m*3 7.7 C 0 km/h
1029 15-04-2011 21:00:00 6.42 C 4.09 g/m*3 6.42 C 0 km/h
1030 15-04-2011 22:00:00 5.08 C 4.14 g/m*3 5.08 C 0 km/h
1031 15-04-2011 23:00:00 3.54 C 4.32 g/m*3 3.54 C 0 km/h
1032 16-04-2011 00:00:00 2.34 C 4.24 g/m*3 2.34 C 0 km/h
1033 16-04-2011 01:00:00 1.52 C 4.3 g/m*3 1.52 C 0 km/h
1034 16-04-2011 02:00:00 1 C 4.33 g/m*3 1 C 0 km/h
1035 16-04-2011 03:00:00 0.3 C 4.24 g/m*3 0.3 C 0 km/h
1036 16-04-2011 04:00:00 -0.12 C 4.18 g/m*3 -0.12 C 0 km/h
1037 16-04-2011 05:00:00 0.72 C 4.54 g/m*3 0.72 C 0 km/h
1038 16-04-2011 06:00:00 1.94 C 4.83 g/m*3 1.94 C 0 km/h
1039 16-04-2011 07:00:00 2.62 C 4.69 g/m*3 2.62 C 0 km/h
1040 16-04-2011 08:00:00 3.94 C 4.6 g/m*3 3.94 C 0 km/h
1041 16-04-2011 09:00:00 6.02 C 4.46 g/m*3 6.02 C 0 km/h
1042 16-04-2011 10:00:00 7.92 C 4.31 g/m*3 7.92 C 0 km/h
1043 16-04-2011 11:00:00 10.8 C 4.67 g/m*3 10.8 C 0 km/h
1044 16-04-2011 12:00:00 15.08 C 3.58 g/m*3 15.08 C 0 km/h
1045 16-04-2011 13:00:00 16.12 C 2.74 g/m*3 16.12 C 0 km/h
1046 16-04-2011 14:00:00 16.8 C 2.86 g/m*3 16.8 C 0 km/h
1047 16-04-2011 15:00:00 15.1 C 2.63 g/m*3 15.1 C 0 km/h
1048 16-04-2011 16:00:00 15.7 C 2.81 g/m*3 15.7 C 0 km/h
1049 16-04-2011 17:00:00 15.28 C 3.21 g/m*3 15.28 C 0 km/h
1050 16-04-2011 18:00:00 12.9 C 4.33 g/m*3 12.9 C 0 km/h
Sensor: Nr:Datum:Temp:Abs-Feuchte:Windchill:Wind:
Aussen-T/F 1051 16-04-2011 19:00:00 11.66 C 4.49 g/m*3 11.66 C 0 km/h
1052 16-04-2011 20:00:00 10.28 C 4.28 g/m*3 10.28 C 0 km/h
1053 16-04-2011 21:00:00 9.76 C 4.61 g/m*3 9.76 C 0 km/h
1054 16-04-2011 22:00:00 9.12 C 4.55 g/m*3 9.12 C 0 km/h
1055 16-04-2011 23:00:00 8.72 C 4.78 g/m*3 8.72 C 0 km/h
1056 17-04-2011 00:00:00 8.32 C 4.78 g/m*3 8.32 C 0 km/h
1057 17-04-2011 01:00:00 7.62 C 4.86 g/m*3 7.62 C 0 km/h
1058 17-04-2011 02:00:00 7.36 C 4.79 g/m*3 7.36 C 0 km/h
1059 17-04-2011 03:00:00 7.16 C 4.96 g/m*3 7.16 C 0 km/h
1060 17-04-2011 04:00:00 6.96 C 5.18 g/m*3 6.96 C 0 km/h
1061 17-04-2011 05:00:00 6.86 C 5.34 g/m*3 6.86 C 0 km/h
1062 17-04-2011 06:00:00 6.68 C 5.37 g/m*3 6.68 C 0 km/h
1063 17-04-2011 07:00:00 7.04 C 5.61 g/m*3 7.04 C 0 km/h
1064 17-04-2011 08:00:00 8.1 C 5.67 g/m*3 8.1 C 0 km/h
1065 17-04-2011 09:00:00 9.44 C 5.57 g/m*3 9.44 C 0 km/h
1066 17-04-2011 10:00:00 11.66 C 5.13 g/m*3 11.66 C 0 km/h
1067 17-04-2011 11:00:00 14.5 C 4.6 g/m*3 14.5 C 0 km/h
1068 17-04-2011 12:00:00 16.56 C 3.64 g/m*3 16.56 C 0 km/h
1069 17-04-2011 13:00:00 18.9 C 3.24 g/m*3 18.9 C 0 km/h
1070 17-04-2011 14:00:00 21.06 C 3.68 g/m*3 21.06 C 0 km/h
1071 17-04-2011 15:00:00 18.48 C 3.16 g/m*3 18.48 C 0 km/h
1072 17-04-2011 16:00:00 18.98 C 3.26 g/m*3 18.98 C 0 km/h
1073 17-04-2011 17:00:00 18.64 C 3.19 g/m*3 18.64 C 0 km/h
1074 17-04-2011 18:00:00 16.54 C 2.93 g/m*3 16.54 C 0 km/h
1075 17-04-2011 19:00:00 14.24 C 3.89 g/m*3 14.24 C 0 km/h
Sensor: Nr:Datum:Temp:Abs-Feuchte:Windchill:Wind:
Aussen-T/F 1076 17-04-2011 20:00:00 11.64 C 3.9 g/m*3 11.64 C 0 km/h
1077 17-04-2011 21:00:00 9.18 C 3.96 g/m*3 9.18 C 0 km/h
1078 17-04-2011 22:00:00 7.22 C 4.28 g/m*3 7.22 C 0 km/h
1079 17-04-2011 23:00:00 5.72 C 4.32 g/m*3 5.72 C 0 km/h
1080 18-04-2011 00:00:00 4.86 C 4.48 g/m*3 4.86 C 0 km/h
1081 18-04-2011 01:00:00 3.76 C 4.44 g/m*3 3.76 C 0 km/h
1082 18-04-2011 02:00:00 2.68 C 4.49 g/m*3 2.68 C 0 km/h
1083 18-04-2011 03:00:00 2.06 C 4.56 g/m*3 2.06 C 0 km/h
1084 18-04-2011 04:00:00 1.42 C 4.5 g/m*3 1.42 C 0 km/h
1085 18-04-2011 05:00:00 0.98 C 4.47 g/m*3 0.98 C 0 km/h
1086 18-04-2011 06:00:00 0.72 C 4.48 g/m*3 0.72 C 0 km/h
1087 18-04-2011 07:00:00 1.3 C 4.7 g/m*3 1.3 C 0 km/h
1088 18-04-2011 08:00:00 2.7 C 5.14 g/m*3 2.7 C 0 km/h
1089 18-04-2011 09:00:00 4.56 C 5.68 g/m*3 4.56 C 0 km/h
1090 18-04-2011 10:00:00 8.08 C 6.03 g/m*3 8.08 C 0 km/h
1091 18-04-2011 11:00:00 12.02 C 5.34 g/m*3 12.02 C 0 km/h
1092 18-04-2011 12:00:00 15.86 C 3.86 g/m*3 15.86 C 0 km/h
1093 18-04-2011 13:00:00 19.24 C 3.64 g/m*3 19.24 C 0 km/h
1094 18-04-2011 14:00:00 23.64 C 4.26 g/m*3 23.64 C 0 km/h
1095 18-04-2011 15:00:00 24.52 C 4.48 g/m*3 24.52 C 0 km/h
1096 18-04-2011 16:00:00 26.1 C 4.9 g/m*3 26.1 C 0 km/h
1097 18-04-2011 17:00:00 25.44 C 4.72 g/m*3 25.44 C 0 km/h
1098 18-04-2011 18:00:00 23.54 C 4.24 g/m*3 23.54 C 0 km/h
1099 18-04-2011 19:00:00 18.26 C 4.46 g/m*3 18.26 C 0 km/h
1100 18-04-2011 20:00:00 12.92 C 4.63 g/m*3 12.92 C 0 km/h
Sensor: Nr:Datum:Temp:Abs-Feuchte:Windchill:Wind:
Aussen-T/F 1101 18-04-2011 21:00:00 10.72 C 4.76 g/m*3 10.72 C 0 km/h
1102 18-04-2011 22:00:00 9.275 C 5 g/m*3 9.28 C 0 km/h
1103 18-04-2011 23:00:00 7.86 C 5.03 g/m*3 7.86 C 0 km/h
1104 19-04-2011 00:00:00 6.42 C 5.07 g/m*3 6.42 C 0 km/h
1105 19-04-2011 01:00:00 5.3 C 5.03 g/m*3 5.3 C 0 km/h
1106 19-04-2011 02:00:00 4.46 C 5.01 g/m*3 4.46 C 0 km/h
1107 19-04-2011 03:00:00 3.74 C 5 g/m*3 3.74 C 0 km/h
1108 19-04-2011 04:00:00 3.16 C 5.01 g/m*3 3.16 C 0 km/h
1109 19-04-2011 05:00:00 2.5 C 4.91 g/m*3 2.5 C 0 km/h
1110 19-04-2011 06:00:00 2.22 C 4.93 g/m*3 2.22 C 0 km/h
1111 19-04-2011 07:00:00 2.64 C 5.14 g/m*3 2.64 C 0 km/h
1112 19-04-2011 08:00:00 3.76 C 5.54 g/m*3 3.76 C 0 km/h
1113 19-04-2011 09:00:00 5.42 C 6.15 g/m*3 5.42 C 0 km/h
1114 19-04-2011 10:00:00 8.58 C 6.8 g/m*3 8.58 C 0 km/h
1115 19-04-2011 11:00:00 12.76 C 6.26 g/m*3 12.76 C 0 km/h
1116 19-04-2011 12:00:00 17.58 C 4.7 g/m*3 17.58 C 0 km/h
1117 19-04-2011 13:00:00 20.42 C 4.18 g/m*3 20.42 C 0 km/h
1118 19-04-2011 14:00:00 26.44 C 4.99 g/m*3 26.44 C 0 km/h
1119 19-04-2011 15:00:00 28.6 C 5.62 g/m*3 28.6 C 0 km/h
1120 19-04-2011 16:00:00 28.78 C 5.68 g/m*3 28.78 C 0 km/h
1121 19-04-2011 17:00:00 28.68 C 5.65 g/m*3 28.68 C 0 km/h
1122 19-04-2011 18:00:00 27.58 C 5.31 g/m*3 27.58 C 0 km/h
1123 19-04-2011 19:00:00 22.26 C 4.65 g/m*3 22.26 C 0 km/h
1124 19-04-2011 20:00:00 15.18 C 4.62 g/m*3 15.18 C 0 km/h
1125 19-04-2011 21:00:00 12.64 C 4.88 g/m*3 12.64 C 0 km/h
Sensor: Nr:Datum:Temp:Abs-Feuchte:Windchill:Wind:
Aussen-T/F 1126 19-04-2011 22:00:00 10.86 C 5.24 g/m*3 10.86 C 0 km/h
1127 19-04-2011 23:00:00 9.04 C 5.16 g/m*3 9.04 C 0 km/h
1128 20-04-2011 00:00:00 7.48 C 5.29 g/m*3 7.48 C 0 km/h
1129 20-04-2011 01:00:00 6.52 C 5.29 g/m*3 6.52 C 0 km/h
1130 20-04-2011 02:00:00 5.74 C 5.28 g/m*3 5.74 C 0 km/h
1131 20-04-2011 03:00:00 4.7 C 5.33 g/m*3 4.7 C 0 km/h
1132 20-04-2011 04:00:00 4.02 C 5.32 g/m*3 4.02 C 0 km/h
1133 20-04-2011 05:00:00 3.48 C 5.32 g/m*3 3.48 C 0 km/h
1134 20-04-2011 06:00:00 3.06 C 5.23 g/m*3 3.06 C 0 km/h
1135 20-04-2011 07:00:00 3.38 C 5.4 g/m*3 3.38 C 0 km/h
1136 20-04-2011 08:00:00 4.5 C 5.84 g/m*3 4.5 C 0 km/h
1137 20-04-2011 09:00:00 6.08 C 6.36 g/m*3 6.08 C 0 km/h
1138 20-04-2011 10:00:00 8.94 C 7.03 g/m*3 8.94 C 0 km/h
1139 20-04-2011 11:00:00 12.54 C 6.99 g/m*3 12.54 C 0 km/h
1140 20-04-2011 12:00:00 17.52 C 5.97 g/m*3 17.52 C 0 km/h
1141 20-04-2011 13:00:00 21.7 C 3.85 g/m*3 21.7 C 0 km/h
1142 20-04-2011 14:00:00 26.94 C 5.13 g/m*3 26.94 C 0 km/h
1143 20-04-2011 15:00:00 28.82 C 5.69 g/m*3 28.82 C 0 km/h
1144 20-04-2011 16:00:00 29.3 C 5.84 g/m*3 29.3 C 0 km/h
1145 20-04-2011 17:00:00 30.08 C 6.09 g/m*3 30.08 C 0 km/h
1146 20-04-2011 18:00:00 27.62 C 5.33 g/m*3 27.62 C 0 km/h
1147 20-04-2011 19:00:00 22.44 C 5.22 g/m*3 22.44 C 0 km/h
1148 20-04-2011 20:00:00 15.9 C 4.98 g/m*3 15.9 C 0 km/h
1149 20-04-2011 21:00:00 13.3 C 5.04 g/m*3 13.3 C 0 km/h
1150 20-04-2011 22:00:00 11.48 C 5.1 g/m*3 11.48 C 0 km/h
Sensor: Nr:Datum:Temp:Abs-Feuchte:Windchill:Wind:
Aussen-T/F 1151 20-04-2011 23:00:00 9.64 C 5.22 g/m*3 9.64 C 0 km/h
1152 21-04-2011 00:00:00 8.66 C 5.26 g/m*3 8.66 C 0 km/h
1153 21-04-2011 01:00:00 8.08 C 5.45 g/m*3 8.08 C 0 km/h
1154 21-04-2011 02:00:00 7.02 C 5.48 g/m*3 7.02 C 0 km/h
1155 21-04-2011 03:00:00 6.42 C 5.63 g/m*3 6.42 C 0 km/h
1156 21-04-2011 04:00:00 5.62 C 5.65 g/m*3 5.62 C 0 km/h
1157 21-04-2011 05:00:00 4.86 C 5.57 g/m*3 4.86 C 0 km/h
1158 21-04-2011 06:00:00 4.68 C 5.67 g/m*3 4.68 C 0 km/h
1159 21-04-2011 07:00:00 5.18 C 5.94 g/m*3 5.18 C 0 km/h
1160 21-04-2011 08:00:00 6.24 C 6.37 g/m*3 6.24 C 0 km/h
1161 21-04-2011 09:00:00 8.56 C 6.98 g/m*3 8.56 C 0 km/h
1162 21-04-2011 10:00:00 11.76 C 6.7 g/m*3 11.76 C 0 km/h
1163 21-04-2011 11:00:00 15.18 C 6.46 g/m*3 15.18 C 0 km/h
1164 21-04-2011 12:00:00 17.8 C 6.74 g/m*3 17.8 C 0 km/h
1165 21-04-2011 13:00:00 20.9 C 6.16 g/m*3 20.9 C 0 km/h
1166 21-04-2011 14:00:00 29.96 C 6.05 g/m*3 29.96 C 0 km/h
1167 21-04-2011 15:00:00 31.4 C 6.54 g/m*3 31.4 C 0 km/h
1168 21-04-2011 16:00:00 30.8 C 6.33 g/m*3 30.8 C 0 km/h
1169 21-04-2011 17:00:00 31.1 C 6.43 g/m*3 31.1 C 0 km/h
1170 21-04-2011 18:00:00 23.04 C 5.56 g/m*3 23.04 C 0 km/h
1171 21-04-2011 19:00:00 18.72 C 5.64 g/m*3 18.72 C 0 km/h
1172 21-04-2011 20:00:00 15.6 C 5.82 g/m*3 15.6 C 0 km/h
1173 21-04-2011 21:00:00 13.46 C 5.9 g/m*3 13.46 C 0 km/h
1174 21-04-2011 22:00:00 12.12 C 5.88 g/m*3 12.12 C 0 km/h
1175 21-04-2011 23:00:00 10.68 C 6.08 g/m*3 10.68 C 0 km/h
Sensor: Nr:Datum:Temp:Abs-Feuchte:Windchill:Wind:
Aussen-T/F 1176 22-04-2011 00:00:00 9.58 C 6.15 g/m*3 9.58 C 0 km/h
1177 22-04-2011 01:00:00 9 C 6.31 g/m*3 9 C 0 km/h
1178 22-04-2011 02:00:00 8.3 C 6.44 g/m*3 8.3 C 0 km/h
1179 22-04-2011 03:00:00 7.44 C 6.46 g/m*3 7.44 C 0 km/h
1180 22-04-2011 04:00:00 6.84 C 6.49 g/m*3 6.84 C 0 km/h
1181 22-04-2011 05:00:00 6.34 C 6.43 g/m*3 6.34 C 0 km/h
1182 22-04-2011 06:00:00 5.98 C 6.36 g/m*3 5.98 C 0 km/h
1183 22-04-2011 07:00:00 6.52 C 6.67 g/m*3 6.52 C 0 km/h
1184 22-04-2011 08:00:00 7.62 C 7.08 g/m*3 7.62 C 0 km/h
1185 22-04-2011 09:00:00 9.56 C 7.84 g/m*3 9.56 C 0 km/h
1186 22-04-2011 10:00:00 12.44 C 8.65 g/m*3 12.44 C 0 km/h
1187 22-04-2011 11:00:00 15.8 C 8.21 g/m*3 15.8 C 0 km/h
1188 22-04-2011 12:00:00 19.26 C 7.74 g/m*3 19.26 C 0 km/h
1189 22-04-2011 13:00:00 23.48 C 5.24 g/m*3 23.48 C 0 km/h
1190 22-04-2011 14:00:00 29.48 C 5.9 g/m*3 29.48 C 0 km/h
1191 22-04-2011 15:00:00 31.16 C 6.46 g/m*3 31.16 C 0 km/h
1192 22-04-2011 16:00:00 30.32 C 6.17 g/m*3 30.32 C 0 km/h
1193 22-04-2011 17:00:00 29 C 5.74 g/m*3 29 C 0 km/h
1194 22-04-2011 18:00:00 29.72 C 5.97 g/m*3 29.72 C 0 km/h
1195 22-04-2011 19:00:00 25.08 C 6.01 g/m*3 25.08 C 0 km/h
1196 22-04-2011 20:00:00 19.14 C 6.24 g/m*3 19.14 C 0 km/h
1197 22-04-2011 21:00:00 17.26 C 6.11 g/m*3 17.26 C 0 km/h
1198 22-04-2011 22:00:00 16.48 C 5.97 g/m*3 16.48 C 0 km/h
1199 22-04-2011 23:00:00 16.62 C 6.39 g/m*3 16.62 C 0 km/h
1200 23-04-2011 00:00:00 13.46 C 9.73 g/m*3 13.46 C 0 km/h
Sensor: Nr:Datum:Temp:Abs-Feuchte:Windchill:Wind:
Aussen-T/F 1201 23-04-2011 01:00:00 12.34 C 9.49 g/m*3 12.34 C 0 km/h
1202 23-04-2011 02:00:00 11.32 C 8.99 g/m*3 11.32 C 0 km/h
1203 23-04-2011 03:00:00 10.38 C 8.53 g/m*3 10.38 C 0 km/h
1204 23-04-2011 04:00:00 10.84 C 8.88 g/m*3 10.84 C 0 km/h
1205 23-04-2011 05:00:00 11.3 C 9.16 g/m*3 11.3 C 0 km/h
1206 23-04-2011 06:00:00 10.96 C 8.99 g/m*3 10.96 C 0 km/h
1207 23-04-2011 07:00:00 11.16 C 9.12 g/m*3 11.16 C 0 km/h
1208 23-04-2011 08:00:00 13 C 10.18 g/m*3 13 C 0 km/h
1209 23-04-2011 09:00:00 14.38 C 10.72 g/m*3 14.38 C 0 km/h
1210 23-04-2011 10:00:00 15.06 C 10.94 g/m*3 15.06 C 0 km/h
1211 23-04-2011 11:00:00 17.2 C 10.43 g/m*3 17.2 C 0 km/h
1212 23-04-2011 12:00:00 19.96 C 7.24 g/m*3 19.96 C 0 km/h
1213 23-04-2011 13:00:00 23.94 C 5.25 g/m*3 23.94 C 0 km/h
1214 23-04-2011 14:00:00 30.62 C 6.27 g/m*3 30.62 C 0 km/h
1215 23-04-2011 15:00:00 31.56 C 6.6 g/m*3 31.56 C 0 km/h
1216 23-04-2011 16:00:00 31.88 C 6.71 g/m*3 31.88 C 0 km/h
1217 23-04-2011 17:00:00 30.98 C 6.39 g/m*3 30.98 C 0 km/h
1218 23-04-2011 18:00:00 30.12 C 6.1 g/m*3 30.12 C 0 km/h
1219 23-04-2011 19:00:00 24.44 C 6.42 g/m*3 24.44 C 0 km/h
1220 23-04-2011 20:00:00 18.26 C 5.96 g/m*3 18.26 C 0 km/h
1221 23-04-2011 21:00:00 15.72 C 5.92 g/m*3 15.72 C 0 km/h
1222 23-04-2011 22:00:00 14.88 C 6.59 g/m*3 14.88 C 0 km/h
1223 23-04-2011 23:00:00 14.5 C 6.84 g/m*3 14.5 C 0 km/h
1224 24-04-2011 00:00:00 13.14 C 7.05 g/m*3 13.14 C 0 km/h
1225 24-04-2011 01:00:00 11.28 C 6.89 g/m*3 11.28 C 0 km/h
Sensor: Nr:Datum:Temp:Abs-Feuchte:Windchill:Wind:
Aussen-T/F 1226 24-04-2011 02:00:00 10.22 C 6.9 g/m*3 10.22 C 0 km/h
1227 24-04-2011 03:00:00 9.42 C 6.94 g/m*3 9.42 C 0 km/h
1228 24-04-2011 04:00:00 8.86 C 7.06 g/m*3 8.86 C 0 km/h
1229 24-04-2011 05:00:00 8.16 C 6.95 g/m*3 8.16 C 0 km/h
1230 24-04-2011 06:00:00 7.4 C 6.82 g/m*3 7.4 C 0 km/h
1231 24-04-2011 07:00:00 7.96 C 7.16 g/m*3 7.96 C 0 km/h
1232 24-04-2011 08:00:00 9.44 C 7.65 g/m*3 9.44 C 0 km/h
1233 24-04-2011 09:00:00 10.94 C 8.06 g/m*3 10.94 C 0 km/h
1234 24-04-2011 10:00:00 13.42 C 8.68 g/m*3 13.42 C 0 km/h
1235 24-04-2011 11:00:00 16.12 C 8.1 g/m*3 16.12 C 0 km/h
1236 24-04-2011 12:00:00 19.04 C 6.96 g/m*3 19.04 C 0 km/h
1237 24-04-2011 13:00:00 22.96 C 5.82 g/m*3 22.96 C 0 km/h
1238 24-04-2011 14:00:00 29.4 C 5.87 g/m*3 29.4 C 0 km/h
1239 24-04-2011 15:00:00 30.46 C 6.22 g/m*3 30.46 C 0 km/h
1240 24-04-2011 16:00:00 31.08 C 6.43 g/m*3 31.08 C 0 km/h
1241 24-04-2011 17:00:00 28.58 C 6.63 g/m*3 28.58 C 0 km/h
1242 24-04-2011 18:00:00 25.34 C 7.32 g/m*3 25.34 C 0 km/h
1243 24-04-2011 19:00:00 22.02 C 7.69 g/m*3 22.02 C 0 km/h
1244 24-04-2011 20:00:00 17.72 C 6.95 g/m*3 17.72 C 0 km/h
1245 24-04-2011 21:00:00 16.14 C 6.27 g/m*3 16.14 C 0 km/h
1246 24-04-2011 22:00:00 16.5 C 5.14 g/m*3 16.5 C 0 km/h
1247 24-04-2011 23:00:00 16.24 C 4.42 g/m*3 16.24 C 0 km/h
1248 25-04-2011 00:00:00 14.78 C 4.45 g/m*3 14.78 C 0 km/h
1249 25-04-2011 01:00:00 12.76 C 4.94 g/m*3 12.76 C 0 km/h
1250 25-04-2011 02:00:00 11.24 C 5 g/m*3 11.24 C 0 km/h
Sensor: Nr:Datum:Temp:Abs-Feuchte:Windchill:Wind:
Aussen-T/F 1251 25-04-2011 03:00:00 9.94 C 5.15 g/m*3 9.94 C 0 km/h
1252 25-04-2011 04:00:00 8.12 C 5.35 g/m*3 8.12 C 0 km/h
1253 25-04-2011 05:00:00 6.94 C 5.53 g/m*3 6.94 C 0 km/h
1254 25-04-2011 06:00:00 6.26 C 5.67 g/m*3 6.26 C 0 km/h
1255 25-04-2011 07:00:00 6.2 C 5.96 g/m*3 6.2 C 0 km/h
1256 25-04-2011 08:00:00 7.32 C 6.55 g/m*3 7.32 C 0 km/h
1257 25-04-2011 09:00:00 9.34 C 7.15 g/m*3 9.34 C 0 km/h
1258 25-04-2011 10:00:00 12.78 C 7.2 g/m*3 12.78 C 0 km/h
1259 25-04-2011 11:00:00 16.32 C 5.58 g/m*3 16.32 C 0 km/h
1260 25-04-2011 12:00:00 18.84 C 3.81 g/m*3 18.84 C 0 km/h
1261 25-04-2011 13:00:00 21.56 C 3.78 g/m*3 21.56 C 0 km/h
1262 25-04-2011 14:00:00 27.66 C 5.34 g/m*3 27.66 C 0 km/h
1263 25-04-2011 15:00:00 29.44 C 5.88 g/m*3 29.44 C 0 km/h
1264 25-04-2011 16:00:00 29.42 C 5.88 g/m*3 29.42 C 0 km/h
1265 25-04-2011 17:00:00 29.12 C 5.78 g/m*3 29.12 C 0 km/h
1266 25-04-2011 18:00:00 27.62 C 5.33 g/m*3 27.62 C 0 km/h
1267 25-04-2011 19:00:00 22.72 C 4.53 g/m*3 22.72 C 0 km/h
1268 25-04-2011 20:00:00 15.98 C 5.39 g/m*3 15.98 C 0 km/h
1269 25-04-2011 21:00:00 14.06 C 5.06 g/m*3 14.06 C 0 km/h
1270 25-04-2011 22:00:00 13 C 5.24 g/m*3 13 C 0 km/h
1271 25-04-2011 23:00:00 11.98 C 5.28 g/m*3 11.98 C 0 km/h
1272 26-04-2011 00:00:00 11.32 C 5.54 g/m*3 11.32 C 0 km/h
1273 26-04-2011 01:00:00 9.38 C 5.58 g/m*3 9.38 C 0 km/h
1274 26-04-2011 02:00:00 8.1 C 5.66 g/m*3 8.1 C 0 km/h
1275 26-04-2011 03:00:00 7.04 C 5.8 g/m*3 7.04 C 0 km/h
Sensor: Nr:Datum:Temp:Abs-Feuchte:Windchill:Wind:
Aussen-T/F 1276 26-04-2011 04:00:00 6.2 C 5.81 g/m*3 6.2 C 0 km/h
1277 26-04-2011 05:00:00 5.62 C 5.89 g/m*3 5.62 C 0 km/h
1278 26-04-2011 06:00:00 5.22 C 5.93 g/m*3 5.22 C 0 km/h
1279 26-04-2011 07:00:00 5.88 C 6.25 g/m*3 5.88 C 0 km/h
1280 26-04-2011 08:00:00 7.08 C 6.73 g/m*3 7.08 C 0 km/h
1281 26-04-2011 09:00:00 8.9 C 7.2 g/m*3 8.9 C 0 km/h
1282 26-04-2011 10:00:00 12.1 C 7.27 g/m*3 12.1 C 0 km/h
1283 26-04-2011 11:00:00 15.92 C 6.24 g/m*3 15.92 C 0 km/h
1284 26-04-2011 12:00:00 19.24 C 5.75 g/m*3 19.24 C 0 km/h
1285 26-04-2011 13:00:00 19.66 C 5.79 g/m*3 19.66 C 0 km/h
1286 26-04-2011 14:00:00 22.08 C 5.26 g/m*3 22.08 C 0 km/h
1287 26-04-2011 15:00:00 20.74 C 5.23 g/m*3 20.74 C 0 km/h
1288 26-04-2011 16:00:00 23.94 C 4.6 g/m*3 23.94 C 0 km/h
1289 26-04-2011 17:00:00 20.08 C 4.93 g/m*3 20.08 C 0 km/h
1290 26-04-2011 18:00:00 14.54 C 7.76 g/m*3 14.54 C 0 km/h
1291 26-04-2011 19:00:00 14.04 C 8.25 g/m*3 14.04 C 0 km/h
1292 26-04-2011 20:00:00 13.28 C 7.82 g/m*3 13.28 C 0 km/h
1293 26-04-2011 21:00:00 12.02 C 7.49 g/m*3 12.02 C 0 km/h
1294 26-04-2011 22:00:00 13.12 C 7.68 g/m*3 13.12 C 0 km/h
1295 26-04-2011 23:00:00 12.36 C 7.74 g/m*3 12.36 C 0 km/h
1296 27-04-2011 00:00:00 11.4 C 7.55 g/m*3 11.4 C 0 km/h
1297 27-04-2011 01:00:00 11.58 C 8.16 g/m*3 11.58 C 0 km/h
1298 27-04-2011 02:00:00 11.42 C 8.59 g/m*3 11.42 C 0 km/h
1299 27-04-2011 03:00:00 11.26 C 8.71 g/m*3 11.26 C 0 km/h
1300 27-04-2011 04:00:00 11.42 C 8.82 g/m*3 11.42 C 0 km/h
Sensor: Nr:Datum:Temp:Abs-Feuchte:Windchill:Wind:
Aussen-T/F 1301 27-04-2011 05:00:00 11.48 C 8.25 g/m*3 11.48 C 0 km/h
1302 27-04-2011 06:00:00 11.04 C 6.98 g/m*3 11.04 C 0 km/h
1303 27-04-2011 07:00:00 9.98 C 6.79 g/m*3 9.98 C 0 km/h
1304 27-04-2011 08:00:00 9.94 C 7.15 g/m*3 9.94 C 0 km/h
1305 27-04-2011 09:00:00 11.24 C 7.11 g/m*3 11.24 C 0 km/h
1306 27-04-2011 10:00:00 11.8 C 7.07 g/m*3 11.8 C 0 km/h
1307 27-04-2011 11:00:00 11.62 C 7.06 g/m*3 11.62 C 0 km/h
1308 27-04-2011 12:00:00 12.14 C 7.1 g/m*3 12.14 C 0 km/h
1309 27-04-2011 13:00:00 11.18 C 7.53 g/m*3 11.18 C 0 km/h
1310 27-04-2011 14:00:00 11.42 C 7.85 g/m*3 11.42 C 0 km/h
1311 27-04-2011 15:00:00 12.92 C 7.99 g/m*3 12.92 C 0 km/h
1312 27-04-2011 16:00:00 12.68 C 7.74 g/m*3 12.68 C 0 km/h
1313 27-04-2011 17:00:00 12.26 C 7.73 g/m*3 12.26 C 0 km/h
1314 27-04-2011 18:00:00 12.08 C 7.86 g/m*3 12.08 C 0 km/h
1315 27-04-2011 19:00:00 10.74 C 8.21 g/m*3 10.74 C 0 km/h
1316 27-04-2011 20:00:00 10.7 C 8.39 g/m*3 10.7 C 0 km/h
1317 27-04-2011 21:00:00 10.14 C 8.25 g/m*3 10.14 C 0 km/h
1318 27-04-2011 22:00:00 10.12 C 8.41 g/m*3 10.12 C 0 km/h
1319 27-04-2011 23:00:00 9.96 C 8.42 g/m*3 9.96 C 0 km/h
1320 28-04-2011 00:00:00 9.92 C 8.45 g/m*3 9.92 C 0 km/h
1321 28-04-2011 01:00:00 9.78 C 8.43 g/m*3 9.78 C 0 km/h
1322 28-04-2011 02:00:00 9.54 C 8.3 g/m*3 9.54 C 0 km/h
1323 28-04-2011 03:00:00 9.26 C 8.18 g/m*3 9.26 C 0 km/h
1324 28-04-2011 04:00:00 8.78 C 7.98 g/m*3 8.78 C 0 km/h
1325 28-04-2011 05:00:00 9.08 C 8.15 g/m*3 9.08 C 0 km/h
Sensor: Nr:Datum:Temp:Abs-Feuchte:Windchill:Wind:
Aussen-T/F 1326 28-04-2011 06:00:00 9.44 C 8.34 g/m*3 9.44 C 0 km/h
1327 28-04-2011 07:00:00 9.84 C 8.54 g/m*3 9.84 C 0 km/h
1328 28-04-2011 08:00:00 10.7 C 9.02 g/m*3 10.7 C 0 km/h
1329 28-04-2011 09:00:00 11.82 C 9.57 g/m*3 11.82 C 0 km/h
1330 28-04-2011 10:00:00 12.84 C 8.98 g/m*3 12.84 C 0 km/h
1331 28-04-2011 11:00:00 15.22 C 8.34 g/m*3 15.22 C 0 km/h
1332 28-04-2011 12:00:00 16.12 C 7.9 g/m*3 16.12 C 0 km/h
1333 28-04-2011 13:00:00 17.64 C 7.73 g/m*3 17.64 C 0 km/h
1334 28-04-2011 14:00:00 20.54 C 7.28 g/m*3 20.54 C 0 km/h
1335 28-04-2011 15:00:00 22.04 C 6.85 g/m*3 22.04 C 0 km/h
1336 28-04-2011 16:00:00 21 C 8.43 g/m*3 21 C 0 km/h
1337 28-04-2011 17:00:00 24.02 C 6.01 g/m*3 24.02 C 0 km/h
1338 28-04-2011 18:00:00 19.88 C 7.93 g/m*3 19.88 C 0 km/h
1339 28-04-2011 19:00:00 19.92 C 7.98 g/m*3 19.92 C 0 km/h
1340 28-04-2011 20:00:00 14.16 C 8.55 g/m*3 14.16 C 0 km/h
1341 28-04-2011 21:00:00 12.42 C 8.45 g/m*3 12.42 C 0 km/h
1342 28-04-2011 22:00:00 11.44 C 8.5 g/m*3 11.44 C 0 km/h
1343 28-04-2011 23:00:00 10.36 C 8.21 g/m*3 10.36 C 0 km/h
1344 29-04-2011 00:00:00 10.74 C 8.65 g/m*3 10.74 C 0 km/h
1345 29-04-2011 01:00:00 10 C 8.29 g/m*3 10 C 0 km/h
1346 29-04-2011 02:00:00 10.56 C 8.66 g/m*3 10.56 C 0 km/h
1347 29-04-2011 03:00:00 9.42 C 8.13 g/m*3 9.42 C 0 km/h
1348 29-04-2011 04:00:00 9.24 C 8.06 g/m*3 9.24 C 0 km/h
1349 29-04-2011 05:00:00 9.36 C 8.16 g/m*3 9.36 C 0 km/h
1350 29-04-2011 06:00:00 9.76 C 8.38 g/m*3 9.76 C 0 km/h
Sensor: Nr:Datum:Temp:Abs-Feuchte:Windchill:Wind:
Aussen-T/F 1351 29-04-2011 07:00:00 11 C 8.99 g/m*3 11 C 0 km/h
1352 29-04-2011 08:00:00 13.46 C 9.19 g/m*3 13.46 C 0 km/h
1353 29-04-2011 09:00:00 15.92 C 7.81 g/m*3 15.92 C 0 km/h
1354 29-04-2011 10:00:00 17.2 C 7.67 g/m*3 17.2 C 0 km/h
1355 29-04-2011 11:00:00 18.84 C 6.91 g/m*3 18.84 C 0 km/h
1356 29-04-2011 12:00:00 20.4 C 6.33 g/m*3 20.4 C 0 km/h
1357 29-04-2011 13:00:00 22.56 C 5.53 g/m*3 22.56 C 0 km/h
1358 29-04-2011 14:00:00 27.38 C 5.26 g/m*3 27.38 C 0 km/h
1359 29-04-2011 15:00:00 25.74 C 5.28 g/m*3 25.74 C 0 km/h
1360 29-04-2011 16:00:00 19.14 C 8.81 g/m*3 19.14 C 0 km/h
1361 29-04-2011 17:00:00 17.44 C 10.16 g/m*3 17.44 C 0 km/h
1362 29-04-2011 18:00:00 16.32 C 9.72 g/m*3 16.32 C 0 km/h
1363 29-04-2011 19:00:00 15.64 C 8.27 g/m*3 15.64 C 0 km/h
1364 29-04-2011 20:00:00 14.72 C 7.46 g/m*3 14.72 C 0 km/h
1365 29-04-2011 21:00:00 12.76 C 7.89 g/m*3 12.76 C 0 km/h
1366 29-04-2011 22:00:00 12.22 C 7.97 g/m*3 12.22 C 0 km/h
1367 29-04-2011 23:00:00 12.18 C 7.63 g/m*3 12.18 C 0 km/h
1368 30-04-2011 00:00:00 11.82 C 7.78 g/m*3 11.82 C 0 km/h
1369 30-04-2011 01:00:00 11.48 C 7.74 g/m*3 11.48 C 0 km/h
1370 30-04-2011 02:00:00 11.1 C 7.68 g/m*3 11.1 C 0 km/h
1371 30-04-2011 03:00:00 10.54 C 7.53 g/m*3 10.54 C 0 km/h
1372 30-04-2011 04:00:00 9.98 C 7.49 g/m*3 9.98 C 0 km/h
1373 30-04-2011 05:00:00 9.64 C 7.49 g/m*3 9.64 C 0 km/h
1374 30-04-2011 06:00:00 10.22 C 7.22 g/m*3 10.22 C 0 km/h
1375 30-04-2011 07:00:00 11.78 C 7.32 g/m*3 11.78 C 0 km/h
Sensor: Nr:Datum:Temp:Abs-Feuchte:Windchill:Wind:
Aussen-T/F 1376 30-04-2011 08:00:00 12.68 C 7.69 g/m*3 12.68 C 0 km/h
1377 30-04-2011 09:00:00 14.58 C 7.35 g/m*3 14.58 C 0 km/h
1378 30-04-2011 10:00:00 16.56 C 6.76 g/m*3 16.56 C 0 km/h
1379 30-04-2011 11:00:00 17.96 C 6.53 g/m*3 17.96 C 0 km/h
1380 30-04-2011 12:00:00 19.36 C 6.19 g/m*3 19.36 C 0 km/h
1381 30-04-2011 13:00:00 22.04 C 5.8 g/m*3 22.04 C 0 km/h
1382 30-04-2011 14:00:00 24.26 C 5.56 g/m*3 24.26 C 0 km/h
1383 30-04-2011 15:00:00 25.14 C 6.26 g/m*3 25.14 C 0 km/h
1384 30-04-2011 16:00:00 25.06 C 5.08 g/m*3 25.06 C 0 km/h
1385 30-04-2011 17:00:00 20 C 7.02 g/m*3 20 C 0 km/h
1386 30-04-2011 18:00:00 16.44 C 9.23 g/m*3 16.44 C 0 km/h
1387 30-04-2011 19:00:00 14.8 C 8.79 g/m*3 14.8 C 0 km/h
1388 30-04-2011 20:00:00 14.4 C 7.54 g/m*3 14.4 C 0 km/h
1389 30-04-2011 21:00:00 15.04 C 6.02 g/m*3 15.04 C 0 km/h
1390 30-04-2011 22:00:00 13.06 C 5.85 g/m*3 13.06 C 0 km/h
1391 30-04-2011 23:00:00 12.14 C 5.7 g/m*3 12.14 C 0 km/h
1392 01-05-2011 00:00:00 12.05 C 5.51 g/m*3 12.05 C 0 km/h
1393 01-05-2011 01:00:00 12.84 C 5.1 g/m*3 12.84 C 0 km/h
1394 01-05-2011 02:00:00 12.32 C 4.81 g/m*3 12.32 C 0 km/h
1395 01-05-2011 03:00:00 11.24 C 4.84 g/m*3 11.24 C 0 km/h
1396 01-05-2011 04:00:00 9.64 C 4.89 g/m*3 9.64 C 0 km/h
1397 01-05-2011 05:00:00 9.92 C 4.56 g/m*3 9.92 C 0 km/h
1398 01-05-2011 06:00:00 9.3 C 4.57 g/m*3 9.3 C 0 km/h
1399 01-05-2011 07:00:00 9.2 C 4.59 g/m*3 9.2 C 0 km/h
1400 01-05-2011 08:00:00 9.68 C 4.9 g/m*3 9.68 C 0 km/h
Sensor: Nr:Datum:Temp:Abs-Feuchte:Windchill:Wind:
Aussen-T/F 1401 01-05-2011 09:00:00 11.22 C 4.93 g/m*3 11.22 C 0 km/h
1402 01-05-2011 10:00:00 13.48 C 4.63 g/m*3 13.48 C 0 km/h
1403 01-05-2011 11:00:00 14.98 C 5.02 g/m*3 14.98 C 0 km/h
1404 01-05-2011 12:00:00 16.74 C 5.19 g/m*3 16.74 C 0 km/h
1405 01-05-2011 13:00:00 18.86 C 4.69 g/m*3 18.86 C 0 km/h
1406 01-05-2011 14:00:00 24.24 C 4.41 g/m*3 24.24 C 0 km/h
1407 01-05-2011 15:00:00 25.4 C 4.71 g/m*3 25.4 C 0 km/h
1408 01-05-2011 16:00:00 25.52 C 4.74 g/m*3 25.52 C 0 km/h
1409 01-05-2011 17:00:00 24.6 C 4.5 g/m*3 24.6 C 0 km/h
1410 01-05-2011 18:00:00 23.38 C 4.2 g/m*3 23.38 C 0 km/h
1411 01-05-2011 19:00:00 20.54 C 3.75 g/m*3 20.54 C 0 km/h
1412 01-05-2011 20:00:00 15.24 C 3.62 g/m*3 15.24 C 0 km/h
1413 01-05-2011 21:00:00 11 C 4.02 g/m*3 11 C 0 km/h
1414 01-05-2011 22:00:00 9.88 C 4.01 g/m*3 9.88 C 0 km/h
1415 01-05-2011 23:00:00 10.36 C 4.1 g/m*3 10.36 C 0 km/h
1416 02-05-2011 00:00:00 11.56 C 3.71 g/m*3 11.56 C 0 km/h
1417 02-05-2011 01:00:00 9.52 C 3.79 g/m*3 9.52 C 0 km/h
1418 02-05-2011 02:00:00 7.82 C 4.07 g/m*3 7.82 C 0 km/h
1419 02-05-2011 03:00:00 6.16 C 4.33 g/m*3 6.16 C 0 km/h
1420 02-05-2011 04:00:00 5.32 C 4.44 g/m*3 5.32 C 0 km/h
1421 02-05-2011 05:00:00 4.76 C 4.49 g/m*3 4.76 C 0 km/h
1422 02-05-2011 06:00:00 4.2 C 4.54 g/m*3 4.2 C 0 km/h
1423 02-05-2011 07:00:00 4.4 C 4.77 g/m*3 4.4 C 0 km/h
1424 02-05-2011 08:00:00 5.26 C 5.17 g/m*3 5.26 C 0 km/h
1425 02-05-2011 09:00:00 7.2 C 5.23 g/m*3 7.2 C 0 km/h
Sensor: Nr:Datum:Temp:Abs-Feuchte:Windchill:Wind:
Aussen-T/F 1426 02-05-2011 10:00:00 10.76 C 4.79 g/m*3 10.76 C 0 km/h
1427 02-05-2011 11:00:00 13.12 C 4.2 g/m*3 13.12 C 0 km/h
1428 02-05-2011 12:00:00 14.54 C 3.77 g/m*3 14.54 C 0 km/h
1429 02-05-2011 13:00:00 16.78 C 3.6 g/m*3 16.78 C 0 km/h
1430 02-05-2011 14:00:00 22.72 C 4.05 g/m*3 22.72 C 0 km/h
1431 02-05-2011 15:00:00 22.12 C 3.91 g/m*3 22.12 C 0 km/h
1432 02-05-2011 16:00:00 21.2 C 3.74 g/m*3 21.2 C 0 km/h
1433 02-05-2011 17:00:00 21.04 C 3.67 g/m*3 21.04 C 0 km/h
1434 02-05-2011 18:00:00 18.58 C 3.37 g/m*3 18.58 C 0 km/h
1435 02-05-2011 19:00:00 17.22 C 3.4 g/m*3 17.22 C 0 km/h
1436 02-05-2011 20:00:00 12.46 C 4.1 g/m*3 12.46 C 0 km/h
1437 02-05-2011 21:00:00 9.9 C 4.52 g/m*3 9.9 C 0 km/h
1438 02-05-2011 22:00:00 8.36 C 4.79 g/m*3 8.36 C 0 km/h
1439 02-05-2011 23:00:00 9 C 4.73 g/m*3 9 C 0 km/h
1440 03-05-2011 00:00:00 8.3 C 4.74 g/m*3 8.3 C 0 km/h
1441 03-05-2011 01:00:00 8.02 C 4.74 g/m*3 8.02 C 0 km/h
1442 03-05-2011 02:00:00 8.2 C 4.71 g/m*3 8.2 C 0 km/h
1443 03-05-2011 03:00:00 8.02 C 4.54 g/m*3 8.02 C 0 km/h
1444 03-05-2011 04:00:00 7.72 C 4.42 g/m*3 7.72 C 0 km/h
1445 03-05-2011 05:00:00 7.7 C 4.27 g/m*3 7.7 C 0 km/h
1446 03-05-2011 06:00:00 7.52 C 4.3 g/m*3 7.52 C 0 km/h
1447 03-05-2011 07:00:00 7.76 C 4.12 g/m*3 7.76 C 0 km/h
1448 03-05-2011 08:00:00 7.12 C 4.05 g/m*3 7.12 C 0 km/h
1449 03-05-2011 09:00:00 7.74 C 4.18 g/m*3 7.74 C 0 km/h
1450 03-05-2011 10:00:00 9.78 C 4.02 g/m*3 9.78 C 0 km/h
Sensor: Nr:Datum:Temp:Abs-Feuchte:Windchill:Wind:
Aussen-T/F 1451 03-05-2011 11:00:00 11.94 C 3.67 g/m*3 11.94 C 0 km/h
1452 03-05-2011 12:00:00 12.2 C 3.43 g/m*3 12.2 C 0 km/h
1453 03-05-2011 13:00:00 13.14 C 3.25 g/m*3 13.14 C 0 km/h
1454 03-05-2011 14:00:00 17.38 C 3.08 g/m*3 17.38 C 0 km/h
1455 03-05-2011 15:00:00 19.14 C 3.29 g/m*3 19.14 C 0 km/h
1456 03-05-2011 16:00:00 21.46 C 3.76 g/m*3 21.46 C 0 km/h
1457 03-05-2011 17:00:00 19.28 C 3.31 g/m*3 19.28 C 0 km/h
1458 03-05-2011 18:00:00 19.6 C 3.38 g/m*3 19.6 C 0 km/h
1459 03-05-2011 19:00:00 16.12 C 2.88 g/m*3 16.12 C 0 km/h
1460 03-05-2011 20:00:00 9.08 C 3.76 g/m*3 9.08 C 0 km/h
1461 03-05-2011 21:00:00 6.58 C 3.66 g/m*3 6.58 C 0 km/h
1462 03-05-2011 22:00:00 4.78 C 3.67 g/m*3 4.78 C 0 km/h
1463 03-05-2011 23:00:00 3.78 C 3.77 g/m*3 3.78 C 0 km/h
1464 04-05-2011 00:00:00 3.48 C 4.03 g/m*3 3.48 C 0 km/h
1465 04-05-2011 01:00:00 2.24 C 3.99 g/m*3 2.24 C 0 km/h
1466 04-05-2011 02:00:00 1.26 C 4 g/m*3 1.26 C 0 km/h
1467 04-05-2011 03:00:00 0.6 C 4.1 g/m*3 0.6 C 0 km/h
1468 04-05-2011 04:00:00 0.1 C 4.09 g/m*3 0.1 C 0 km/h
1469 04-05-2011 05:00:00 -0.5 C 4.03 g/m*3 -0.5 C 0 km/h
1470 04-05-2011 06:00:00 -0.5 C 4.09 g/m*3 -0.5 C 0 km/h
1471 04-05-2011 07:00:00 0.22 C 4.33 g/m*3 0.22 C 0 km/h
1472 04-05-2011 08:00:00 2.2 C 4.9 g/m*3 2.2 C 0 km/h
1473 04-05-2011 09:00:00 4.08 C 5.1 g/m*3 4.08 C 0 km/h
1474 04-05-2011 10:00:00 7.14 C 4.88 g/m*3 7.14 C 0 km/h
1475 04-05-2011 11:00:00 9.78 C 4.11 g/m*3 9.78 C 0 km/h
Sensor: Nr:Datum:Temp:Abs-Feuchte:Windchill:Wind:
Aussen-T/F 1476 04-05-2011 12:00:00 11.56 C 3.32 g/m*3 11.56 C 0 km/h
1477 04-05-2011 13:00:00 15.4 C 2.81 g/m*3 15.4 C 0 km/h
1478 04-05-2011 14:00:00 17.96 C 3.06 g/m*3 17.96 C 0 km/h
1479 04-05-2011 15:00:00 19.16 C 3.29 g/m*3 19.16 C 0 km/h
1480 04-05-2011 16:00:00 19.32 C 3.32 g/m*3 19.32 C 0 km/h
1481 04-05-2011 17:00:00 19.76 C 3.41 g/m*3 19.76 C 0 km/h
1482 04-05-2011 18:00:00 18.44 C 3.15 g/m*3 18.44 C 0 km/h
1483 04-05-2011 19:00:00 16.32 C 3 g/m*3 16.32 C 0 km/h
1484 04-05-2011 20:00:00 11.2 C 3.75 g/m*3 11.2 C 0 km/h
1485 04-05-2011 21:00:00 7.86 C 4.16 g/m*3 7.86 C 0 km/h
1486 04-05-2011 22:00:00 6.84 C 4.17 g/m*3 6.84 C 0 km/h
1487 04-05-2011 23:00:00 4.8 C 4.37 g/m*3 4.8 C 0 km/h
1488 05-05-2011 00:00:00 3.46 C 4.38 g/m*3 3.46 C 0 km/h
1489 05-05-2011 01:00:00 2.64 C 4.42 g/m*3 2.64 C 0 km/h
1490 05-05-2011 02:00:00 2.02 C 4.51 g/m*3 2.02 C 0 km/h
1491 05-05-2011 03:00:00 1.58 C 4.59 g/m*3 1.58 C 0 km/h
1492 05-05-2011 04:00:00 1.1 C 4.56 g/m*3 1.1 C 0 km/h
1493 05-05-2011 05:00:00 0.5 C 4.45 g/m*3 0.5 C 0 km/h
1494 05-05-2011 06:00:00 0.44 C 4.47 g/m*3 0.44 C 0 km/h
1495 05-05-2011 07:00:00 1.28 C 4.76 g/m*3 1.28 C 0 km/h
1496 05-05-2011 08:00:00 2.66 C 5.17 g/m*3 2.66 C 0 km/h
1497 05-05-2011 09:00:00 5.2 C 5.94 g/m*3 5.2 C 0 km/h
1498 05-05-2011 10:00:00 8.94 C 6.48 g/m*3 8.94 C 0 km/h
1499 05-05-2011 11:00:00 12.78 C 4.65 g/m*3 12.78 C 0 km/h
1500 05-05-2011 12:00:00 14.56 C 3.55 g/m*3 14.56 C 0 km/h
Sensor: Nr:Datum:Temp:Abs-Feuchte:Windchill:Wind:
Aussen-T/F 1501 05-05-2011 13:00:00 18.24 C 3.65 g/m*3 18.24 C 0 km/h
1502 05-05-2011 14:00:00 23.46 C 4.22 g/m*3 23.46 C 0 km/h
1503 05-05-2011 15:00:00 24.12 C 4.38 g/m*3 24.12 C 0 km/h
1504 05-05-2011 16:00:00 23.18 C 4.15 g/m*3 23.18 C 0 km/h
1505 05-05-2011 17:00:00 22.56 C 4.01 g/m*3 22.56 C 0 km/h
1506 05-05-2011 18:00:00 20.86 C 3.63 g/m*3 20.86 C 0 km/h
1507 05-05-2011 19:00:00 17.1 C 4.92 g/m*3 17.1 C 0 km/h
1508 05-05-2011 20:00:00 13.18 C 4.68 g/m*3 13.18 C 0 km/h
1509 05-05-2011 21:00:00 10.9 C 4.16 g/m*3 10.9 C 0 km/h
1510 05-05-2011 22:00:00 9.06 C 4.67 g/m*3 9.06 C 0 km/h
1511 05-05-2011 23:00:00 7.94 C 4.83 g/m*3 7.94 C 0 km/h
1512 06-05-2011 00:00:00 6.78 C 4.74 g/m*3 6.78 C 0 km/h
1513 06-05-2011 01:00:00 5.6 C 4.78 g/m*3 5.6 C 0 km/h
1514 06-05-2011 02:00:00 4.36 C 4.87 g/m*3 4.36 C 0 km/h
1515 06-05-2011 03:00:00 3.56 C 4.96 g/m*3 3.56 C 0 km/h
1516 06-05-2011 04:00:00 2.88 C 4.93 g/m*3 2.88 C 0 km/h
1517 06-05-2011 05:00:00 2.18 C 4.86 g/m*3 2.18 C 0 km/h
1518 06-05-2011 06:00:00 2.3 C 5.01 g/m*3 2.3 C 0 km/h
1519 06-05-2011 07:00:00 3.46 C 5.41 g/m*3 3.46 C 0 km/h
1520 06-05-2011 08:00:00 5.2 C 6 g/m*3 5.2 C 0 km/h
1521 06-05-2011 09:00:00 8.38 C 6.78 g/m*3 8.38 C 0 km/h
1522 06-05-2011 10:00:00 11.9 C 6.69 g/m*3 11.9 C 0 km/h
1523 06-05-2011 11:00:00 16.36 C 5.63 g/m*3 16.36 C 0 km/h
1524 06-05-2011 12:00:00 20.48 C 4.59 g/m*3 20.48 C 0 km/h
1525 06-05-2011 13:00:00 23.68 C 4.27 g/m*3 23.68 C 0 km/h
Sensor: Nr:Datum:Temp:Abs-Feuchte:Windchill:Wind:
Aussen-T/F 1526 06-05-2011 14:00:00 26.28 C 4.95 g/m*3 26.28 C 0 km/h
1527 06-05-2011 15:00:00 26.08 C 4.89 g/m*3 26.08 C 0 km/h
1528 06-05-2011 16:00:00 26.24 C 4.93 g/m*3 26.24 C 0 km/h
1529 06-05-2011 17:00:00 26.68 C 5.06 g/m*3 26.68 C 0 km/h
1530 06-05-2011 18:00:00 24.76 C 5.68 g/m*3 24.76 C 0 km/h
1531 06-05-2011 19:00:00 20.22 C 6.48 g/m*3 20.22 C 0 km/h
1532 06-05-2011 20:00:00 17.06 C 5.92 g/m*3 17.06 C 0 km/h
1533 06-05-2011 21:00:00 14.88 C 5.37 g/m*3 14.88 C 0 km/h
1534 06-05-2011 22:00:00 13.12 C 5.64 g/m*3 13.12 C 0 km/h
1535 06-05-2011 23:00:00 12.26 C 5.63 g/m*3 12.26 C 0 km/h
1536 07-05-2011 00:00:00 11.46 C 5.73 g/m*3 11.46 C 0 km/h
1537 07-05-2011 01:00:00 10.04 C 5.86 g/m*3 10.04 C 0 km/h
1538 07-05-2011 02:00:00 8.76 C 5.94 g/m*3 8.76 C 0 km/h
1539 07-05-2011 03:00:00 7.92 C 6.17 g/m*3 7.92 C 0 km/h
1540 07-05-2011 04:00:00 7.3 C 6.19 g/m*3 7.3 C 0 km/h
1541 07-05-2011 05:00:00 7.22 C 6.38 g/m*3 7.22 C 0 km/h
1542 07-05-2011 06:00:00 7.06 C 6.44 g/m*3 7.06 C 0 km/h
1543 07-05-2011 07:00:00 7.58 C 6.74 g/m*3 7.58 C 0 km/h
1544 07-05-2011 08:00:00 9.2 C 7.18 g/m*3 9.2 C 0 km/h
1545 07-05-2011 09:00:00 11.84 C 7.53 g/m*3 11.84 C 0 km/h
1546 07-05-2011 10:00:00 16.16 C 7.92 g/m*3 16.16 C 0 km/h
1547 07-05-2011 11:00:00 19.38 C 7.37 g/m*3 19.38 C 0 km/h
1548 07-05-2011 12:00:00 21.74 C 6.39 g/m*3 21.74 C 0 km/h
1549 07-05-2011 13:00:00 27.32 C 5.76 g/m*3 27.32 C 0 km/h
1550 07-05-2011 14:00:00 31.2 C 6.47 g/m*3 31.2 C 0 km/h
Sensor: Nr:Datum:Temp:Abs-Feuchte:Windchill:Wind:
Aussen-T/F 1551 07-05-2011 15:00:00 31.54 C 6.59 g/m*3 31.54 C 0 km/h
1552 07-05-2011 16:00:00 31.26 C 6.49 g/m*3 31.26 C 0 km/h
1553 07-05-2011 17:00:00 31.44 C 6.55 g/m*3 31.44 C 0 km/h
1554 07-05-2011 18:00:00 29.66 C 6.01 g/m*3 29.66 C 0 km/h
1555 07-05-2011 19:00:00 25.08 C 6.84 g/m*3 25.08 C 0 km/h
1556 07-05-2011 20:00:00 20.12 C 6.89 g/m*3 20.12 C 0 km/h
1557 07-05-2011 21:00:00 17.6 C 6 g/m*3 17.6 C 0 km/h
1558 07-05-2011 22:00:00 16.22 C 5.8 g/m*3 16.22 C 0 km/h
1559 07-05-2011 23:00:00 15.6 C 5.56 g/m*3 15.6 C 0 km/h
1560 08-05-2011 00:00:00 15.16 C 5.33 g/m*3 15.16 C 0 km/h
1561 08-05-2011 01:00:00 14.12 C 5.15 g/m*3 14.12 C 0 km/h
1562 08-05-2011 02:00:00 12.98 C 5.32 g/m*3 12.98 C 0 km/h
1563 08-05-2011 03:00:00 11.64 C 5.19 g/m*3 11.64 C 0 km/h
1564 08-05-2011 04:00:00 10.5 C 5.3 g/m*3 10.5 C 0 km/h
1565 08-05-2011 05:00:00 9.8 C 5.27 g/m*3 9.8 C 0 km/h
1566 08-05-2011 06:00:00 9.04 C 5.34 g/m*3 9.04 C 0 km/h
1567 08-05-2011 07:00:00 9.68 C 5.82 g/m*3 9.68 C 0 km/h
1568 08-05-2011 08:00:00 11.54 C 6.48 g/m*3 11.54 C 0 km/h
1569 08-05-2011 09:00:00 14 C 6.59 g/m*3 14 C 0 km/h
1570 08-05-2011 10:00:00 17.74 C 6.53 g/m*3 17.74 C 0 km/h
1571 08-05-2011 11:00:00 21 C 5.94 g/m*3 21 C 0 km/h
1572 08-05-2011 12:00:00 23.46 C 4.39 g/m*3 23.46 C 0 km/h
1573 08-05-2011 13:00:00 27.4 C 5.26 g/m*3 27.4 C 0 km/h
1574 08-05-2011 14:00:00 30.88 C 6.36 g/m*3 30.88 C 0 km/h
1575 08-05-2011 15:00:00 29.98 C 6.06 g/m*3 29.98 C 0 km/h
Sensor: Nr:Datum:Temp:Abs-Feuchte:Windchill:Wind:
Aussen-T/F 1576 08-05-2011 16:00:00 32.02 C 6.76 g/m*3 32.02 C 0 km/h
1577 08-05-2011 17:00:00 31.72 C 6.65 g/m*3 31.72 C 0 km/h
1578 08-05-2011 18:00:00 30.56 C 6.25 g/m*3 30.56 C 0 km/h
1579 08-05-2011 19:00:00 23.5 C 5.58 g/m*3 23.5 C 0 km/h
1580 08-05-2011 20:00:00 20.22 C 5.32 g/m*3 20.22 C 0 km/h
1581 08-05-2011 21:00:00 18.72 C 4.55 g/m*3 18.72 C 0 km/h
1582 08-05-2011 22:00:00 17 C 4.4 g/m*3 17 C 0 km/h
1583 08-05-2011 23:00:00 15.06 C 4.76 g/m*3 15.06 C 0 km/h
1584 09-05-2011 00:00:00 14.06 C 5.01 g/m*3 14.06 C 0 km/h
1585 09-05-2011 01:00:00 12.54 C 5.29 g/m*3 12.54 C 0 km/h
1586 09-05-2011 02:00:00 11.58 C 5.52 g/m*3 11.58 C 0 km/h
1587 09-05-2011 03:00:00 10.76 C 5.76 g/m*3 10.76 C 0 km/h
1588 09-05-2011 04:00:00 10.56 C 6.15 g/m*3 10.56 C 0 km/h
1589 09-05-2011 05:00:00 10.44 C 6.47 g/m*3 10.44 C 0 km/h
1590 09-05-2011 06:00:00 10.64 C 6.67 g/m*3 10.64 C 0 km/h
1591 09-05-2011 07:00:00 11.08 C 6.92 g/m*3 11.08 C 0 km/h
1592 09-05-2011 08:00:00 12.32 C 7.02 g/m*3 12.32 C 0 km/h
1593 09-05-2011 09:00:00 15.92 C 5.91 g/m*3 15.92 C 0 km/h
1594 09-05-2011 10:00:00 18.9 C 4.5 g/m*3 18.9 C 0 km/h
1595 09-05-2011 11:00:00 20.26 C 4.04 g/m*3 20.26 C 0 km/h
1596 09-05-2011 12:00:00 22.06 C 3.9 g/m*3 22.06 C 0 km/h
1597 09-05-2011 13:00:00 26.06 C 4.89 g/m*3 26.06 C 0 km/h
1598 09-05-2011 14:00:00 28.5 C 5.59 g/m*3 28.5 C 0 km/h
1599 09-05-2011 15:00:00 30.1 C 6.1 g/m*3 30.1 C 0 km/h
1600 09-05-2011 16:00:00 26.48 C 5.9 g/m*3 26.48 C 0 km/h
Sensor: Nr:Datum:Temp:Abs-Feuchte:Windchill:Wind:
Aussen-T/F 1601 09-05-2011 17:00:00 30.82 C 6.34 g/m*3 30.82 C 0 km/h
1602 09-05-2011 18:00:00 30.6 C 6.26 g/m*3 30.6 C 0 km/h
1603 09-05-2011 19:00:00 26.58 C 5.58 g/m*3 26.58 C 0 km/h
1604 09-05-2011 20:00:00 19.56 C 5.05 g/m*3 19.56 C 0 km/h
1605 09-05-2011 21:00:00 16.44 C 4.65 g/m*3 16.44 C 0 km/h
1606 09-05-2011 22:00:00 13.64 C 4.81 g/m*3 13.64 C 0 km/h
1607 09-05-2011 23:00:00 11.72 C 4.9 g/m*3 11.72 C 0 km/h
1608 10-05-2011 00:00:00 10.3 C 5.15 g/m*3 10.3 C 0 km/h
1609 10-05-2011 01:00:00 9.36 C 5.43 g/m*3 9.36 C 0 km/h
1610 10-05-2011 02:00:00 9.06 C 5.72 g/m*3 9.06 C 0 km/h
1611 10-05-2011 03:00:00 8.64 C 5.89 g/m*3 8.64 C 0 km/h
1612 10-05-2011 04:00:00 7.82 C 5.97 g/m*3 7.82 C 0 km/h
1613 10-05-2011 05:00:00 7.62 C 6.23 g/m*3 7.62 C 0 km/h
1614 10-05-2011 06:00:00 8.62 C 6.47 g/m*3 8.62 C 0 km/h
1615 10-05-2011 07:00:00 10.96 C 6.47 g/m*3 10.96 C 0 km/h
1616 10-05-2011 08:00:00 12.94 C 6.26 g/m*3 12.94 C 0 km/h
1617 10-05-2011 09:00:00 16 C 6.16 g/m*3 16 C 0 km/h
1618 10-05-2011 10:00:00 18.44 C 6.65 g/m*3 18.44 C 0 km/h
1619 10-05-2011 11:00:00 20.92 C 6.86 g/m*3 20.92 C 0 km/h
1620 10-05-2011 12:00:00 22.52 C 6.6 g/m*3 22.52 C 0 km/h
1621 10-05-2011 13:00:00 27.48 C 6.13 g/m*3 27.48 C 0 km/h
1622 10-05-2011 14:00:00 32.22 C 6.83 g/m*3 32.22 C 0 km/h
1623 10-05-2011 15:00:00 32.2 C 6.82 g/m*3 32.2 C 0 km/h
1624 10-05-2011 16:00:00 30.58 C 6.51 g/m*3 30.58 C 0 km/h
1625 10-05-2011 17:00:00 30.72 C 6.43 g/m*3 30.72 C 0 km/h
Sensor: Nr:Datum:Temp:Abs-Feuchte:Windchill:Wind:
Aussen-T/F 1626 10-05-2011 18:00:00 26.82 C 7.29 g/m*3 26.82 C 0 km/h
1627 10-05-2011 19:00:00 21.86 C 7.51 g/m*3 21.86 C 0 km/h
1628 10-05-2011 20:00:00 20.16 C 7.75 g/m*3 20.16 C 0 km/h
1629 10-05-2011 21:00:00 16.34 C 9.79 g/m*3 16.34 C 0 km/h
1630 10-05-2011 22:00:00 14.42 C 10.45 g/m*3 14.42 C 0 km/h
1631 10-05-2011 23:00:00 15 C 10.67 g/m*3 15 C 0 km/h
1632 11-05-2011 00:00:00 14.78 C 10.83 g/m*3 14.78 C 0 km/h
1633 11-05-2011 01:00:00 14.34 C 10.79 g/m*3 14.34 C 0 km/h
1634 11-05-2011 02:00:00 14.4 C 10.68 g/m*3 14.4 C 0 km/h
1635 11-05-2011 03:00:00 13.98 C 10.46 g/m*3 13.98 C 0 km/h
1636 11-05-2011 04:00:00 13.06 C 9.97 g/m*3 13.06 C 0 km/h
1637 11-05-2011 05:00:00 12.18 C 9.61 g/m*3 12.18 C 0 km/h
1638 11-05-2011 06:00:00 12.22 C 9.72 g/m*3 12.22 C 0 km/h
1639 11-05-2011 07:00:00 13.96 C 10.81 g/m*3 13.96 C 0 km/h
1640 11-05-2011 08:00:00 15.72 C 11.76 g/m*3 15.72 C 0 km/h
1641 11-05-2011 09:00:00 17.46 C 10.38 g/m*3 17.46 C 0 km/h
1642 11-05-2011 10:00:00 17.88 C 9.15 g/m*3 17.88 C 0 km/h
1643 11-05-2011 11:00:00 19.82 C 8.58 g/m*3 19.82 C 0 km/h
1644 11-05-2011 12:00:00 21.28 C 7.48 g/m*3 21.28 C 0 km/h
1645 11-05-2011 13:00:00 24.76 C 6.5 g/m*3 24.76 C 0 km/h
1646 11-05-2011 14:00:00 27.06 C 5.99 g/m*3 27.06 C 0 km/h
1647 11-05-2011 15:00:00 26.62 C 6.3 g/m*3 26.62 C 0 km/h
1648 11-05-2011 16:00:00 27.44 C 5.91 g/m*3 27.44 C 0 km/h
1649 11-05-2011 17:00:00 25.18 C 6.42 g/m*3 25.18 C 0 km/h
1650 11-05-2011 18:00:00 24.1 C 6.35 g/m*3 24.1 C 0 km/h
Sensor: Nr:Datum:Temp:Abs-Feuchte:Windchill:Wind:
Aussen-T/F 1651 11-05-2011 19:00:00 21.76 C 8.12 g/m*3 21.76 C 0 km/h
1652 11-05-2011 20:00:00 18.42 C 8.35 g/m*3 18.42 C 0 km/h
1653 11-05-2011 21:00:00 16.42 C 7.88 g/m*3 16.42 C 0 km/h
1654 11-05-2011 22:00:00 15.04 C 8.18 g/m*3 15.04 C 0 km/h
1655 11-05-2011 23:00:00 13.88 C 8.31 g/m*3 13.88 C 0 km/h
1656 12-05-2011 00:00:00 12.38 C 7.86 g/m*3 12.38 C 0 km/h
1657 12-05-2011 01:00:00 11.6 C 7.96 g/m*3 11.6 C 0 km/h
1658 12-05-2011 02:00:00 11.46 C 8.18 g/m*3 11.46 C 0 km/h
1659 12-05-2011 03:00:00 10.88 C 8.01 g/m*3 10.88 C 0 km/h
1660 12-05-2011 04:00:00 10.86 C 8.18 g/m*3 10.86 C 0 km/h
1661 12-05-2011 05:00:00 11.36 C 8.11 g/m*3 11.36 C 0 km/h
1662 12-05-2011 06:00:00 11.66 C 8.22 g/m*3 11.66 C 0 km/h
1663 12-05-2011 07:00:00 12.72 C 8.23 g/m*3 12.72 C 0 km/h
1664 12-05-2011 08:00:00 13.86 C 7.96 g/m*3 13.86 C 0 km/h
1665 12-05-2011 09:00:00 15.3 C 7.6 g/m*3 15.3 C 0 km/h
1666 12-05-2011 10:00:00 16.48 C 7.26 g/m*3 16.48 C 0 km/h
1667 12-05-2011 11:00:00 17.12 C 6.97 g/m*3 17.12 C 0 km/h
1668 12-05-2011 12:00:00 19.56 C 6.43 g/m*3 19.56 C 0 km/h
1669 12-05-2011 13:00:00 21.22 C 6.31 g/m*3 21.22 C 0 km/h
1670 12-05-2011 14:00:00 23.72 C 5.65 g/m*3 23.72 C 0 km/h
1671 12-05-2011 15:00:00 21.94 C 5.96 g/m*3 21.94 C 0 km/h
1672 12-05-2011 16:00:00 22.14 C 5.75 g/m*3 22.14 C 0 km/h
1673 12-05-2011 17:00:00 21.56 C 5.03 g/m*3 21.56 C 0 km/h
1674 12-05-2011 18:00:00 21.92 C 4.37 g/m*3 21.92 C 0 km/h
1675 12-05-2011 19:00:00 18.84 C 4.97 g/m*3 18.84 C 0 km/h
Sensor: Nr:Datum:Temp:Abs-Feuchte:Windchill:Wind:
Aussen-T/F 1676 12-05-2011 20:00:00 15.98 C 5.2 g/m*3 15.98 C 0 km/h
1677 12-05-2011 21:00:00 13.56 C 5.73 g/m*3 13.56 C 0 km/h
1678 12-05-2011 22:00:00 11.84 C 5.82 g/m*3 11.84 C 0 km/h
1679 12-05-2011 23:00:00 10.72 C 5.47 g/m*3 10.72 C 0 km/h
1680 13-05-2011 00:00:00 9.98 C 5.31 g/m*3 9.98 C 0 km/h
1681 13-05-2011 01:00:00 8.48 C 5.53 g/m*3 8.48 C 0 km/h
1682 13-05-2011 02:00:00 6.98 C 5.6 g/m*3 6.98 C 0 km/h
1683 13-05-2011 03:00:00 6.64 C 5.71 g/m*3 6.64 C 0 km/h
1684 13-05-2011 04:00:00 5.86 C 5.71 g/m*3 5.86 C 0 km/h
1685 13-05-2011 05:00:00 5.04 C 5.75 g/m*3 5.04 C 0 km/h
1686 13-05-2011 06:00:00 5 C 5.86 g/m*3 5 C 0 km/h
1687 13-05-2011 07:00:00 5.32 C 6 g/m*3 5.32 C 0 km/h
1688 13-05-2011 08:00:00 6.86 C 6.6 g/m*3 6.86 C 0 km/h
1689 13-05-2011 09:00:00 10.34 C 6.84 g/m*3 10.34 C 0 km/h
1690 13-05-2011 10:00:00 13.18 C 6.44 g/m*3 13.18 C 0 km/h
1691 13-05-2011 11:00:00 15.88 C 5.25 g/m*3 15.88 C 0 km/h
1692 13-05-2011 12:00:00 17.6 C 5.19 g/m*3 17.6 C 0 km/h
1693 13-05-2011 13:00:00 20.16 C 4.88 g/m*3 20.16 C 0 km/h
1694 13-05-2011 14:00:00 24.7 C 4.53 g/m*3 24.7 C 0 km/h
1695 13-05-2011 15:00:00 21 C 5.09 g/m*3 21 C 0 km/h
1696 13-05-2011 16:00:00 24.86 C 4.57 g/m*3 24.86 C 0 km/h
1697 13-05-2011 17:00:00 25.08 C 4.9 g/m*3 25.08 C 0 km/h
1698 13-05-2011 18:00:00 21.96 C 5.85 g/m*3 21.96 C 0 km/h
1699 13-05-2011 19:00:00 21.1 C 5.64 g/m*3 21.1 C 0 km/h
1700 13-05-2011 20:00:00 15.34 C 6 g/m*3 15.34 C 0 km/h
Sensor: Nr:Datum:Temp:Abs-Feuchte:Windchill:Wind:
Aussen-T/F 1701 13-05-2011 21:00:00 12.9 C 5.46 g/m*3 12.9 C 0 km/h
1702 13-05-2011 22:00:00 12.15 C 5.32 g/m*3 12.15 C 0 km/h
1703 13-05-2011 23:00:00 11.7 C 5.5 g/m*3 11.7 C 0 km/h
1704 14-05-2011 00:00:00 10.06 C 5.55 g/m*3 10.06 C 0 km/h
1705 14-05-2011 01:00:00 8.68 C 5.63 g/m*3 8.68 C 0 km/h
1706 14-05-2011 02:00:00 7.86 C 5.96 g/m*3 7.86 C 0 km/h
1707 14-05-2011 03:00:00 7.04 C 5.94 g/m*3 7.04 C 0 km/h
1708 14-05-2011 04:00:00 6.64 C 6.16 g/m*3 6.64 C 0 km/h
1709 14-05-2011 05:00:00 5.98 C 6.02 g/m*3 5.98 C 0 km/h
1710 14-05-2011 06:00:00 5.48 C 6.02 g/m*3 5.48 C 0 km/h
1711 14-05-2011 07:00:00 6.8 C 6.49 g/m*3 6.8 C 0 km/h
1712 14-05-2011 08:00:00 9.58 C 6.26 g/m*3 9.58 C 0 km/h
1713 14-05-2011 09:00:00 12.36 C 6.26 g/m*3 12.36 C 0 km/h
1714 14-05-2011 10:00:00 15.8 C 6.25 g/m*3 15.8 C 0 km/h
1715 14-05-2011 11:00:00 18.56 C 5.11 g/m*3 18.56 C 0 km/h
1716 14-05-2011 12:00:00 20.34 C 4.44 g/m*3 20.34 C 0 km/h
1717 14-05-2011 13:00:00 19.1 C 5.21 g/m*3 19.1 C 0 km/h
1718 14-05-2011 14:00:00 15.46 C 7.04 g/m*3 15.46 C 0 km/h
1719 14-05-2011 15:00:00 15.6 C 6.38 g/m*3 15.6 C 0 km/h
1720 14-05-2011 16:00:00 14.6 C 7.33 g/m*3 14.6 C 0 km/h
1721 14-05-2011 17:00:00 16.82 C 6.04 g/m*3 16.82 C 0 km/h
1722 14-05-2011 18:00:00 19.82 C 4.89 g/m*3 19.82 C 0 km/h
1723 14-05-2011 19:00:00 18.14 C 3.78 g/m*3 18.14 C 0 km/h
1724 14-05-2011 20:00:00 15.08 C 3.45 g/m*3 15.08 C 0 km/h
1725 14-05-2011 21:00:00 12.52 C 3.74 g/m*3 12.52 C 0 km/h
Sensor: Nr:Datum:Temp:Abs-Feuchte:Windchill:Wind:
Aussen-T/F 1726 14-05-2011 22:00:00 10.6 C 4 g/m*3 10.6 C 0 km/h
1727 14-05-2011 23:00:00 9.46 C 4.21 g/m*3 9.46 C 0 km/h
1728 15-05-2011 00:00:00 8.02 C 4.57 g/m*3 8.02 C 0 km/h
1729 15-05-2011 01:00:00 6.82 C 5.07 g/m*3 6.82 C 0 km/h
1730 15-05-2011 02:00:00 6.1 C 5.26 g/m*3 6.1 C 0 km/h
1731 15-05-2011 03:00:00 5.56 C 5.34 g/m*3 5.56 C 0 km/h
1732 15-05-2011 04:00:00 6.46 C 5.34 g/m*3 6.46 C 0 km/h
1733 15-05-2011 05:00:00 4.76 C 5.26 g/m*3 4.76 C 0 km/h
1734 15-05-2011 06:00:00 5.66 C 5.49 g/m*3 5.66 C 0 km/h
1735 15-05-2011 07:00:00 7 C 5.52 g/m*3 7 C 0 km/h
1736 15-05-2011 08:00:00 9.2 C 5.61 g/m*3 9.2 C 0 km/h
1737 15-05-2011 09:00:00 10.88 C 6.02 g/m*3 10.88 C 0 km/h
1738 15-05-2011 10:00:00 9.36 C 7.09 g/m*3 9.36 C 0 km/h
1739 15-05-2011 11:00:00 11.6 C 7.13 g/m*3 11.6 C 0 km/h
1740 15-05-2011 12:00:00 12 C 6.63 g/m*3 12 C 0 km/h
1741 15-05-2011 13:00:00 15.02 C 5.78 g/m*3 15.02 C 0 km/h
1742 15-05-2011 14:00:00 16.3 C 5.33 g/m*3 16.3 C 0 km/h
1743 15-05-2011 15:00:00 14.66 C 5.8 g/m*3 14.66 C 0 km/h
1744 15-05-2011 16:00:00 17.12 C 4.63 g/m*3 17.12 C 0 km/h
1745 15-05-2011 17:00:00 18.34 C 4.67 g/m*3 18.34 C 0 km/h
1746 15-05-2011 18:00:00 14.04 C 6.92 g/m*3 14.04 C 0 km/h
1747 15-05-2011 19:00:00 11.02 C 6.98 g/m*3 11.02 C 0 km/h
1748 15-05-2011 20:00:00 9.96 C 7.33 g/m*3 9.96 C 0 km/h
1749 15-05-2011 21:00:00 9.4 C 7.16 g/m*3 9.4 C 0 km/h
1750 15-05-2011 22:00:00 9.84 C 6.98 g/m*3 9.84 C 0 km/h
Sensor: Nr:Datum:Temp:Abs-Feuchte:Windchill:Wind:
Aussen-T/F 1751 15-05-2011 23:00:00 9.12 C 7.09 g/m*3 9.12 C 0 km/h
1752 16-05-2011 00:00:00 8.22 C 6.74 g/m*3 8.22 C 0 km/h
1753 16-05-2011 01:00:00 7.44 C 6.76 g/m*3 7.44 C 0 km/h
1754 16-05-2011 02:00:00 7.9 C 6.78 g/m*3 7.9 C 0 km/h
1755 16-05-2011 03:00:00 8.4 C 6.65 g/m*3 8.4 C 0 km/h
1756 16-05-2011 04:00:00 8.88 C 6.39 g/m*3 8.88 C 0 km/h
1757 16-05-2011 05:00:00 9.16 C 6.13 g/m*3 9.16 C 0 km/h
1758 16-05-2011 06:00:00 9.5 C 5.95 g/m*3 9.5 C 0 km/h
1759 16-05-2011 07:00:00 9.96 C 5.81 g/m*3 9.96 C 0 km/h
1760 16-05-2011 08:00:00 10.86 C 5.83 g/m*3 10.86 C 0 km/h
1761 16-05-2011 09:00:00 12.38 C 5.78 g/m*3 12.38 C 0 km/h
1762 16-05-2011 10:00:00 14.16 C 5.63 g/m*3 14.16 C 0 km/h
1763 16-05-2011 11:00:00 16.36 C 5.51 g/m*3 16.36 C 0 km/h
1764 16-05-2011 12:00:00 16.48 C 5.5 g/m*3 16.48 C 0 km/h
1765 16-05-2011 13:00:00 15.24 C 6.4 g/m*3 15.24 C 0 km/h
1766 16-05-2011 14:00:00 14.96 C 6.7 g/m*3 14.96 C 0 km/h
1767 16-05-2011 15:00:00 14.6 C 7.23 g/m*3 14.6 C 0 km/h
1768 16-05-2011 16:00:00 15.4 C 6.62 g/m*3 15.4 C 0 km/h
1769 16-05-2011 17:00:00 16 C 6.73 g/m*3 16 C 0 km/h
1770 16-05-2011 18:00:00 15.42 C 6.76 g/m*3 15.42 C 0 km/h
1771 16-05-2011 19:00:00 15.26 C 6.93 g/m*3 15.26 C 0 km/h
1772 16-05-2011 20:00:00 14.6 C 7.28 g/m*3 14.6 C 0 km/h
1773 16-05-2011 21:00:00 13.94 C 7.64 g/m*3 13.94 C 0 km/h
1774 16-05-2011 22:00:00 13.6 C 7.67 g/m*3 13.6 C 0 km/h
1775 16-05-2011 23:00:00 13.36 C 7.7 g/m*3 13.36 C 0 km/h
Sensor: Nr:Datum:Temp:Abs-Feuchte:Windchill:Wind:
Aussen-T/F 1776 17-05-2011 00:00:00 12.94 C 7.8 g/m*3 12.94 C 0 km/h
1777 17-05-2011 01:00:00 12.74 C 7.83 g/m*3 12.74 C 0 km/h
1778 17-05-2011 02:00:00 12.7 C 8.04 g/m*3 12.7 C 0 km/h
1779 17-05-2011 03:00:00 12.9 C 7.91 g/m*3 12.9 C 0 km/h
1780 17-05-2011 04:00:00 12.74 C 8.06 g/m*3 12.74 C 0 km/h
1781 17-05-2011 05:00:00 12.68 C 7.96 g/m*3 12.68 C 0 km/h
1782 17-05-2011 06:00:00 13.1 C 7.76 g/m*3 13.1 C 0 km/h
1783 17-05-2011 07:00:00 13.58 C 7.64 g/m*3 13.58 C 0 km/h
1784 17-05-2011 08:00:00 13.1 C 7.94 g/m*3 13.1 C 0 km/h
1785 17-05-2011 09:00:00 14.14 C 7.84 g/m*3 14.14 C 0 km/h
1786 17-05-2011 10:00:00 15.08 C 7.78 g/m*3 15.08 C 0 km/h
1787 17-05-2011 11:00:00 16.22 C 7.54 g/m*3 16.22 C 0 km/h
1788 17-05-2011 12:00:00 18.18 C 7.08 g/m*3 18.18 C 0 km/h
1789 17-05-2011 13:00:00 20.4 C 6.83 g/m*3 20.4 C 0 km/h
1790 17-05-2011 14:00:00 23.16 C 6.14 g/m*3 23.16 C 0 km/h
1791 17-05-2011 15:00:00 24.08 C 6.12 g/m*3 24.08 C 0 km/h
1792 17-05-2011 16:00:00 26.8 C 5.09 g/m*3 26.8 C 0 km/h
1793 17-05-2011 17:00:00 27.36 C 5.25 g/m*3 27.36 C 0 km/h
1794 17-05-2011 18:00:00 24.84 C 4.75 g/m*3 24.84 C 0 km/h
1795 17-05-2011 19:00:00 22.6 C 4.9 g/m*3 22.6 C 0 km/h
1796 17-05-2011 20:00:00 19.56 C 6.06 g/m*3 19.56 C 0 km/h
1797 17-05-2011 21:00:00 15.08 C 6.52 g/m*3 15.08 C 0 km/h
1798 17-05-2011 22:00:00 13.36 C 6.52 g/m*3 13.36 C 0 km/h
1799 17-05-2011 23:00:00 11.64 C 6.79 g/m*3 11.64 C 0 km/h
1800 18-05-2011 00:00:00 10.24 C 6.81 g/m*3 10.24 C 0 km/h
Sensor: Nr:Datum:Temp:Abs-Feuchte:Windchill:Wind:
Aussen-T/F 1801 18-05-2011 01:00:00 9.48 C 6.89 g/m*3 9.48 C 0 km/h
1802 18-05-2011 02:00:00 8.54 C 6.93 g/m*3 8.54 C 0 km/h
1803 18-05-2011 03:00:00 7.76 C 6.9 g/m*3 7.76 C 0 km/h
1804 18-05-2011 04:00:00 7.06 C 6.75 g/m*3 7.06 C 0 km/h
1805 18-05-2011 05:00:00 6.62 C 6.7 g/m*3 6.62 C 0 km/h
1806 18-05-2011 06:00:00 6.74 C 6.78 g/m*3 6.74 C 0 km/h
1807 18-05-2011 07:00:00 7.92 C 7.24 g/m*3 7.92 C 0 km/h
1808 18-05-2011 08:00:00 9.66 C 7.71 g/m*3 9.66 C 0 km/h
1809 18-05-2011 09:00:00 12.92 C 7.85 g/m*3 12.92 C 0 km/h
1810 18-05-2011 10:00:00 17.16 C 6.57 g/m*3 17.16 C 0 km/h
1811 18-05-2011 11:00:00 19.14 C 6.15 g/m*3 19.14 C 0 km/h
1812 18-05-2011 12:00:00 20.62 C 6.38 g/m*3 20.62 C 0 km/h
1813 18-05-2011 13:00:00 24.28 C 6.28 g/m*3 24.28 C 0 km/h
1814 18-05-2011 14:00:00 27.98 C 5.65 g/m*3 27.98 C 0 km/h
1815 18-05-2011 15:00:00 28.98 C 5.74 g/m*3 28.98 C 0 km/h
1816 18-05-2011 16:00:00 28.88 C 5.71 g/m*3 28.88 C 0 km/h
1817 18-05-2011 17:00:00 27.7 C 5.35 g/m*3 27.7 C 0 km/h
1818 18-05-2011 18:00:00 26.82 C 6.17 g/m*3 26.82 C 0 km/h
1819 18-05-2011 19:00:00 23.66 C 7.17 g/m*3 23.66 C 0 km/h
1820 18-05-2011 20:00:00 19.86 C 7.95 g/m*3 19.86 C 0 km/h
1821 18-05-2011 21:00:00 17.48 C 7.33 g/m*3 17.48 C 0 km/h
1822 18-05-2011 22:00:00 15.5 C 7.75 g/m*3 15.5 C 0 km/h
1823 18-05-2011 23:00:00 13.54 C 7.65 g/m*3 13.54 C 0 km/h
1824 19-05-2011 00:00:00 12.14 C 7.59 g/m*3 12.14 C 0 km/h
1825 19-05-2011 01:00:00 11.7 C 7.8 g/m*3 11.7 C 0 km/h
Sensor: Nr:Datum:Temp:Abs-Feuchte:Windchill:Wind:
Aussen-T/F 1826 19-05-2011 02:00:00 10.76 C 7.79 g/m*3 10.76 C 0 km/h
1827 19-05-2011 03:00:00 10.16 C 7.84 g/m*3 10.16 C 0 km/h
1828 19-05-2011 04:00:00 10.4 C 8.06 g/m*3 10.4 C 0 km/h
1829 19-05-2011 05:00:00 10.42 C 8.01 g/m*3 10.42 C 0 km/h
1830 19-05-2011 06:00:00 11.12 C 8.23 g/m*3 11.12 C 0 km/h
1831 19-05-2011 07:00:00 12.88 C 8.04 g/m*3 12.88 C 0 km/h
1832 19-05-2011 08:00:00 15.1 C 7.92 g/m*3 15.1 C 0 km/h
1833 19-05-2011 09:00:00 17.66 C 8.13 g/m*3 17.66 C 0 km/h
1834 19-05-2011 10:00:00 20.06 C 7.98 g/m*3 20.06 C 0 km/h
1835 19-05-2011 11:00:00 22.12 C 7.82 g/m*3 22.12 C 0 km/h
1836 19-05-2011 12:00:00 23.46 C 7.68 g/m*3 23.46 C 0 km/h
1837 19-05-2011 13:00:00 26.3 C 6.78 g/m*3 26.3 C 0 km/h
1838 19-05-2011 14:00:00 27.16 C 6.39 g/m*3 27.16 C 0 km/h
1839 19-05-2011 15:00:00 25.76 C 6.73 g/m*3 25.76 C 0 km/h
1840 19-05-2011 16:00:00 26.92 C 6.41 g/m*3 26.92 C 0 km/h
1841 19-05-2011 17:00:00 24.7 C 7.51 g/m*3 24.7 C 0 km/h
1842 19-05-2011 18:00:00 19.46 C 9.01 g/m*3 19.46 C 0 km/h
1843 19-05-2011 19:00:00 16.12 C 11.36 g/m*3 16.12 C 0 km/h
1844 19-05-2011 20:00:00 15.4 C 11.14 g/m*3 15.4 C 0 km/h
1845 19-05-2011 21:00:00 14.26 C 10.76 g/m*3 14.26 C 0 km/h
1846 19-05-2011 22:00:00 13.48 C 10.4 g/m*3 13.48 C 0 km/h
1847 19-05-2011 23:00:00 13.06 C 10.2 g/m*3 13.06 C 0 km/h
1848 20-05-2011 00:00:00 12.66 C 10.06 g/m*3 12.66 C 0 km/h
1849 20-05-2011 01:00:00 11.96 C 9.63 g/m*3 11.96 C 0 km/h
1850 20-05-2011 02:00:00 11.78 C 9.57 g/m*3 11.78 C 0 km/h
Sensor: Nr:Datum:Temp:Abs-Feuchte:Windchill:Wind:
Aussen-T/F 1851 20-05-2011 03:00:00 11.02 C 9.16 g/m*3 11.02 C 0 km/h
1852 20-05-2011 04:00:00 10.7 C 9.02 g/m*3 10.7 C 0 km/h
1853 20-05-2011 05:00:00 10.84 C 9.12 g/m*3 10.84 C 0 km/h
1854 20-05-2011 06:00:00 11.12 C 9.28 g/m*3 11.12 C 0 km/h
1855 20-05-2011 07:00:00 11.46 C 9.48 g/m*3 11.46 C 0 km/h
1856 20-05-2011 08:00:00 12.24 C 9.87 g/m*3 12.24 C 0 km/h
1857 20-05-2011 09:00:00 13.72 C 10.22 g/m*3 13.72 C 0 km/h
1858 20-05-2011 10:00:00 14.84 C 9.96 g/m*3 14.84 C 0 km/h
1859 20-05-2011 11:00:00 17.52 C 10.6 g/m*3 17.52 C 0 km/h
1860 20-05-2011 12:00:00 20.46 C 9.37 g/m*3 20.46 C 0 km/h
1861 20-05-2011 13:00:00 25.48 C 8.09 g/m*3 25.48 C 0 km/h
1862 20-05-2011 14:00:00 28.32 C 7.36 g/m*3 28.32 C 0 km/h
1863 20-05-2011 15:00:00 24.12 C 8.37 g/m*3 24.12 C 0 km/h
1864 20-05-2011 16:00:00 25.26 C 7.57 g/m*3 25.26 C 0 km/h
1865 20-05-2011 17:00:00 24.52 C 7.53 g/m*3 24.52 C 0 km/h
1866 20-05-2011 18:00:00 22.98 C 8.54 g/m*3 22.98 C 0 km/h
1867 20-05-2011 19:00:00 18.3 C 10.26 g/m*3 18.3 C 0 km/h
1868 20-05-2011 20:00:00 15.36 C 11.14 g/m*3 15.36 C 0 km/h
1869 20-05-2011 21:00:00 14.46 C 10.89 g/m*3 14.46 C 0 km/h
1870 20-05-2011 22:00:00 13.94 C 10.67 g/m*3 13.94 C 0 km/h
1871 20-05-2011 23:00:00 13.66 C 10.63 g/m*3 13.66 C 0 km/h
1872 21-05-2011 00:00:00 13.5 C 10.57 g/m*3 13.5 C 0 km/h
1873 21-05-2011 01:00:00 13.24 C 10.47 g/m*3 13.24 C 0 km/h
1874 21-05-2011 02:00:00 12.56 C 10.04 g/m*3 12.56 C 0 km/h
1875 21-05-2011 03:00:00 11.82 C 9.63 g/m*3 11.82 C 0 km/h
Sensor: Nr:Datum:Temp:Abs-Feuchte:Windchill:Wind:
Aussen-T/F 1876 21-05-2011 04:00:00 11.6 C 9.56 g/m*3 11.6 C 0 km/h
1877 21-05-2011 05:00:00 11.46 C 9.48 g/m*3 11.46 C 0 km/h
1878 21-05-2011 06:00:00 11.6 C 9.56 g/m*3 11.6 C 0 km/h
1879 21-05-2011 07:00:00 12.36 C 9.81 g/m*3 12.36 C 0 km/h
1880 21-05-2011 08:00:00 12.92 C 9.01 g/m*3 12.92 C 0 km/h
1881 21-05-2011 09:00:00 14.34 C 9.16 g/m*3 14.34 C 0 km/h
1882 21-05-2011 10:00:00 16.12 C 8.45 g/m*3 16.12 C 0 km/h
1883 21-05-2011 11:00:00 17.86 C 8.29 g/m*3 17.86 C 0 km/h
1884 21-05-2011 12:00:00 19.46 C 8.57 g/m*3 19.46 C 0 km/h
1885 21-05-2011 13:00:00 25.1 C 8.38 g/m*3 25.1 C 0 km/h
1886 21-05-2011 14:00:00 29.48 C 7.02 g/m*3 29.48 C 0 km/h
1887 21-05-2011 15:00:00 30.12 C 6.47 g/m*3 30.12 C 0 km/h
1888 21-05-2011 16:00:00 30.1 C 6.22 g/m*3 30.1 C 0 km/h
1889 21-05-2011 17:00:00 31.36 C 6.59 g/m*3 31.36 C 0 km/h
1890 21-05-2011 18:00:00 30.7 C 6.42 g/m*3 30.7 C 0 km/h
1891 21-05-2011 19:00:00 26.31 C 9.04 g/m*3 26.31 C 0 km/h
1892 21-05-2011 20:00:00 20.52727 C 9.43 g/m*3 20.53 C 0 km/h
1893 21-05-2011 21:00:00 17.56 C 9.34 g/m*3 17.56 C 0 km/h
1894 21-05-2011 22:00:00 15.525 C 9.27 g/m*3 15.53 C 0 km/h
1895 21-05-2011 23:00:00 14.72 C 9.5 g/m*3 14.72 C 0 km/h
1896 22-05-2011 00:00:00 13.32 C 8.86 g/m*3 13.32 C 0 km/h
1897 22-05-2011 01:00:00 12.2 C 8.57 g/m*3 12.2 C 0 km/h
1898 22-05-2011 02:00:00 11.24 C 8.41 g/m*3 11.24 C 0 km/h
1899 22-05-2011 03:00:00 10.42 C 8.2 g/m*3 10.42 C 0 km/h
1900 22-05-2011 04:00:00 9.8 C 8.05 g/m*3 9.8 C 0 km/h
Sensor: Nr:Datum:Temp:Abs-Feuchte:Windchill:Wind:
Aussen-T/F 1901 22-05-2011 05:00:00 9.32 C 7.92 g/m*3 9.32 C 0 km/h
1902 22-05-2011 06:00:00 9.42 C 8.06 g/m*3 9.42 C 0 km/h
1903 22-05-2011 07:00:00 10 C 8.34 g/m*3 10 C 0 km/h
1904 22-05-2011 08:00:00 12.8 C 9.01 g/m*3 12.8 C 0 km/h
1905 22-05-2011 09:00:00 15 C 9.03 g/m*3 15 C 0 km/h
1906 22-05-2011 10:00:00 20.2 C 8.74 g/m*3 20.2 C 0 km/h
1907 22-05-2011 11:00:00 20.42 C 8.08 g/m*3 20.42 C 0 km/h
1908 22-05-2011 12:00:00 22.54 C 8.05 g/m*3 22.54 C 0 km/h
1909 22-05-2011 13:00:00 24.94286 C 7.51 g/m*3 24.94 C 0 km/h
1910 22-05-2011 14:00:00 27.26667 C 7.18 g/m*3 27.27 C 0 km/h
1911 22-05-2011 15:00:00 27.24 C 7.09 g/m*3 27.24 C 0 km/h
1912 22-05-2011 16:00:00 21.14 C 10.23 g/m*3 21.14 C 0 km/h
1913 22-05-2011 17:00:00 19.64 C 12.15 g/m*3 19.64 C 0 km/h
1914 22-05-2011 18:00:00 20.42 C 12.19 g/m*3 20.42 C 0 km/h
1915 22-05-2011 19:00:00 22.48 C 10.06 g/m*3 22.48 C 0 km/h
1916 22-05-2011 20:00:00 18.28 C 8.75 g/m*3 18.28 C 0 km/h
1917 22-05-2011 21:00:00 15.32 C 7.45 g/m*3 15.32 C 0 km/h
1918 22-05-2011 22:00:00 12.94 C 6.12 g/m*3 12.94 C 0 km/h
1919 22-05-2011 23:00:00 11.4 C 6.06 g/m*3 11.4 C 0 km/h
1920 23-05-2011 00:00:00 11.02 C 5.83 g/m*3 11.02 C 0 km/h
1921 23-05-2011 01:00:00 9.96 C 6.15 g/m*3 9.96 C 0 km/h
1922 23-05-2011 02:00:00 8.9 C 6.13 g/m*3 8.9 C 0 km/h
1923 23-05-2011 03:00:00 6.94 C 6.1 g/m*3 6.94 C 0 km/h
1924 23-05-2011 04:00:00 7.1 C 6.15 g/m*3 7.1 C 0 km/h
1925 23-05-2011 05:00:00 6.02 C 6.05 g/m*3 6.02 C 0 km/h
Sensor: Nr:Datum:Temp:Abs-Feuchte:Windchill:Wind:
Aussen-T/F 1926 23-05-2011 06:00:00 6.44 C 6.35 g/m*3 6.44 C 0 km/h
1927 23-05-2011 07:00:00 7.52 C 6.59 g/m*3 7.52 C 0 km/h
1928 23-05-2011 08:00:00 9.36 C 6.95 g/m*3 9.36 C 0 km/h
1929 23-05-2011 09:00:00 13.18 C 5.8 g/m*3 13.18 C 0 km/h
1930 23-05-2011 10:00:00 15.14 C 5.28 g/m*3 15.14 C 0 km/h
1931 23-05-2011 11:00:00 16.96 C 4.45 g/m*3 16.96 C 0 km/h
1932 23-05-2011 12:00:00 18.34 C 3.51 g/m*3 18.34 C 0 km/h
1933 23-05-2011 13:00:00 22.08 C 3.9 g/m*3 22.08 C 0 km/h
1934 23-05-2011 14:00:00 26.2 C 4.92 g/m*3 26.2 C 0 km/h
1935 23-05-2011 15:00:00 26.84 C 5.1 g/m*3 26.84 C 0 km/h
1936 23-05-2011 16:00:00 27.8 C 5.38 g/m*3 27.8 C 0 km/h
1937 23-05-2011 17:00:00 29.16 C 5.79 g/m*3 29.16 C 0 km/h
1938 23-05-2011 18:00:00 28.22 C 5.5 g/m*3 28.22 C 0 km/h
1939 23-05-2011 19:00:00 25.86 C 5.8 g/m*3 25.86 C 0 km/h
1940 23-05-2011 20:00:00 19.1 C 7.54 g/m*3 19.1 C 0 km/h
1941 23-05-2011 21:00:00 16.28 C 7.15 g/m*3 16.28 C 0 km/h
1942 23-05-2011 22:00:00 13.78 C 7.09 g/m*3 13.78 C 0 km/h
1943 23-05-2011 23:00:00 11.84 C 7.13 g/m*3 11.84 C 0 km/h
1944 24-05-2011 00:00:00 10.84 C 7.27 g/m*3 10.84 C 0 km/h
1945 24-05-2011 01:00:00 10.24 C 7.16 g/m*3 10.24 C 0 km/h
1946 24-05-2011 02:00:00 9.52 C 7.18 g/m*3 9.52 C 0 km/h
1947 24-05-2011 03:00:00 9.1 C 7.29 g/m*3 9.1 C 0 km/h
1948 24-05-2011 04:00:00 8.64 C 7.2 g/m*3 8.64 C 0 km/h
1949 24-05-2011 05:00:00 9.62 C 7.59 g/m*3 9.62 C 0 km/h
1950 24-05-2011 06:00:00 10.74 C 7.74 g/m*3 10.74 C 0 km/h
Sensor: Nr:Datum:Temp:Abs-Feuchte:Windchill:Wind:
Aussen-T/F 1951 24-05-2011 07:00:00 13.04 C 7.34 g/m*3 13.04 C 0 km/h
1952 24-05-2011 08:00:00 13.84 C 7.76 g/m*3 13.84 C 0 km/h
1953 24-05-2011 09:00:00 16.02 C 7.31 g/m*3 16.02 C 0 km/h
1954 24-05-2011 10:00:00 18.12 C 6.99 g/m*3 18.12 C 0 km/h
1955 24-05-2011 11:00:00 18.86 C 6.92 g/m*3 18.86 C 0 km/h
1956 24-05-2011 12:00:00 18.74 C 6.16 g/m*3 18.74 C 0 km/h
1957 24-05-2011 13:00:00 21.8 C 5.07 g/m*3 21.8 C 0 km/h
1958 24-05-2011 14:00:00 24.76 C 4.54 g/m*3 24.76 C 0 km/h
1959 24-05-2011 15:00:00 24.38 C 4.45 g/m*3 24.38 C 0 km/h
1960 24-05-2011 16:00:00 24.42 C 4.46 g/m*3 24.42 C 0 km/h
1961 24-05-2011 17:00:00 22.5 C 3.99 g/m*3 22.5 C 0 km/h
1962 24-05-2011 18:00:00 22.5 C 3.99 g/m*3 22.5 C 0 km/h
1963 24-05-2011 19:00:00 20.32 C 3.56 g/m*3 20.32 C 0 km/h
1964 24-05-2011 20:00:00 16.96 C 3.29 g/m*3 16.96 C 0 km/h
1965 24-05-2011 21:00:00 13.98 C 3.98 g/m*3 13.98 C 0 km/h
1966 24-05-2011 22:00:00 11.62 C 4.47 g/m*3 11.62 C 0 km/h
1967 24-05-2011 23:00:00 11.18 C 4.56 g/m*3 11.18 C 0 km/h
1968 25-05-2011 00:00:00 9.78 C 4.69 g/m*3 9.78 C 0 km/h
1969 25-05-2011 01:00:00 8.72 C 4.75 g/m*3 8.72 C 0 km/h
1970 25-05-2011 02:00:00 7.34 C 4.78 g/m*3 7.34 C 0 km/h
1971 25-05-2011 03:00:00 5.64 C 4.85 g/m*3 5.64 C 0 km/h
1972 25-05-2011 04:00:00 4.58 C 4.96 g/m*3 4.58 C 0 km/h
1973 25-05-2011 05:00:00 3.74 C 5 g/m*3 3.74 C 0 km/h
1974 25-05-2011 06:00:00 3.84 C 5.27 g/m*3 3.84 C 0 km/h
1975 25-05-2011 07:00:00 4.46 C 5.53 g/m*3 4.46 C 0 km/h
Sensor: Nr:Datum:Temp:Abs-Feuchte:Windchill:Wind:
Aussen-T/F 1976 25-05-2011 08:00:00 6.22 C 6.13 g/m*3 6.22 C 0 km/h
1977 25-05-2011 09:00:00 9.26 C 6.51 g/m*3 9.26 C 0 km/h
1978 25-05-2011 10:00:00 13.84 C 5.11 g/m*3 13.84 C 0 km/h
1979 25-05-2011 11:00:00 16.58 C 3.22 g/m*3 16.58 C 0 km/h
1980 25-05-2011 12:00:00 17.66 C 3.04 g/m*3 17.66 C 0 km/h
1981 25-05-2011 13:00:00 23.72 C 4.28 g/m*3 23.72 C 0 km/h
1982 25-05-2011 14:00:00 29.26 C 5.83 g/m*3 29.26 C 0 km/h
1983 25-05-2011 15:00:00 30.62 C 6.27 g/m*3 30.62 C 0 km/h
1984 25-05-2011 16:00:00 30.7 C 6.3 g/m*3 30.7 C 0 km/h
1985 25-05-2011 17:00:00 29.68 C 5.96 g/m*3 29.68 C 0 km/h
1986 25-05-2011 18:00:00 29.4 C 5.87 g/m*3 29.4 C 0 km/h
1987 25-05-2011 19:00:00 26.38 C 4.97 g/m*3 26.38 C 0 km/h
1988 25-05-2011 20:00:00 18.3 C 4.13 g/m*3 18.3 C 0 km/h
1989 25-05-2011 21:00:00 15.02 C 3.54 g/m*3 15.02 C 0 km/h
1990 25-05-2011 22:00:00 12.18 C 3.9 g/m*3 12.18 C 0 km/h
1991 25-05-2011 23:00:00 10.12 C 4.09 g/m*3 10.12 C 0 km/h
1992 26-05-2011 00:00:00 8.88 C 4.48 g/m*3 8.88 C 0 km/h
1993 26-05-2011 01:00:00 7.82 C 4.69 g/m*3 7.82 C 0 km/h
1994 26-05-2011 02:00:00 7.22 C 4.89 g/m*3 7.22 C 0 km/h
1995 26-05-2011 03:00:00 6.8 C 5.12 g/m*3 6.8 C 0 km/h
1996 26-05-2011 04:00:00 6.14 C 5.2 g/m*3 6.14 C 0 km/h
1997 26-05-2011 05:00:00 5.8 C 5.27 g/m*3 5.8 C 0 km/h
1998 26-05-2011 06:00:00 6.1 C 5.42 g/m*3 6.1 C 0 km/h
1999 26-05-2011 07:00:00 7.32 C 5.93 g/m*3 7.32 C 0 km/h
2000 26-05-2011 08:00:00 11.56 C 6.57 g/m*3 11.56 C 0 km/h
Sensor: Nr:Datum:Temp:Abs-Feuchte:Windchill:Wind:
Aussen-T/F 2001 26-05-2011 09:00:00 15.58 C 6.93 g/m*3 15.58 C 0 km/h
2002 26-05-2011 10:00:00 19.36 C 6.92 g/m*3 19.36 C 0 km/h
2003 26-05-2011 11:00:00 21.08 C 7.95 g/m*3 21.08 C 0 km/h
2004 26-05-2011 12:00:00 24 C 5.7 g/m*3 24 C 0 km/h
2005 26-05-2011 13:00:00 25.16 C 5.34 g/m*3 25.16 C 0 km/h
2006 26-05-2011 14:00:00 26.52 C 5.36 g/m*3 26.52 C 0 km/h
2007 26-05-2011 15:00:00 24.44 C 5.35 g/m*3 24.44 C 0 km/h
2008 26-05-2011 16:00:00 24.84 C 4.56 g/m*3 24.84 C 0 km/h
2009 26-05-2011 17:00:00 24.84 C 4.56 g/m*3 24.84 C 0 km/h
2010 26-05-2011 18:00:00 22.24 C 4.21 g/m*3 22.24 C 0 km/h
2011 26-05-2011 19:00:00 20.84 C 4.28 g/m*3 20.84 C 0 km/h
2012 26-05-2011 20:00:00 19.22 C 4.46 g/m*3 19.22 C 0 km/h
2013 26-05-2011 21:00:00 17.46 C 4.28 g/m*3 17.46 C 0 km/h
2014 26-05-2011 22:00:00 16.08 C 4.3 g/m*3 16.08 C 0 km/h
2015 26-05-2011 23:00:00 15.86 C 4.54 g/m*3 15.86 C 0 km/h
2016 27-05-2011 00:00:00 15.66 C 4.62 g/m*3 15.66 C 0 km/h
2017 27-05-2011 01:00:00 15.32 C 4.76 g/m*3 15.32 C 0 km/h
2018 27-05-2011 02:00:00 13.66 C 5.1 g/m*3 13.66 C 0 km/h
2019 27-05-2011 03:00:00 12.96 C 5.41 g/m*3 12.96 C 0 km/h
2020 27-05-2011 04:00:00 12.34 C 5.55 g/m*3 12.34 C 0 km/h
2021 27-05-2011 05:00:00 11.9 C 5.7 g/m*3 11.9 C 0 km/h
2022 27-05-2011 06:00:00 12.76 C 5.83 g/m*3 12.76 C 0 km/h
2023 27-05-2011 07:00:00 13.36 C 5.87 g/m*3 13.36 C 0 km/h
2024 27-05-2011 08:00:00 14.44 C 5.95 g/m*3 14.44 C 0 km/h
2025 27-05-2011 09:00:00 14.54 C 5.81 g/m*3 14.54 C 0 km/h
Sensor: Nr:Datum:Temp:Abs-Feuchte:Windchill:Wind:
Aussen-T/F 2026 27-05-2011 10:00:00 13.82 C 5.61 g/m*3 13.82 C 0 km/h
2027 27-05-2011 11:00:00 15 C 5.64 g/m*3 15 C 0 km/h
2028 27-05-2011 12:00:00 15.32 C 5.73 g/m*3 15.32 C 0 km/h
2029 27-05-2011 13:00:00 16.34 C 5.06 g/m*3 16.34 C 0 km/h
2030 27-05-2011 14:00:00 18.5 C 4.78 g/m*3 18.5 C 0 km/h
2031 27-05-2011 15:00:00 16.98 C 5.38 g/m*3 16.98 C 0 km/h
2032 27-05-2011 16:00:00 16.16 C 5.28 g/m*3 16.16 C 0 km/h
2033 27-05-2011 17:00:00 15.98 C 5.5 g/m*3 15.98 C 0 km/h
2034 27-05-2011 18:00:00 16.96 C 5.49 g/m*3 16.96 C 0 km/h
2035 27-05-2011 19:00:00 17.74 C 5.17 g/m*3 17.74 C 0 km/h
2036 27-05-2011 20:00:00 14.7 C 5.72 g/m*3 14.7 C 0 km/h
2037 27-05-2011 21:00:00 12.08 C 6.32 g/m*3 12.08 C 0 km/h
2038 27-05-2011 22:00:00 12.42 C 6.19 g/m*3 12.42 C 0 km/h
2039 27-05-2011 23:00:00 11.7 C 6.23 g/m*3 11.7 C 0 km/h
2040 28-05-2011 00:00:00 9.24 C 6.2 g/m*3 9.24 C 0 km/h
2041 28-05-2011 01:00:00 7.94 C 6.31 g/m*3 7.94 C 0 km/h
2042 28-05-2011 02:00:00 6.9 C 6.33 g/m*3 6.9 C 0 km/h
2043 28-05-2011 03:00:00 6.18 C 6.29 g/m*3 6.18 C 0 km/h
2044 28-05-2011 04:00:00 7.72 C 6.79 g/m*3 7.72 C 0 km/h
2045 28-05-2011 05:00:00 7.98 C 6.46 g/m*3 7.98 C 0 km/h
2046 28-05-2011 06:00:00 8.52 C 6.57 g/m*3 8.52 C 0 km/h
2047 28-05-2011 07:00:00 9.48 C 6.42 g/m*3 9.48 C 0 km/h
2048 28-05-2011 08:00:00 9.94 C 6.93 g/m*3 9.94 C 0 km/h
2049 28-05-2011 09:00:00 13.7 C 6.37 g/m*3 13.7 C 0 km/h
2050 28-05-2011 10:00:00 15.7 C 5.41 g/m*3 15.7 C 0 km/h
Sensor: Nr:Datum:Temp:Abs-Feuchte:Windchill:Wind:
Aussen-T/F 2051 28-05-2011 11:00:00 17.56 C 5.3 g/m*3 17.56 C 0 km/h
2052 28-05-2011 12:00:00 19.08 C 5.21 g/m*3 19.08 C 0 km/h
2053 28-05-2011 13:00:00 21.72 C 4.7 g/m*3 21.72 C 0 km/h
2054 28-05-2011 14:00:00 24.42 C 4.5 g/m*3 24.42 C 0 km/h
2055 28-05-2011 15:00:00 23.18 C 4.19 g/m*3 23.18 C 0 km/h
2056 28-05-2011 16:00:00 24.72 C 4.53 g/m*3 24.72 C 0 km/h
2057 28-05-2011 17:00:00 24.48 C 4.47 g/m*3 24.48 C 0 km/h
2058 28-05-2011 18:00:00 22.7 C 4.24 g/m*3 22.7 C 0 km/h
2059 28-05-2011 19:00:00 21.04 C 4.48 g/m*3 21.04 C 0 km/h
2060 28-05-2011 20:00:00 18.78 C 4.73 g/m*3 18.78 C 0 km/h
2061 28-05-2011 21:00:00 17.06 C 5.05 g/m*3 17.06 C 0 km/h
2062 28-05-2011 22:00:00 14.72 C 5.7 g/m*3 14.72 C 0 km/h
2063 28-05-2011 23:00:00 14.14 C 5.89 g/m*3 14.14 C 0 km/h
2064 29-05-2011 00:00:00 13.16 C 6.09 g/m*3 13.16 C 0 km/h
2065 29-05-2011 01:00:00 12.88 C 6.21 g/m*3 12.88 C 0 km/h
2066 29-05-2011 02:00:00 13.16 C 6.3 g/m*3 13.16 C 0 km/h
2067 29-05-2011 03:00:00 12.92 C 6.25 g/m*3 12.92 C 0 km/h
2068 29-05-2011 04:00:00 13.24 C 6.03 g/m*3 13.24 C 0 km/h
2069 29-05-2011 05:00:00 12 C 6.33 g/m*3 12 C 0 km/h
2070 29-05-2011 06:00:00 12.08 C 6.62 g/m*3 12.08 C 0 km/h
2071 29-05-2011 07:00:00 12.8 C 7.01 g/m*3 12.8 C 0 km/h
2072 29-05-2011 08:00:00 14.78 C 6.25 g/m*3 14.78 C 0 km/h
2073 29-05-2011 09:00:00 16.02 C 6.27 g/m*3 16.02 C 0 km/h
2074 29-05-2011 10:00:00 17.44 C 6.33 g/m*3 17.44 C 0 km/h
2075 29-05-2011 11:00:00 20.06 C 6.35 g/m*3 20.06 C 0 km/h
Sensor: Nr:Datum:Temp:Abs-Feuchte:Windchill:Wind:
Aussen-T/F 2076 29-05-2011 12:00:00 20.96 C 6.21 g/m*3 20.96 C 0 km/h
2077 29-05-2011 13:00:00 25.16 C 5.34 g/m*3 25.16 C 0 km/h
2078 29-05-2011 14:00:00 28.24 C 5.51 g/m*3 28.24 C 0 km/h
2079 29-05-2011 15:00:00 28.98 C 5.74 g/m*3 28.98 C 0 km/h
2080 29-05-2011 16:00:00 29.66 C 5.95 g/m*3 29.66 C 0 km/h
2081 29-05-2011 17:00:00 29.6 C 5.94 g/m*3 29.6 C 0 km/h
2082 29-05-2011 18:00:00 29 C 5.74 g/m*3 29 C 0 km/h
2083 29-05-2011 19:00:00 26.6 C 5.54 g/m*3 26.6 C 0 km/h
2084 29-05-2011 20:00:00 22.12 C 6.96 g/m*3 22.12 C 0 km/h
2085 29-05-2011 21:00:00 18.42 C 7.21 g/m*3 18.42 C 0 km/h
2086 29-05-2011 22:00:00 16.425 C 7.13 g/m*3 16.43 C 0 km/h
2087 29-05-2011 23:00:00 14.98 C 7.07 g/m*3 14.98 C 0 km/h
2088 30-05-2011 00:00:00 13.9 C 7.14 g/m*3 13.9 C 0 km/h
2089 30-05-2011 01:00:00 13.2 C 7.37 g/m*3 13.2 C 0 km/h
2090 30-05-2011 02:00:00 11.98 C 7.32 g/m*3 11.98 C 0 km/h
2091 30-05-2011 03:00:00 10.94 C 7.48 g/m*3 10.94 C 0 km/h
2092 30-05-2011 04:00:00 10.32 C 7.46 g/m*3 10.32 C 0 km/h
2093 30-05-2011 05:00:00 9.56 C 7.35 g/m*3 9.56 C 0 km/h
2094 30-05-2011 06:00:00 9.6 C 7.64 g/m*3 9.6 C 0 km/h
2095 30-05-2011 07:00:00 10.34 C 7.97 g/m*3 10.34 C 0 km/h
2096 30-05-2011 08:00:00 12.18 C 8.69 g/m*3 12.18 C 0 km/h
2097 30-05-2011 09:00:00 15.3 C 9.04 g/m*3 15.3 C 0 km/h
2098 30-05-2011 10:00:00 19.42 C 9.15 g/m*3 19.42 C 0 km/h
2099 30-05-2011 11:00:00 23.78 C 7.18 g/m*3 23.78 C 0 km/h
2100 30-05-2011 12:00:00 26.06 C 5.81 g/m*3 26.06 C 0 km/h
Sensor: Nr:Datum:Temp:Abs-Feuchte:Windchill:Wind:
Aussen-T/F 2101 30-05-2011 13:00:00 29.98 C 6.06 g/m*3 29.98 C 0 km/h
2102 30-05-2011 14:00:00 32.34 C 6.87 g/m*3 32.34 C 0 km/h
2103 30-05-2011 15:00:00 33.3 C 7.23 g/m*3 33.3 C 0 km/h
2104 30-05-2011 16:00:00 33.28 C 7.23 g/m*3 33.28 C 0 km/h
2105 30-05-2011 17:00:00 31.82 C 6.69 g/m*3 31.82 C 0 km/h
2106 30-05-2011 18:00:00 32.74 C 7.02 g/m*3 32.74 C 0 km/h
2107 30-05-2011 19:00:00 31.42 C 6.55 g/m*3 31.42 C 0 km/h
2108 30-05-2011 20:00:00 26.92 C 6.92 g/m*3 26.92 C 0 km/h
2109 30-05-2011 21:00:00 22.58 C 7.1 g/m*3 22.58 C 0 km/h
2110 30-05-2011 22:00:00 20.92 C 7.18 g/m*3 20.92 C 0 km/h
2111 30-05-2011 23:00:00 20.04 C 7.14 g/m*3 20.04 C 0 km/h
2112 31-05-2011 00:00:00 18.56 C 7.34 g/m*3 18.56 C 0 km/h
2113 31-05-2011 01:00:00 16.6 C 7.57 g/m*3 16.6 C 0 km/h
2114 31-05-2011 02:00:00 17.04 C 7.83 g/m*3 17.04 C 0 km/h
2115 31-05-2011 03:00:00 17 C 7.96 g/m*3 17 C 0 km/h
2116 31-05-2011 04:00:00 15.54 C 8.11 g/m*3 15.54 C 0 km/h
2117 31-05-2011 05:00:00 15.5 C 8.27 g/m*3 15.5 C 0 km/h
2118 31-05-2011 06:00:00 15.72 C 8.49 g/m*3 15.72 C 0 km/h
2119 31-05-2011 07:00:00 17.62 C 8.59 g/m*3 17.62 C 0 km/h
2120 31-05-2011 08:00:00 18.76 C 8.55 g/m*3 18.76 C 0 km/h
2121 31-05-2011 09:00:00 17.12 C 9.27 g/m*3 17.12 C 0 km/h
2122 31-05-2011 10:00:00 17.18 C 10.24 g/m*3 17.18 C 0 km/h
2123 31-05-2011 11:00:00 15.2 C 10.18 g/m*3 15.2 C 0 km/h
2124 31-05-2011 12:00:00 14.36 C 10.33 g/m*3 14.36 C 0 km/h
2125 31-05-2011 13:00:00 14.78 C 10.6 g/m*3 14.78 C 0 km/h
Sensor: Nr:Datum:Temp:Abs-Feuchte:Windchill:Wind:
Aussen-T/F 2126 31-05-2011 14:00:00 14.98 C 10.48 g/m*3 14.98 C 0 km/h
2127 31-05-2011 15:00:00 14.84 C 10.18 g/m*3 14.84 C 0 km/h
2128 31-05-2011 16:00:00 13.98 C 9.54 g/m*3 13.98 C 0 km/h
2129 31-05-2011 17:00:00 13 C 9.12 g/m*3 13 C 0 km/h
2130 31-05-2011 18:00:00 12.4 C 8.7 g/m*3 12.4 C 0 km/h
2131 31-05-2011 19:00:00 12 C 8.5 g/m*3 12 C 0 km/h
2132 31-05-2011 20:00:00 11.68 C 8.88 g/m*3 11.68 C 0 km/h
2133 31-05-2011 21:00:00 11.04 C 8.43 g/m*3 11.04 C 0 km/h
2134 31-05-2011 22:00:00 10.74 C 8.59 g/m*3 10.74 C 0 km/h
2135 31-05-2011 23:00:00 10.66 C 8.62 g/m*3 10.66 C 0 km/h
2136 01-06-2011 00:00:00 10.64 C 8.55 g/m*3 10.64 C 0 km/h
2137 01-06-2011 01:00:00 10.44 C 8.5 g/m*3 10.44 C 0 km/h
2138 01-06-2011 02:00:00 10.28 C 8.42 g/m*3 10.28 C 0 km/h
2139 01-06-2011 03:00:00 10.22 C 8.12 g/m*3 10.22 C 0 km/h
2140 01-06-2011 04:00:00 9.94 C 7.62 g/m*3 9.94 C 0 km/h
2141 01-06-2011 05:00:00 9.52 C 7.64 g/m*3 9.52 C 0 km/h
2142 01-06-2011 06:00:00 9.86 C 7.67 g/m*3 9.86 C 0 km/h
2143 01-06-2011 07:00:00 10.44 C 7.21 g/m*3 10.44 C 0 km/h
2144 01-06-2011 08:00:00 10.92 C 7.01 g/m*3 10.92 C 0 km/h
2145 01-06-2011 09:00:00 12.02 C 6.77 g/m*3 12.02 C 0 km/h
2146 01-06-2011 10:00:00 12.8 C 6.32 g/m*3 12.8 C 0 km/h
2147 01-06-2011 11:00:00 13.76 C 6.18 g/m*3 13.76 C 0 km/h
2148 01-06-2011 12:00:00 16.94 C 5.54 g/m*3 16.94 C 0 km/h
2149 01-06-2011 13:00:00 18.22 C 5.48 g/m*3 18.22 C 0 km/h
2150 01-06-2011 14:00:00 19.68 C 5.19 g/m*3 19.68 C 0 km/h
Sensor: Nr:Datum:Temp:Abs-Feuchte:Windchill:Wind:
Aussen-T/F 2151 01-06-2011 15:00:00 21.16 C 4.92 g/m*3 21.16 C 0 km/h
2152 01-06-2011 16:00:00 21.5 C 4.37 g/m*3 21.5 C 0 km/h
2153 01-06-2011 17:00:00 20.4 C 4.88 g/m*3 20.4 C 0 km/h
2154 01-06-2011 18:00:00 19.9 C 5.22 g/m*3 19.9 C 0 km/h
2155 01-06-2011 19:00:00 20.62 C 5.16 g/m*3 20.62 C 0 km/h
2156 01-06-2011 20:00:00 18.2 C 5.66 g/m*3 18.2 C 0 km/h
2157 01-06-2011 21:00:00 17.12 C 5.86 g/m*3 17.12 C 0 km/h
2158 01-06-2011 22:00:00 16.28 C 6.43 g/m*3 16.28 C 0 km/h
2159 01-06-2011 23:00:00 15.8 C 6.08 g/m*3 15.8 C 0 km/h
2160 02-06-2011 00:00:00 15 C 6.67 g/m*3 15 C 0 km/h
2161 02-06-2011 01:00:00 13.86 C 7.34 g/m*3 13.86 C 0 km/h
2162 02-06-2011 02:00:00 13.46 C 7.23 g/m*3 13.46 C 0 km/h
2163 02-06-2011 03:00:00 12.02 C 6.59 g/m*3 12.02 C 0 km/h
2164 02-06-2011 04:00:00 10.44 C 6.3 g/m*3 10.44 C 0 km/h
2165 02-06-2011 05:00:00 9.1 C 6.21 g/m*3 9.1 C 0 km/h
2166 02-06-2011 06:00:00 8.82 C 6.36 g/m*3 8.82 C 0 km/h
2167 02-06-2011 07:00:00 9.58 C 6.57 g/m*3 9.58 C 0 km/h
2168 02-06-2011 08:00:00 10.86 C 6.83 g/m*3 10.86 C 0 km/h
2169 02-06-2011 09:00:00 13.16 C 6.53 g/m*3 13.16 C 0 km/h
2170 02-06-2011 10:00:00 13.5 C 6.32 g/m*3 13.5 C 0 km/h
2171 02-06-2011 11:00:00 18.08 C 4.78 g/m*3 18.08 C 0 km/h
2172 02-06-2011 12:00:00 19.86 C 3.98 g/m*3 19.86 C 0 km/h
2173 02-06-2011 13:00:00 25.14 C 4.69 g/m*3 25.14 C 0 km/h
2174 02-06-2011 14:00:00 30.22 C 6.14 g/m*3 30.22 C 0 km/h
2175 02-06-2011 15:00:00 30.36 C 6.18 g/m*3 30.36 C 0 km/h
Sensor: Nr:Datum:Temp:Abs-Feuchte:Windchill:Wind:
Aussen-T/F 2176 02-06-2011 16:00:00 30.62 C 6.27 g/m*3 30.62 C 0 km/h
2177 02-06-2011 17:00:00 30.68 C 6.29 g/m*3 30.68 C 0 km/h
2178 02-06-2011 18:00:00 30.6 C 6.26 g/m*3 30.6 C 0 km/h
2179 02-06-2011 19:00:00 30.6 C 6.26 g/m*3 30.6 C 0 km/h
2180 02-06-2011 20:00:00 30.6 C 6.26 g/m*3 30.6 C 0 km/h
2181 02-06-2011 21:00:00 30.6 C 6.26 g/m*3 30.6 C 0 km/h
2182 02-06-2011 22:00:00 21.84 C 6.27 g/m*3 21.84 C 0 km/h
2183 02-06-2011 23:00:00 16 C 5.59 g/m*3 16 C 0 km/h
2184 03-06-2011 00:00:00 16 C 5.59 g/m*3 16 C 0 km/h
2185 03-06-2011 01:00:00 13.06 C 5.81 g/m*3 13.06 C 0 km/h
2186 03-06-2011 02:00:00 12.38 C 5.72 g/m*3 12.38 C 0 km/h
2187 03-06-2011 03:00:00 11.68 C 5.83 g/m*3 11.68 C 0 km/h
2188 03-06-2011 04:00:00 11.34 C 5.64 g/m*3 11.34 C 0 km/h
2189 03-06-2011 05:00:00 11.28 C 5.68 g/m*3 11.28 C 0 km/h
2190 03-06-2011 06:00:00 12.4 C 6.25 g/m*3 12.4 C 0 km/h
2191 03-06-2011 07:00:00 14.22 C 6.31 g/m*3 14.22 C 0 km/h
2192 03-06-2011 08:00:00 16.32 C 6.25 g/m*3 16.32 C 0 km/h
2193 03-06-2011 09:00:00 19.08 C 5.93 g/m*3 19.08 C 0 km/h
2194 03-06-2011 10:00:00 21.08 C 5.82 g/m*3 21.08 C 0 km/h
2195 03-06-2011 11:00:00 22.4 C 5.72 g/m*3 22.4 C 0 km/h
2196 03-06-2011 12:00:00 23.96 C 5.56 g/m*3 23.96 C 0 km/h
2197 03-06-2011 13:00:00 26.44 C 5.54 g/m*3 26.44 C 0 km/h
2198 03-06-2011 14:00:00 27.48 C 5.92 g/m*3 27.48 C 0 km/h
2199 03-06-2011 15:00:00 30.52 C 6.36 g/m*3 30.52 C 0 km/h
2200 03-06-2011 16:00:00 31.06 C 6.42 g/m*3 31.06 C 0 km/h
Sensor: Nr:Datum:Temp:Abs-Feuchte:Windchill:Wind:
Aussen-T/F 2201 03-06-2011 17:00:00 31.46 C 6.56 g/m*3 31.46 C 0 km/h
2202 03-06-2011 18:00:00 30.26 C 6.15 g/m*3 30.26 C 0 km/h
2203 03-06-2011 19:00:00 28.66 C 6.26 g/m*3 28.66 C 0 km/h
2204 03-06-2011 20:00:00 24.56 C 7.28 g/m*3 24.56 C 0 km/h
2205 03-06-2011 21:00:00 21.54 C 7.79 g/m*3 21.54 C 0 km/h
2206 03-06-2011 22:00:00 20 C 7.98 g/m*3 20 C 0 km/h
2207 03-06-2011 23:00:00 18.56 C 8.38 g/m*3 18.56 C 0 km/h
2208 04-06-2011 00:00:00 17.44 C 8.53 g/m*3 17.44 C 0 km/h
2209 04-06-2011 01:00:00 16.96 C 8.57 g/m*3 16.96 C 0 km/h
2210 04-06-2011 02:00:00 16.12 C 8.48 g/m*3 16.12 C 0 km/h
2211 04-06-2011 03:00:00 15.64 C 8.51 g/m*3 15.64 C 0 km/h
2212 04-06-2011 04:00:00 15.08 C 8.38 g/m*3 15.08 C 0 km/h
2213 04-06-2011 05:00:00 14.84 C 8.38 g/m*3 14.84 C 0 km/h
2214 04-06-2011 06:00:00 15.38 C 8.69 g/m*3 15.38 C 0 km/h
2215 04-06-2011 07:00:00 17.88 C 9.21 g/m*3 17.88 C 0 km/h
2216 04-06-2011 08:00:00 18.84 C 9.4 g/m*3 18.84 C 0 km/h
2217 04-06-2011 09:00:00 21.64 C 9.43 g/m*3 21.64 C 0 km/h
2218 04-06-2011 10:00:00 23.76 C 8.84 g/m*3 23.76 C 0 km/h
2219 04-06-2011 11:00:00 25.86 C 8.45 g/m*3 25.86 C 0 km/h
2220 04-06-2011 12:00:00 27.44 C 7.96 g/m*3 27.44 C 0 km/h
2221 04-06-2011 13:00:00 30.6 C 7.39 g/m*3 30.6 C 0 km/h
2222 04-06-2011 14:00:00 32.7 C 7.01 g/m*3 32.7 C 0 km/h
2223 04-06-2011 15:00:00 30.98 C 7.48 g/m*3 30.98 C 0 km/h
2224 04-06-2011 16:00:00 25.88 C 10.45 g/m*3 25.88 C 0 km/h
2225 04-06-2011 17:00:00 23.38 C 13.74 g/m*3 23.38 C 0 km/h
Sensor: Nr:Datum:Temp:Abs-Feuchte:Windchill:Wind:
Aussen-T/F 2226 04-06-2011 18:00:00 21.32 C 13.44 g/m*3 21.32 C 0 km/h
2227 04-06-2011 19:00:00 20.62 C 13.08 g/m*3 20.62 C 0 km/h
2228 04-06-2011 20:00:00 20.42 C 12.4 g/m*3 20.42 C 0 km/h
2229 04-06-2011 21:00:00 19.58 C 12.48 g/m*3 19.58 C 0 km/h
2230 04-06-2011 22:00:00 18.56 C 12.73 g/m*3 18.56 C 0 km/h
2231 04-06-2011 23:00:00 17.98 C 13.22 g/m*3 17.98 C 0 km/h
2232 05-06-2011 00:00:00 17.8 C 13.36 g/m*3 17.8 C 0 km/h
2233 05-06-2011 01:00:00 17.34 C 12.99 g/m*3 17.34 C 0 km/h
2234 05-06-2011 02:00:00 16.56 C 12.54 g/m*3 16.56 C 0 km/h
2235 05-06-2011 03:00:00 15.78 C 11.97 g/m*3 15.78 C 0 km/h
2236 05-06-2011 04:00:00 15.38 C 11.68 g/m*3 15.38 C 0 km/h
2237 05-06-2011 05:00:00 15.26 C 11.7 g/m*3 15.26 C 0 km/h
2238 05-06-2011 06:00:00 16.16 C 12.35 g/m*3 16.16 C 0 km/h
2239 05-06-2011 07:00:00 16.66 C 12.7 g/m*3 16.66 C 0 km/h
2240 05-06-2011 08:00:00 18.3 C 13.57 g/m*3 18.3 C 0 km/h
2241 05-06-2011 09:00:00 19.4 C 12.51 g/m*3 19.4 C 0 km/h
2242 05-06-2011 10:00:00 20.84 C 13.47 g/m*3 20.84 C 0 km/h
2243 05-06-2011 11:00:00 22.24 C 12.99 g/m*3 22.24 C 0 km/h
2244 05-06-2011 12:00:00 24.14 C 13.2 g/m*3 24.14 C 0 km/h
2245 05-06-2011 13:00:00 25.12 C 14.09 g/m*3 25.12 C 0 km/h
2246 05-06-2011 14:00:00 26 C 14.36 g/m*3 26 C 0 km/h
2247 05-06-2011 15:00:00 23.94 C 14.27 g/m*3 23.94 C 0 km/h
2248 05-06-2011 16:00:00 17.82 C 12.52 g/m*3 17.82 C 0 km/h
2249 05-06-2011 17:00:00 17.4 C 12.72 g/m*3 17.4 C 0 km/h
2250 05-06-2011 18:00:00 16.92 C 12.53 g/m*3 16.92 C 0 km/h
Sensor: Nr:Datum:Temp:Abs-Feuchte:Windchill:Wind:
Aussen-T/F 2251 05-06-2011 19:00:00 17.42 C 13 g/m*3 17.42 C 0 km/h
2252 05-06-2011 20:00:00 17.56 C 13.02 g/m*3 17.56 C 0 km/h
2253 05-06-2011 21:00:00 16.88 C 12.61 g/m*3 16.88 C 0 km/h
2254 05-06-2011 22:00:00 16.58 C 12.56 g/m*3 16.58 C 0 km/h
2255 05-06-2011 23:00:00 15.7 C 11.91 g/m*3 15.7 C 0 km/h
2256 06-06-2011 00:00:00 15.1 C 11.56 g/m*3 15.1 C 0 km/h
2257 06-06-2011 01:00:00 15.02 C 11.58 g/m*3 15.02 C 0 km/h
2258 06-06-2011 02:00:00 15.06 C 11.58 g/m*3 15.06 C 0 km/h
2259 06-06-2011 03:00:00 14.78 C 11.46 g/m*3 14.78 C 0 km/h
2260 06-06-2011 04:00:00 13.98 C 10.96 g/m*3 13.98 C 0 km/h
2261 06-06-2011 05:00:00 13.68 C 10.76 g/m*3 13.68 C 0 km/h
2262 06-06-2011 06:00:00 14.22 C 11.13 g/m*3 14.22 C 0 km/h
2263 06-06-2011 07:00:00 15.34 C 11.81 g/m*3 15.34 C 0 km/h
2264 06-06-2011 08:00:00 17.26 C 13.05 g/m*3 17.26 C 0 km/h
2265 06-06-2011 09:00:00 18.32 C 13.09 g/m*3 18.32 C 0 km/h
2266 06-06-2011 10:00:00 20.4 C 12.84 g/m*3 20.4 C 0 km/h
2267 06-06-2011 11:00:00 22.3 C 11.1 g/m*3 22.3 C 0 km/h
2268 06-06-2011 12:00:00 23.5 C 10.91 g/m*3 23.5 C 0 km/h
2269 06-06-2011 13:00:00 26.62 C 10.23 g/m*3 26.62 C 0 km/h
2270 06-06-2011 14:00:00 27.04 C 9.49 g/m*3 27.04 C 0 km/h
2271 06-06-2011 15:00:00 25.96 C 9.96 g/m*3 25.96 C 0 km/h
2272 06-06-2011 16:00:00 24.96 C 9.88 g/m*3 24.96 C 0 km/h
2273 06-06-2011 17:00:00 17.74 C 10.5 g/m*3 17.74 C 0 km/h
2274 06-06-2011 18:00:00 16.92 C 12.07 g/m*3 16.92 C 0 km/h
2275 06-06-2011 19:00:00 17.74 C 12.7 g/m*3 17.74 C 0 km/h
Sensor: Nr:Datum:Temp:Abs-Feuchte:Windchill:Wind:
Aussen-T/F 2276 06-06-2011 20:00:00 17.8 C 12.6 g/m*3 17.8 C 0 km/h
2277 06-06-2011 21:00:00 16.34 C 11.99 g/m*3 16.34 C 0 km/h
2278 06-06-2011 22:00:00 15.64 C 11.78 g/m*3 15.64 C 0 km/h
2279 06-06-2011 23:00:00 15.56 C 11.81 g/m*3 15.56 C 0 km/h
2280 07-06-2011 00:00:00 15.14 C 11.51 g/m*3 15.14 C 0 km/h
2281 07-06-2011 01:00:00 15.38 C 11.81 g/m*3 15.38 C 0 km/h
2282 07-06-2011 02:00:00 15.64 C 12 g/m*3 15.64 C 0 km/h
2283 07-06-2011 03:00:00 15.12 C 11.68 g/m*3 15.12 C 0 km/h
2284 07-06-2011 04:00:00 15.12 C 11.63 g/m*3 15.12 C 0 km/h
2285 07-06-2011 05:00:00 15 C 11.54 g/m*3 15 C 0 km/h
2286 07-06-2011 06:00:00 14.88 C 11.41 g/m*3 14.88 C 0 km/h
2287 07-06-2011 07:00:00 15.98 C 10.72 g/m*3 15.98 C 0 km/h
2288 07-06-2011 08:00:00 17.6 C 9.57 g/m*3 17.6 C 0 km/h
2289 07-06-2011 09:00:00 18.46 C 8.65 g/m*3 18.46 C 0 km/h
2290 07-06-2011 10:00:00 19.14 C 8.48 g/m*3 19.14 C 0 km/h
2291 07-06-2011 11:00:00 19.36 C 8.42 g/m*3 19.36 C 0 km/h
2292 07-06-2011 12:00:00 21.02 C 8.62 g/m*3 21.02 C 0 km/h
2293 07-06-2011 13:00:00 25.9 C 8.76 g/m*3 25.9 C 0 km/h
2294 07-06-2011 14:00:00 29.12 C 8.04 g/m*3 29.12 C 0 km/h
2295 07-06-2011 15:00:00 29.78 C 8.15 g/m*3 29.78 C 0 km/h
2296 07-06-2011 16:00:00 31.14 C 7.29 g/m*3 31.14 C 0 km/h
2297 07-06-2011 17:00:00 29.68 C 8.64 g/m*3 29.68 C 0 km/h
2298 07-06-2011 18:00:00 27.4 C 10.26 g/m*3 27.4 C 0 km/h
2299 07-06-2011 19:00:00 25.82 C 11.62 g/m*3 25.82 C 0 km/h
2300 07-06-2011 20:00:00 21.14 C 11.52 g/m*3 21.14 C 0 km/h
Sensor: Nr:Datum:Temp:Abs-Feuchte:Windchill:Wind:
Aussen-T/F 2301 07-06-2011 21:00:00 19.36 C 11.22 g/m*3 19.36 C 0 km/h
2302 07-06-2011 22:00:00 19.12 C 11.29 g/m*3 19.12 C 0 km/h
2303 07-06-2011 23:00:00 18.68 C 10.68 g/m*3 18.68 C 0 km/h
2304 08-06-2011 00:00:00 16.42 C 11.43 g/m*3 16.42 C 0 km/h
2305 08-06-2011 01:00:00 16 C 11.77 g/m*3 16 C 0 km/h
2306 08-06-2011 02:00:00 15.52 C 11.65 g/m*3 15.52 C 0 km/h
2307 08-06-2011 03:00:00 15.2 C 11.53 g/m*3 15.2 C 0 km/h
2308 08-06-2011 04:00:00 15.12 C 11.5 g/m*3 15.12 C 0 km/h
2309 08-06-2011 05:00:00 15 C 11.44 g/m*3 15 C 0 km/h
2310 08-06-2011 06:00:00 13.18 C 10.21 g/m*3 13.18 C 0 km/h
2311 08-06-2011 07:00:00 11.86 C 9.02 g/m*3 11.86 C 0 km/h
2312 08-06-2011 08:00:00 11.36 C 8.7 g/m*3 11.36 C 0 km/h
2313 08-06-2011 09:00:00 11.8 C 8.88 g/m*3 11.8 C 0 km/h
2314 08-06-2011 10:00:00 12.16 C 8.65 g/m*3 12.16 C 0 km/h
2315 08-06-2011 11:00:00 13.32 C 8.19 g/m*3 13.32 C 0 km/h
2316 08-06-2011 12:00:00 16.12 C 6.81 g/m*3 16.12 C 0 km/h
2317 08-06-2011 13:00:00 20.54 C 6.88 g/m*3 20.54 C 0 km/h
2318 08-06-2011 14:00:00 20.1 C 6.99 g/m*3 20.1 C 0 km/h
2319 08-06-2011 15:00:00 20.9 C 7.03 g/m*3 20.9 C 0 km/h
2320 08-06-2011 16:00:00 20.04 C 5.54 g/m*3 20.04 C 0 km/h
2321 08-06-2011 17:00:00 19.72 C 5.51 g/m*3 19.72 C 0 km/h
2322 08-06-2011 18:00:00 18.34 C 5.99 g/m*3 18.34 C 0 km/h
2323 08-06-2011 19:00:00 17.32 C 6.93 g/m*3 17.32 C 0 km/h
2324 08-06-2011 20:00:00 15.76 C 7.55 g/m*3 15.76 C 0 km/h
2325 08-06-2011 21:00:00 14.2 C 8.25 g/m*3 14.2 C 0 km/h
Sensor: Nr:Datum:Temp:Abs-Feuchte:Windchill:Wind:
Aussen-T/F 2326 08-06-2011 22:00:00 13.32 C 8.28 g/m*3 13.32 C 0 km/h
2327 08-06-2011 23:00:00 13.38 C 7.8 g/m*3 13.38 C 0 km/h
2328 09-06-2011 00:00:00 13.4 C 7.79 g/m*3 13.4 C 0 km/h
2329 09-06-2011 01:00:00 11.92 C 7.66 g/m*3 11.92 C 0 km/h
2330 09-06-2011 02:00:00 11.1 C 7.55 g/m*3 11.1 C 0 km/h
2331 09-06-2011 03:00:00 11.1 C 7.55 g/m*3 11.1 C 0 km/h
2332 09-06-2011 04:00:00 11.1 C 7.55 g/m*3 11.1 C 0 km/h
2333 09-06-2011 05:00:00 11.1 C 7.55 g/m*3 11.1 C 0 km/h
2334 09-06-2011 06:00:00 9.2 C 7.63 g/m*3 9.2 C 0 km/h
2335 09-06-2011 07:00:00 9.58 C 8.05 g/m*3 9.58 C 0 km/h
2336 09-06-2011 08:00:00 9.7 C 8.11 g/m*3 9.7 C 0 km/h
2337 09-06-2011 09:00:00 9.7 C 8.11 g/m*3 9.7 C 0 km/h
2338 09-06-2011 10:00:00 9.7 C 8.11 g/m*3 9.7 C 0 km/h
2339 09-06-2011 11:00:00 11.48 C 8.09 g/m*3 11.48 C 0 km/h
2340 09-06-2011 12:00:00 19.22 C 6.9 g/m*3 19.22 C 0 km/h
2341 09-06-2011 13:00:00 19.4 C 6.84 g/m*3 19.4 C 0 km/h
2342 09-06-2011 14:00:00 15.94 C 7.68 g/m*3 15.94 C 0 km/h
2343 09-06-2011 15:00:00 17.32 C 8.35 g/m*3 17.32 C 0 km/h
2344 09-06-2011 16:00:00 17.06 C 8.74 g/m*3 17.06 C 0 km/h
2345 09-06-2011 17:00:00 17.02 C 8.95 g/m*3 17.02 C 0 km/h
2346 09-06-2011 18:00:00 21.94 C 6.65 g/m*3 21.94 C 0 km/h
2347 09-06-2011 19:00:00 22.3 C 7.5 g/m*3 22.3 C 0 km/h
2348 09-06-2011 20:00:00 22.3 C 7.5 g/m*3 22.3 C 0 km/h
2349 09-06-2011 21:00:00 12.74 C 9.44 g/m*3 12.74 C 0 km/h
2350 09-06-2011 22:00:00 11.64 C 9.04 g/m*3 11.64 C 0 km/h
Sensor: Nr:Datum:Temp:Abs-Feuchte:Windchill:Wind:
Aussen-T/F 2351 09-06-2011 23:00:00 11.4 C 8.93 g/m*3 11.4 C 0 km/h
2352 10-06-2011 00:00:00 11.4 C 8.93 g/m*3 11.4 C 0 km/h
2353 10-06-2011 01:00:00 11.4 C 8.93 g/m*3 11.4 C 0 km/h
2354 10-06-2011 02:00:00 11.4 C 8.93 g/m*3 11.4 C 0 km/h
2355 10-06-2011 03:00:00 11.4 C 8.93 g/m*3 11.4 C 0 km/h
2356 10-06-2011 04:00:00 11.4 C 8.93 g/m*3 11.4 C 0 km/h
2357 10-06-2011 05:00:00 11.4 C 8.93 g/m*3 11.4 C 0 km/h
2358 10-06-2011 06:00:00 11.62 C 9.1 g/m*3 11.62 C 0 km/h
2359 10-06-2011 07:00:00 12.62 C 9.28 g/m*3 12.62 C 0 km/h
2360 10-06-2011 08:00:00 13 C 9.07 g/m*3 13 C 0 km/h
2361 10-06-2011 09:00:00 13 C 9.07 g/m*3 13 C 0 km/h
2362 10-06-2011 10:00:00 13 C 9.07 g/m*3 13 C 0 km/h
2363 10-06-2011 11:00:00 13 C 9.07 g/m*3 13 C 0 km/h
2364 10-06-2011 12:00:00 13 C 9.07 g/m*3 13 C 0 km/h
2365 10-06-2011 13:00:00 13 C 9.07 g/m*3 13 C 0 km/h
2366 10-06-2011 14:00:00 13 C 9.07 g/m*3 13 C 0 km/h
2367 10-06-2011 15:00:00 20.46 C 6.99 g/m*3 20.46 C 0 km/h
2368 10-06-2011 16:00:00 26.32 C 4.96 g/m*3 26.32 C 0 km/h
2369 10-06-2011 17:00:00 21.64 C 5.78 g/m*3 21.64 C 0 km/h
2370 10-06-2011 18:00:00 18.3 C 6.66 g/m*3 18.3 C 0 km/h
2371 10-06-2011 19:00:00 18.2 C 7.52 g/m*3 18.2 C 0 km/h
2372 10-06-2011 20:00:00 18.2 C 7.77 g/m*3 18.2 C 0 km/h
2373 10-06-2011 21:00:00 15.86 C 8.46 g/m*3 15.86 C 0 km/h
2374 10-06-2011 22:00:00 14.4 C 8.9 g/m*3 14.4 C 0 km/h
2375 10-06-2011 23:00:00 14.68 C 8.5 g/m*3 14.68 C 0 km/h
Sensor: Nr:Datum:Temp:Abs-Feuchte:Windchill:Wind:
Aussen-T/F 2376 11-06-2011 00:00:00 13.1 C 8.88 g/m*3 13.1 C 0 km/h
2377 11-06-2011 01:00:00 12.6 C 9.07 g/m*3 12.6 C 0 km/h
2378 11-06-2011 02:00:00 12.6 C 9.07 g/m*3 12.6 C 0 km/h
2379 11-06-2011 03:00:00 12.6 C 9.07 g/m*3 12.6 C 0 km/h
2380 11-06-2011 04:00:00 12.6 C 9.07 g/m*3 12.6 C 0 km/h
2381 11-06-2011 05:00:00 12.6 C 9.07 g/m*3 12.6 C 0 km/h
2382 11-06-2011 06:00:00 12.6 C 9.07 g/m*3 12.6 C 0 km/h
2383 11-06-2011 07:00:00 11.38 C 8.86 g/m*3 11.38 C 0 km/h
2384 11-06-2011 08:00:00 11.52 C 8.96 g/m*3 11.52 C 0 km/h
2385 11-06-2011 09:00:00 12.76 C 7.96 g/m*3 12.76 C 0 km/h
2386 11-06-2011 10:00:00 13.6 C 7.3 g/m*3 13.6 C 0 km/h
2387 11-06-2011 11:00:00 13.6 C 7.3 g/m*3 13.6 C 0 km/h
2388 11-06-2011 12:00:00 13.6 C 7.3 g/m*3 13.6 C 0 km/h
2389 11-06-2011 13:00:00 19.98 C 4.9 g/m*3 19.98 C 0 km/h
2390 11-06-2011 14:00:00 21.26 C 5.02 g/m*3 21.26 C 0 km/h
2391 11-06-2011 15:00:00 26.18 C 4.92 g/m*3 26.18 C 0 km/h
2392 11-06-2011 16:00:00 25.1 C 4.63 g/m*3 25.1 C 0 km/h
2393 11-06-2011 17:00:00 25.5 C 4.73 g/m*3 25.5 C 0 km/h
2394 11-06-2011 18:00:00 24.74 C 4.81 g/m*3 24.74 C 0 km/h
2395 11-06-2011 19:00:00 19.1 C 6.36 g/m*3 19.1 C 0 km/h
2396 11-06-2011 20:00:00 16.14 C 7.86 g/m*3 16.14 C 0 km/h
2397 11-06-2011 21:00:00 15.32 C 6.98 g/m*3 15.32 C 0 km/h
2398 11-06-2011 22:00:00 13.48 C 7.31 g/m*3 13.48 C 0 km/h
2399 11-06-2011 23:00:00 11.9 C 7.46 g/m*3 11.9 C 0 km/h
2400 12-06-2011 00:00:00 10.26 C 7.51 g/m*3 10.26 C 0 km/h
Sensor: Nr:Datum:Temp:Abs-Feuchte:Windchill:Wind:
Aussen-T/F 2401 12-06-2011 01:00:00 9.36 C 7.56 g/m*3 9.36 C 0 km/h
2402 12-06-2011 02:00:00 8.58 C 7.43 g/m*3 8.58 C 0 km/h
2403 12-06-2011 03:00:00 8.02 C 7.28 g/m*3 8.02 C 0 km/h
2404 12-06-2011 04:00:00 7.52 C 7.21 g/m*3 7.52 C 0 km/h
2405 12-06-2011 05:00:00 6.9 C 6.97 g/m*3 6.9 C 0 km/h
2406 12-06-2011 06:00:00 7.2 C 7.1 g/m*3 7.2 C 0 km/h
2407 12-06-2011 07:00:00 8.9 C 7.8 g/m*3 8.9 C 0 km/h
2408 12-06-2011 08:00:00 11.88 C 8.12 g/m*3 11.88 C 0 km/h
2409 12-06-2011 09:00:00 13.68 C 7.38 g/m*3 13.68 C 0 km/h
2410 12-06-2011 10:00:00 16.14 C 7.14 g/m*3 16.14 C 0 km/h
2411 12-06-2011 11:00:00 17.5 C 6.47 g/m*3 17.5 C 0 km/h
2412 12-06-2011 12:00:00 18.14 C 6.01 g/m*3 18.14 C 0 km/h
2413 12-06-2011 13:00:00 22 C 5.47 g/m*3 22 C 0 km/h
2414 12-06-2011 14:00:00 25.62 C 4.86 g/m*3 25.62 C 0 km/h
2415 12-06-2011 15:00:00 23.12 C 4.14 g/m*3 23.12 C 0 km/h
2416 12-06-2011 16:00:00 23.9 C 4.37 g/m*3 23.9 C 0 km/h
2417 12-06-2011 17:00:00 22.76 C 4.62 g/m*3 22.76 C 0 km/h
2418 12-06-2011 18:00:00 23.08 C 4.83 g/m*3 23.08 C 0 km/h
2419 12-06-2011 19:00:00 21.1 C 6.34 g/m*3 21.1 C 0 km/h
2420 12-06-2011 20:00:00 17.32 C 7.43 g/m*3 17.32 C 0 km/h
2421 12-06-2011 21:00:00 15.24 C 6.32 g/m*3 15.24 C 0 km/h
2422 12-06-2011 22:00:00 13.92 C 7.27 g/m*3 13.92 C 0 km/h
2423 12-06-2011 23:00:00 12.94 C 7.14 g/m*3 12.94 C 0 km/h
2424 13-06-2011 00:00:00 12.38 C 7.09 g/m*3 12.38 C 0 km/h
2425 13-06-2011 01:00:00 11.8 C 7.11 g/m*3 11.8 C 0 km/h
Sensor: Nr:Datum:Temp:Abs-Feuchte:Windchill:Wind:
Aussen-T/F 2426 13-06-2011 02:00:00 11.92 C 7.32 g/m*3 11.92 C 0 km/h
2427 13-06-2011 03:00:00 12.28 C 7.66 g/m*3 12.28 C 0 km/h
2428 13-06-2011 04:00:00 12.72 C 7.74 g/m*3 12.72 C 0 km/h
2429 13-06-2011 05:00:00 12.7 C 8.08 g/m*3 12.7 C 0 km/h
2430 13-06-2011 06:00:00 12.96 C 8.21 g/m*3 12.96 C 0 km/h
2431 13-06-2011 07:00:00 13.86 C 8.32 g/m*3 13.86 C 0 km/h
2432 13-06-2011 08:00:00 14.62 C 8.17 g/m*3 14.62 C 0 km/h
2433 13-06-2011 09:00:00 15.6 C 8.43 g/m*3 15.6 C 0 km/h
2434 13-06-2011 10:00:00 16.4 C 8.23 g/m*3 16.4 C 0 km/h
2435 13-06-2011 11:00:00 17.06 C 8.05 g/m*3 17.06 C 0 km/h
2436 13-06-2011 12:00:00 18.72 C 8.08 g/m*3 18.72 C 0 km/h
2437 13-06-2011 13:00:00 19.56 C 7.92 g/m*3 19.56 C 0 km/h
2438 13-06-2011 14:00:00 21.22 C 7.98 g/m*3 21.22 C 0 km/h
2439 13-06-2011 15:00:00 22.28 C 7.73 g/m*3 22.28 C 0 km/h
2440 13-06-2011 16:00:00 23.76 C 7.9 g/m*3 23.76 C 0 km/h
2441 13-06-2011 17:00:00 22.04 C 8.21 g/m*3 22.04 C 0 km/h
2442 13-06-2011 18:00:00 21.14 C 8.68 g/m*3 21.14 C 0 km/h
2443 13-06-2011 19:00:00 20.9 C 8.74 g/m*3 20.9 C 0 km/h
2444 13-06-2011 20:00:00 19.72 C 9.21 g/m*3 19.72 C 0 km/h
2445 13-06-2011 21:00:00 17.94 C 9.92 g/m*3 17.94 C 0 km/h
2446 13-06-2011 22:00:00 17.5 C 10.05 g/m*3 17.5 C 0 km/h
2447 13-06-2011 23:00:00 17.04 C 10.21 g/m*3 17.04 C 0 km/h
2448 14-06-2011 00:00:00 16.62 C 10.41 g/m*3 16.62 C 0 km/h
2449 14-06-2011 01:00:00 16.34 C 10.37 g/m*3 16.34 C 0 km/h
2450 14-06-2011 02:00:00 15.04 C 10.08 g/m*3 15.04 C 0 km/h
Sensor: Nr:Datum:Temp:Abs-Feuchte:Windchill:Wind:
Aussen-T/F 2451 14-06-2011 03:00:00 13.74 C 10.02 g/m*3 13.74 C 0 km/h
2452 14-06-2011 04:00:00 14.44 C 10.76 g/m*3 14.44 C 0 km/h
2453 14-06-2011 05:00:00 14.74 C 10.98 g/m*3 14.74 C 0 km/h
2454 14-06-2011 06:00:00 15.22 C 11.31 g/m*3 15.22 C 0 km/h
2455 14-06-2011 07:00:00 16.34 C 11.79 g/m*3 16.34 C 0 km/h
2456 14-06-2011 08:00:00 17.9 C 11.57 g/m*3 17.9 C 0 km/h
2457 14-06-2011 09:00:00 19.14 C 11.6 g/m*3 19.14 C 0 km/h
2458 14-06-2011 10:00:00 20.76 C 10.73 g/m*3 20.76 C 0 km/h
2459 14-06-2011 11:00:00 21.84 C 10.31 g/m*3 21.84 C 0 km/h
2460 14-06-2011 12:00:00 22.7 C 10.3 g/m*3 22.7 C 0 km/h
2461 14-06-2011 13:00:00 22.74 C 10.04 g/m*3 22.74 C 0 km/h
2462 14-06-2011 14:00:00 27.74 C 8.58 g/m*3 27.74 C 0 km/h
2463 14-06-2011 15:00:00 28.78 C 7.66 g/m*3 28.78 C 0 km/h
2464 14-06-2011 16:00:00 31.16 C 6.58 g/m*3 31.16 C 0 km/h
2465 14-06-2011 17:00:00 30.2 C 7.05 g/m*3 30.2 C 0 km/h
2466 14-06-2011 18:00:00 29.28 C 7.23 g/m*3 29.28 C 0 km/h
2467 14-06-2011 19:00:00 26.2 C 8.32 g/m*3 26.2 C 0 km/h
2468 14-06-2011 20:00:00 22.54 C 9.17 g/m*3 22.54 C 0 km/h
2469 14-06-2011 21:00:00 19.64 C 9.92 g/m*3 19.64 C 0 km/h
2470 14-06-2011 22:00:00 16.8 C 9.84 g/m*3 16.8 C 0 km/h
2471 14-06-2011 23:00:00 15.3 C 9.77 g/m*3 15.3 C 0 km/h
2472 15-06-2011 00:00:00 14.1 C 9.73 g/m*3 14.1 C 0 km/h
2473 15-06-2011 01:00:00 13.3 C 9.61 g/m*3 13.3 C 0 km/h
2474 15-06-2011 02:00:00 12.8 C 9.57 g/m*3 12.8 C 0 km/h
2475 15-06-2011 03:00:00 12.54 C 9.57 g/m*3 12.54 C 0 km/h
Sensor: Nr:Datum:Temp:Abs-Feuchte:Windchill:Wind:
Aussen-T/F 2476 15-06-2011 04:00:00 12.04 C 9.4 g/m*3 12.04 C 0 km/h
2477 15-06-2011 05:00:00 12.5 C 9.78 g/m*3 12.5 C 0 km/h
2478 15-06-2011 06:00:00 13.66 C 10.37 g/m*3 13.66 C 0 km/h
2479 15-06-2011 07:00:00 15.08 C 10.21 g/m*3 15.08 C 0 km/h
2480 15-06-2011 08:00:00 16.94 C 9.78 g/m*3 16.94 C 0 km/h
2481 15-06-2011 09:00:00 18.54 C 9.71 g/m*3 18.54 C 0 km/h
2482 15-06-2011 10:00:00 20.46 C 9.62 g/m*3 20.46 C 0 km/h
2483 15-06-2011 11:00:00 24.04 C 9.77 g/m*3 24.04 C 0 km/h
2484 15-06-2011 12:00:00 24.64 C 9.61 g/m*3 24.64 C 0 km/h
2485 15-06-2011 13:00:00 28.08 C 8.41 g/m*3 28.08 C 0 km/h
2486 15-06-2011 14:00:00 24.86 C 8.72 g/m*3 24.86 C 0 km/h
2487 15-06-2011 15:00:00 24.24 C 9.35 g/m*3 24.24 C 0 km/h
2488 15-06-2011 16:00:00 26.52 C 8.27 g/m*3 26.52 C 0 km/h
2489 15-06-2011 17:00:00 28.16 C 7.63 g/m*3 28.16 C 0 km/h
2490 15-06-2011 18:00:00 26.98 C 8.28 g/m*3 26.98 C 0 km/h
2491 15-06-2011 19:00:00 26.14 C 9.08 g/m*3 26.14 C 0 km/h
2492 15-06-2011 20:00:00 21.96 C 10.42 g/m*3 21.96 C 0 km/h
2493 15-06-2011 21:00:00 19.98 C 10.22 g/m*3 19.98 C 0 km/h
2494 16-06-2011 20:00:00 17.2 C 9.23 g/m*3 17.2 C 0 km/h
2495 16-06-2011 21:00:00 16.74 C 9.17 g/m*3 16.74 C 0 km/h
2496 16-06-2011 22:00:00 15.98 C 8.41 g/m*3 15.98 C 0 km/h
2497 16-06-2011 23:00:00 15.02 C 7.34 g/m*3 15.02 C 0 km/h
2498 17-06-2011 00:00:00 13.12 C 6.7 g/m*3 13.12 C 0 km/h
2499 17-06-2011 01:00:00 12.28 C 6.75 g/m*3 12.28 C 0 km/h
2500 17-06-2011 02:00:00 10.6 C 6.83 g/m*3 10.6 C 0 km/h
Sensor: Nr:Datum:Temp:Abs-Feuchte:Windchill:Wind:
Aussen-T/F 2501 17-06-2011 03:00:00 9.26 C 7.08 g/m*3 9.26 C 0 km/h
2502 17-06-2011 04:00:00 8.1 C 7.07 g/m*3 8.1 C 0 km/h
2503 17-06-2011 05:00:00 7.46 C 6.98 g/m*3 7.46 C 0 km/h
2504 17-06-2011 06:00:00 7.8 C 7.2 g/m*3 7.8 C 0 km/h
2505 17-06-2011 07:00:00 9.42 C 7.93 g/m*3 9.42 C 0 km/h
2506 17-06-2011 08:00:00 12.3 C 8.1 g/m*3 12.3 C 0 km/h
2507 17-06-2011 09:00:00 15.16 C 7.51 g/m*3 15.16 C 0 km/h
2508 17-06-2011 10:00:00 18.14 C 6.2 g/m*3 18.14 C 0 km/h
2509 17-06-2011 11:00:00 19.44 C 5.59 g/m*3 19.44 C 0 km/h
2510 17-06-2011 12:00:00 20.92 C 5.54 g/m*3 20.92 C 0 km/h
2511 17-06-2011 13:00:00 23.4 C 5.85 g/m*3 23.4 C 0 km/h
2512 17-06-2011 14:00:00 25.68 C 5.64 g/m*3 25.68 C 0 km/h
2513 17-06-2011 15:00:00 24.38 C 5.56 g/m*3 24.38 C 0 km/h
2514 17-06-2011 16:00:00 22.22 C 7.55 g/m*3 22.22 C 0 km/h
2515 17-06-2011 17:00:00 21.48 C 8.78 g/m*3 21.48 C 0 km/h
2516 17-06-2011 18:00:00 20.82 C 9.06 g/m*3 20.82 C 0 km/h
2517 17-06-2011 19:00:00 19.8 C 8.81 g/m*3 19.8 C 0 km/h
2518 17-06-2011 20:00:00 17.22 C 9.41 g/m*3 17.22 C 0 km/h
2519 17-06-2011 21:00:00 15.42 C 10.42 g/m*3 15.42 C 0 km/h
2520 17-06-2011 22:00:00 14.56 C 10.59 g/m*3 14.56 C 0 km/h
2521 17-06-2011 23:00:00 14.16 C 10.57 g/m*3 14.16 C 0 km/h
2522 18-06-2011 00:00:00 14.08 C 10.62 g/m*3 14.08 C 0 km/h
2523 18-06-2011 01:00:00 14.04 C 10.64 g/m*3 14.04 C 0 km/h
2524 18-06-2011 02:00:00 14.32 C 10.95 g/m*3 14.32 C 0 km/h
2525 18-06-2011 03:00:00 14.34 C 10.96 g/m*3 14.34 C 0 km/h
Sensor: Nr:Datum:Temp:Abs-Feuchte:Windchill:Wind:
Aussen-T/F 2526 18-06-2011 04:00:00 14.94 C 10.66 g/m*3 14.94 C 0 km/h
2527 18-06-2011 05:00:00 14.92 C 9.8 g/m*3 14.92 C 0 km/h
2528 18-06-2011 06:00:00 14.86 C 9.05 g/m*3 14.86 C 0 km/h
2529 18-06-2011 07:00:00 15.64 C 8.29 g/m*3 15.64 C 0 km/h
2530 18-06-2011 08:00:00 16.1 C 7.79 g/m*3 16.1 C 0 km/h
2531 18-06-2011 09:00:00 16.58 C 7.62 g/m*3 16.58 C 0 km/h
2532 18-06-2011 10:00:00 16.48 C 6.93 g/m*3 16.48 C 0 km/h
2533 18-06-2011 11:00:00 16.9 C 6.3 g/m*3 16.9 C 0 km/h
2534 18-06-2011 12:00:00 16.9 C 6.04 g/m*3 16.9 C 0 km/h
2535 18-06-2011 13:00:00 18.04 C 6.07 g/m*3 18.04 C 0 km/h
2536 18-06-2011 14:00:00 19.1 C 5.7 g/m*3 19.1 C 0 km/h
2537 18-06-2011 15:00:00 20.86 C 5.23 g/m*3 20.86 C 0 km/h
2538 18-06-2011 16:00:00 20.82 C 5.66 g/m*3 20.82 C 0 km/h
2539 18-06-2011 17:00:00 17.52 C 6.24 g/m*3 17.52 C 0 km/h
2540 18-06-2011 18:00:00 17.64 C 6.4 g/m*3 17.64 C 0 km/h
2541 18-06-2011 19:00:00 15.6 C 6.52 g/m*3 15.6 C 0 km/h
2542 18-06-2011 20:00:00 14.94 C 6.77 g/m*3 14.94 C 0 km/h
2543 18-06-2011 21:00:00 13.26 C 7.17 g/m*3 13.26 C 0 km/h
2544 18-06-2011 22:00:00 12.32 C 7.2 g/m*3 12.32 C 0 km/h
2545 18-06-2011 23:00:00 11.66 C 7.43 g/m*3 11.66 C 0 km/h
2546 19-06-2011 00:00:00 12.3 C 7.64 g/m*3 12.3 C 0 km/h
2547 19-06-2011 01:00:00 12.56 C 7.15 g/m*3 12.56 C 0 km/h
2548 19-06-2011 02:00:00 12.58 C 7.07 g/m*3 12.58 C 0 km/h
2549 19-06-2011 03:00:00 11.44 C 7 g/m*3 11.44 C 0 km/h
2550 19-06-2011 04:00:00 11.38 C 7.01 g/m*3 11.38 C 0 km/h
Sensor: Nr:Datum:Temp:Abs-Feuchte:Windchill:Wind:
Aussen-T/F 2551 19-06-2011 05:00:00 11.94 C 7.05 g/m*3 11.94 C 0 km/h
2552 19-06-2011 06:00:00 12.2 C 6.86 g/m*3 12.2 C 0 km/h
2553 19-06-2011 07:00:00 12.56 C 7 g/m*3 12.56 C 0 km/h
2554 19-06-2011 08:00:00 12.6 C 7.39 g/m*3 12.6 C 0 km/h
2555 19-06-2011 09:00:00 13.34 C 7.32 g/m*3 13.34 C 0 km/h
2556 19-06-2011 10:00:00 14.56 C 6.89 g/m*3 14.56 C 0 km/h
2557 19-06-2011 11:00:00 15.14 C 6.7 g/m*3 15.14 C 0 km/h
2558 19-06-2011 12:00:00 16.48 C 6.73 g/m*3 16.48 C 0 km/h
2559 19-06-2011 13:00:00 17.2 C 6.41 g/m*3 17.2 C 0 km/h
2560 19-06-2011 14:00:00 18.58 C 6.23 g/m*3 18.58 C 0 km/h
2561 19-06-2011 15:00:00 18 C 7.03 g/m*3 18 C 0 km/h
2562 19-06-2011 16:00:00 17.42 C 7.24 g/m*3 17.42 C 0 km/h
2563 19-06-2011 17:00:00 17.84 C 6.91 g/m*3 17.84 C 0 km/h
2564 19-06-2011 18:00:00 17.46 C 6.63 g/m*3 17.46 C 0 km/h
2565 19-06-2011 19:00:00 16.12 C 7.11 g/m*3 16.12 C 0 km/h
2566 19-06-2011 20:00:00 15.86 C 7.03 g/m*3 15.86 C 0 km/h
2567 19-06-2011 21:00:00 15.06 C 7.13 g/m*3 15.06 C 0 km/h
2568 19-06-2011 22:00:00 13.98 C 7.73 g/m*3 13.98 C 0 km/h
2569 19-06-2011 23:00:00 13.3 C 7.39 g/m*3 13.3 C 0 km/h
2570 20-06-2011 00:00:00 11.78 C 7.8 g/m*3 11.78 C 0 km/h
2571 20-06-2011 01:00:00 11.84 C 7.85 g/m*3 11.84 C 0 km/h
2572 20-06-2011 02:00:00 12.16 C 7.75 g/m*3 12.16 C 0 km/h
2573 20-06-2011 03:00:00 10.16 C 7.54 g/m*3 10.16 C 0 km/h
2574 20-06-2011 04:00:00 9.58 C 7.63 g/m*3 9.58 C 0 km/h
2575 20-06-2011 05:00:00 8.42 C 7.27 g/m*3 8.42 C 0 km/h
Sensor: Nr:Datum:Temp:Abs-Feuchte:Windchill:Wind:
Aussen-T/F 2576 20-06-2011 06:00:00 8.52 C 7.45 g/m*3 8.52 C 0 km/h
2577 20-06-2011 07:00:00 10.88 C 8.15 g/m*3 10.88 C 0 km/h
2578 20-06-2011 08:00:00 14.42 C 7.7 g/m*3 14.42 C 0 km/h
2579 20-06-2011 09:00:00 13.36 C 8 g/m*3 13.36 C 0 km/h
2580 20-06-2011 10:00:00 13.4 C 8.93 g/m*3 13.4 C 0 km/h
2581 20-06-2011 11:00:00 14.04 C 9.38 g/m*3 14.04 C 0 km/h
2582 20-06-2011 12:00:00 14 C 9.7 g/m*3 14 C 0 km/h
2583 20-06-2011 13:00:00 14.36 C 9.91 g/m*3 14.36 C 0 km/h
2584 20-06-2011 14:00:00 14.88 C 10.29 g/m*3 14.88 C 0 km/h
2585 20-06-2011 15:00:00 17.12 C 10.26 g/m*3 17.12 C 0 km/h
2586 20-06-2011 16:00:00 17.54 C 10.4 g/m*3 17.54 C 0 km/h
2587 20-06-2011 17:00:00 17.74 C 10.53 g/m*3 17.74 C 0 km/h
2588 20-06-2011 18:00:00 17.04 C 10.73 g/m*3 17.04 C 0 km/h
2589 20-06-2011 19:00:00 16.28 C 11.28 g/m*3 16.28 C 0 km/h
2590 20-06-2011 20:00:00 15.98 C 11.57 g/m*3 15.98 C 0 km/h
2591 20-06-2011 21:00:00 15.68 C 11.57 g/m*3 15.68 C 0 km/h
2592 20-06-2011 22:00:00 14.7 C 11.03 g/m*3 14.7 C 0 km/h
2593 20-06-2011 23:00:00 14.3 C 10.89 g/m*3 14.3 C 0 km/h
2594 21-06-2011 00:00:00 14.8 C 11.38 g/m*3 14.8 C 0 km/h
2595 21-06-2011 01:00:00 14.9 C 11.44 g/m*3 14.9 C 0 km/h
2596 21-06-2011 02:00:00 14.94 C 11.47 g/m*3 14.94 C 0 km/h
2597 21-06-2011 03:00:00 15.14 C 11.64 g/m*3 15.14 C 0 km/h
2598 21-06-2011 04:00:00 15.66 C 12.01 g/m*3 15.66 C 0 km/h
2599 21-06-2011 05:00:00 15.82 C 12.13 g/m*3 15.82 C 0 km/h
2600 21-06-2011 06:00:00 15.92 C 12.2 g/m*3 15.92 C 0 km/h
Sensor: Nr:Datum:Temp:Abs-Feuchte:Windchill:Wind:
Aussen-T/F 2601 21-06-2011 07:00:00 16.62 C 12.73 g/m*3 16.62 C 0 km/h
2602 21-06-2011 08:00:00 18 C 13.02 g/m*3 18 C 0 km/h
2603 21-06-2011 09:00:00 18.6 C 11.4 g/m*3 18.6 C 0 km/h
2604 21-06-2011 10:00:00 18.62 C 11.41 g/m*3 18.62 C 0 km/h
2605 21-06-2011 11:00:00 20.42 C 10.45 g/m*3 20.42 C 0 km/h
2606 21-06-2011 12:00:00 20.7 C 10.15 g/m*3 20.7 C 0 km/h
2607 21-06-2011 13:00:00 21.5 C 10.03 g/m*3 21.5 C 0 km/h
2608 21-06-2011 14:00:00 23.54 C 9.71 g/m*3 23.54 C 0 km/h
2609 21-06-2011 15:00:00 25.52 C 9.29 g/m*3 25.52 C 0 km/h
2610 21-06-2011 16:00:00 25.86 C 8.99 g/m*3 25.86 C 0 km/h
2611 21-06-2011 17:00:00 24.54 C 9.2 g/m*3 24.54 C 0 km/h
2612 21-06-2011 18:00:00 23.58 C 9.35 g/m*3 23.58 C 0 km/h
2613 21-06-2011 19:00:00 22.78 C 9.13 g/m*3 22.78 C 0 km/h
2614 21-06-2011 20:00:00 20.8 C 9.23 g/m*3 20.8 C 0 km/h
2615 21-06-2011 21:00:00 19.22 C 9.77 g/m*3 19.22 C 0 km/h
2616 21-06-2011 22:00:00 17.44 C 10.79 g/m*3 17.44 C 0 km/h
2617 21-06-2011 23:00:00 17.26 C 11.05 g/m*3 17.26 C 0 km/h
2618 22-06-2011 00:00:00 15.92 C 10.93 g/m*3 15.92 C 0 km/h
2619 22-06-2011 01:00:00 15.16 C 10.98 g/m*3 15.16 C 0 km/h
2620 22-06-2011 02:00:00 15.6 C 11.44 g/m*3 15.6 C 0 km/h
2621 22-06-2011 03:00:00 15.84 C 11.6 g/m*3 15.84 C 0 km/h
2622 22-06-2011 04:00:00 15.58 C 11.4 g/m*3 15.58 C 0 km/h
2623 22-06-2011 05:00:00 15.62 C 11.48 g/m*3 15.62 C 0 km/h
2624 22-06-2011 06:00:00 16.44 C 11.84 g/m*3 16.44 C 0 km/h
2625 22-06-2011 07:00:00 17.48 C 11.67 g/m*3 17.48 C 0 km/h
Sensor: Nr:Datum:Temp:Abs-Feuchte:Windchill:Wind:
Aussen-T/F 2626 22-06-2011 08:00:00 18.72 C 11.89 g/m*3 18.72 C 0 km/h
2627 22-06-2011 09:00:00 19.78 C 12.49 g/m*3 19.78 C 0 km/h
2628 22-06-2011 10:00:00 22.76 C 12.98 g/m*3 22.76 C 0 km/h
2629 22-06-2011 11:00:00 22.76 C 13.66 g/m*3 22.76 C 0 km/h
2630 22-06-2011 12:00:00 21.44 C 13.76 g/m*3 21.44 C 0 km/h
2631 22-06-2011 13:00:00 18.04 C 12.69 g/m*3 18.04 C 0 km/h
2632 22-06-2011 14:00:00 17.16 C 11.98 g/m*3 17.16 C 0 km/h
2633 22-06-2011 15:00:00 18.28 C 11.99 g/m*3 18.28 C 0 km/h
2634 22-06-2011 16:00:00 21.58 C 11.93 g/m*3 21.58 C 0 km/h
2635 22-06-2011 17:00:00 21.42 C 9.91 g/m*3 21.42 C 0 km/h
2636 22-06-2011 18:00:00 21.62 C 8.28 g/m*3 21.62 C 0 km/h
2637 22-06-2011 19:00:00 20.14 C 7.25 g/m*3 20.14 C 0 km/h
2638 22-06-2011 20:00:00 17.64 C 7.58 g/m*3 17.64 C 0 km/h
2639 22-06-2011 21:00:00 16.475 C 8.06 g/m*3 16.48 C 0 km/h
2640 22-06-2011 22:00:00 13.92 C 8.79 g/m*3 13.92 C 0 km/h
2641 22-06-2011 23:00:00 12.98 C 9.2 g/m*3 12.98 C 0 km/h
2642 23-06-2011 00:00:00 12.68 C 9.07 g/m*3 12.68 C 0 km/h
2643 23-06-2011 01:00:00 11.48 C 8.71 g/m*3 11.48 C 0 km/h
2644 23-06-2011 02:00:00 11.28 C 8.8 g/m*3 11.28 C 0 km/h
2645 23-06-2011 03:00:00 10.52 C 8.49 g/m*3 10.52 C 0 km/h
2646 23-06-2011 04:00:00 10.4 C 8.52 g/m*3 10.4 C 0 km/h
2647 23-06-2011 05:00:00 10.9 C 8.85 g/m*3 10.9 C 0 km/h
2648 23-06-2011 06:00:00 11.5 C 9.19 g/m*3 11.5 C 0 km/h
2649 23-06-2011 07:00:00 12.94 C 9.47 g/m*3 12.94 C 0 km/h
2650 23-06-2011 08:00:00 15.62 C 8.63 g/m*3 15.62 C 0 km/h
Sensor: Nr:Datum:Temp:Abs-Feuchte:Windchill:Wind:
Aussen-T/F 2651 23-06-2011 09:00:00 17.2 C 8.08 g/m*3 17.2 C 0 km/h
2652 23-06-2011 10:00:00 18.62 C 7.55 g/m*3 18.62 C 0 km/h
2653 23-06-2011 11:00:00 19.22 C 7.46 g/m*3 19.22 C 0 km/h
2654 23-06-2011 12:00:00 19.16 C 7.76 g/m*3 19.16 C 0 km/h
2655 23-06-2011 13:00:00 19.02 C 8.35 g/m*3 19.02 C 0 km/h
2656 23-06-2011 14:00:00 20.84 C 7.04 g/m*3 20.84 C 0 km/h
2657 23-06-2011 15:00:00 19.2 C 7.06 g/m*3 19.2 C 0 km/h
2658 23-06-2011 16:00:00 20.68 C 6.9 g/m*3 20.68 C 0 km/h
2659 23-06-2011 17:00:00 22.4 C 5.84 g/m*3 22.4 C 0 km/h
2660 23-06-2011 18:00:00 22.94 C 5.53 g/m*3 22.94 C 0 km/h
2661 23-06-2011 19:00:00 22.14 C 5.01 g/m*3 22.14 C 0 km/h
2662 23-06-2011 20:00:00 17.94 C 6.15 g/m*3 17.94 C 0 km/h
2663 23-06-2011 21:00:00 15.38 C 7.03 g/m*3 15.38 C 0 km/h
2664 23-06-2011 22:00:00 14.14 C 7.69 g/m*3 14.14 C 0 km/h
2665 23-06-2011 23:00:00 14.16 C 7.48 g/m*3 14.16 C 0 km/h
2666 24-06-2011 00:00:00 13.34 C 7.64 g/m*3 13.34 C 0 km/h
2667 24-06-2011 01:00:00 12.18 C 7.72 g/m*3 12.18 C 0 km/h
2668 24-06-2011 02:00:00 11.24 C 7.6 g/m*3 11.24 C 0 km/h
2669 24-06-2011 03:00:00 9.78 C 7.39 g/m*3 9.78 C 0 km/h
2670 24-06-2011 04:00:00 10.1 C 7.6 g/m*3 10.1 C 0 km/h
2671 24-06-2011 05:00:00 10.98 C 7.1 g/m*3 10.98 C 0 km/h
2672 24-06-2011 06:00:00 11.28 C 6.54 g/m*3 11.28 C 0 km/h
2673 24-06-2011 07:00:00 11.94 C 6.54 g/m*3 11.94 C 0 km/h
2674 24-06-2011 08:00:00 12.36 C 6.6 g/m*3 12.36 C 0 km/h
2675 24-06-2011 09:00:00 12.86 C 6.77 g/m*3 12.86 C 0 km/h
Sensor: Nr:Datum:Temp:Abs-Feuchte:Windchill:Wind:
Aussen-T/F 2676 24-06-2011 10:00:00 14.3 C 6.81 g/m*3 14.3 C 0 km/h
2677 24-06-2011 11:00:00 16.34 C 6.81 g/m*3 16.34 C 0 km/h
2678 24-06-2011 12:00:00 16.7 C 6.51 g/m*3 16.7 C 0 km/h
2679 24-06-2011 13:00:00 18.26 C 6.08 g/m*3 18.26 C 0 km/h
2680 24-06-2011 14:00:00 21.34 C 5.98 g/m*3 21.34 C 0 km/h
2681 24-06-2011 15:00:00 18.54 C 5.77 g/m*3 18.54 C 0 km/h
2682 24-06-2011 16:00:00 19.62 C 6.86 g/m*3 19.62 C 0 km/h
2683 24-06-2011 17:00:00 17.68 C 5.85 g/m*3 17.68 C 0 km/h
2684 24-06-2011 18:00:00 16.86 C 5.74 g/m*3 16.86 C 0 km/h
2685 24-06-2011 19:00:00 16.88 C 7.07 g/m*3 16.88 C 0 km/h
2686 24-06-2011 20:00:00 15.26 C 7.66 g/m*3 15.26 C 0 km/h
2687 24-06-2011 21:00:00 13.08 C 8.07 g/m*3 13.08 C 0 km/h
2688 24-06-2011 22:00:00 11.16 C 7.79 g/m*3 11.16 C 0 km/h
2689 24-06-2011 23:00:00 10.58 C 7.95 g/m*3 10.58 C 0 km/h
2690 25-06-2011 00:00:00 11.14 C 8.34 g/m*3 11.14 C 0 km/h
2691 25-06-2011 01:00:00 11.02 C 8.3 g/m*3 11.02 C 0 km/h
2692 25-06-2011 02:00:00 10.94 C 8.38 g/m*3 10.94 C 0 km/h
2693 25-06-2011 03:00:00 11.14 C 8.48 g/m*3 11.14 C 0 km/h
2694 25-06-2011 04:00:00 10.94 C 8.38 g/m*3 10.94 C 0 km/h
2695 25-06-2011 05:00:00 10.4 C 8.25 g/m*3 10.4 C 0 km/h
2696 25-06-2011 06:00:00 11.28 C 8.56 g/m*3 11.28 C 0 km/h
2697 25-06-2011 07:00:00 12.66 C 8.46 g/m*3 12.66 C 0 km/h
2698 25-06-2011 08:00:00 14.08 C 8.24 g/m*3 14.08 C 0 km/h
2699 25-06-2011 09:00:00 13.98 C 8.12 g/m*3 13.98 C 0 km/h
2700 25-06-2011 10:00:00 13.1 C 8.47 g/m*3 13.1 C 0 km/h
Sensor: Nr:Datum:Temp:Abs-Feuchte:Windchill:Wind:
Aussen-T/F 2701 25-06-2011 11:00:00 12.8 C 8.31 g/m*3 12.8 C 0 km/h
2702 25-06-2011 12:00:00 14.74 C 8.51 g/m*3 14.74 C 0 km/h
2703 25-06-2011 13:00:00 15.22 C 8.42 g/m*3 15.22 C 0 km/h
2704 25-06-2011 14:00:00 14.46 C 8.68 g/m*3 14.46 C 0 km/h
2705 25-06-2011 15:00:00 14.24 C 9.18 g/m*3 14.24 C 0 km/h
2706 25-06-2011 16:00:00 14.54 C 9.95 g/m*3 14.54 C 0 km/h
2707 25-06-2011 17:00:00 15.24 C 10.17 g/m*3 15.24 C 0 km/h
2708 25-06-2011 18:00:00 15.26 C 10.14 g/m*3 15.26 C 0 km/h
2709 25-06-2011 19:00:00 15 C 10.26 g/m*3 15 C 0 km/h
2710 25-06-2011 20:00:00 15 C 10.26 g/m*3 15 C 0 km/h
2711 25-06-2011 21:00:00 15 C 10.26 g/m*3 15 C 0 km/h
2712 25-06-2011 22:00:00 15 C 10.26 g/m*3 15 C 0 km/h
2713 25-06-2011 23:00:00 15 C 10.26 g/m*3 15 C 0 km/h
2714 26-06-2011 00:00:00 15 C 10.26 g/m*3 15 C 0 km/h
2715 26-06-2011 01:00:00 15 C 10.26 g/m*3 15 C 0 km/h
2716 26-06-2011 02:00:00 15 C 10.26 g/m*3 15 C 0 km/h
2717 26-06-2011 03:00:00 15 C 10.26 g/m*3 15 C 0 km/h
2718 26-06-2011 04:00:00 15 C 10.26 g/m*3 15 C 0 km/h
2719 26-06-2011 05:00:00 15 C 10.26 g/m*3 15 C 0 km/h
2720 26-06-2011 06:00:00 15 C 10.26 g/m*3 15 C 0 km/h
2721 26-06-2011 07:00:00 15 C 10.26 g/m*3 15 C 0 km/h
2722 26-06-2011 08:00:00 15 C 10.26 g/m*3 15 C 0 km/h
2723 26-06-2011 09:00:00 15 C 10.26 g/m*3 15 C 0 km/h
2724 26-06-2011 10:00:00 15 C 10.26 g/m*3 15 C 0 km/h
2725 26-06-2011 11:00:00 15 C 10.26 g/m*3 15 C 0 km/h
Sensor: Nr:Datum:Temp:Abs-Feuchte:Windchill:Wind:
Aussen-T/F 2726 26-06-2011 12:00:00 15 C 10.26 g/m*3 15 C 0 km/h
2727 26-06-2011 13:00:00 15 C 10.26 g/m*3 15 C 0 km/h
2728 26-06-2011 14:00:00 15 C 10.26 g/m*3 15 C 0 km/h
2729 26-06-2011 15:00:00 15 C 10.26 g/m*3 15 C 0 km/h
2730 26-06-2011 16:00:00 15 C 10.26 g/m*3 15 C 0 km/h
2731 26-06-2011 17:00:00 15 C 10.26 g/m*3 15 C 0 km/h
2732 26-06-2011 18:00:00 15 C 10.26 g/m*3 15 C 0 km/h
2733 26-06-2011 19:00:00 15 C 10.26 g/m*3 15 C 0 km/h
2734 26-06-2011 20:00:00 15 C 10.26 g/m*3 15 C 0 km/h
2735 26-06-2011 21:00:00 15 C 10.26 g/m*3 15 C 0 km/h
2736 26-06-2011 22:00:00 15 C 10.26 g/m*3 15 C 0 km/h
2737 26-06-2011 23:00:00 15 C 10.26 g/m*3 15 C 0 km/h
2738 27-06-2011 00:00:00 15 C 10.26 g/m*3 15 C 0 km/h
2739 27-06-2011 01:00:00 15 C 10.26 g/m*3 15 C 0 km/h
2740 27-06-2011 02:00:00 15 C 10.26 g/m*3 15 C 0 km/h
2741 27-06-2011 03:00:00 15 C 10.26 g/m*3 15 C 0 km/h
2742 27-06-2011 04:00:00 15 C 10.26 g/m*3 15 C 0 km/h
2743 27-06-2011 05:00:00 15 C 10.26 g/m*3 15 C 0 km/h
2744 27-06-2011 06:00:00 15 C 10.26 g/m*3 15 C 0 km/h
2745 27-06-2011 07:00:00 15 C 10.26 g/m*3 15 C 0 km/h
2746 27-06-2011 08:00:00 15 C 10.26 g/m*3 15 C 0 km/h
2747 27-06-2011 09:00:00 15 C 10.26 g/m*3 15 C 0 km/h
2748 27-06-2011 10:00:00 15 C 10.26 g/m*3 15 C 0 km/h
2749 27-06-2011 11:00:00 15 C 10.26 g/m*3 15 C 0 km/h
2750 27-06-2011 12:00:00 15 C 10.26 g/m*3 15 C 0 km/h
Sensor: Nr:Datum:Temp:Abs-Feuchte:Windchill:Wind:
Aussen-T/F 2751 27-06-2011 13:00:00 15 C 10.26 g/m*3 15 C 0 km/h
2752 27-06-2011 14:00:00 15 C 10.26 g/m*3 15 C 0 km/h
2753 27-06-2011 15:00:00 15 C 10.26 g/m*3 15 C 0 km/h
2754 27-06-2011 16:00:00 15 C 10.26 g/m*3 15 C 0 km/h
2755 27-06-2011 17:00:00 15 C 10.26 g/m*3 15 C 0 km/h
2756 27-06-2011 18:00:00 25.48 C 9.27 g/m*3 25.48 C 0 km/h
2757 27-06-2011 19:00:00 32.12 C 10.46 g/m*3 32.12 C 0 km/h
2758 27-06-2011 20:00:00 27.5 C 12.43 g/m*3 27.5 C 0 km/h
2759 27-06-2011 21:00:00 24.38 C 12.32 g/m*3 24.38 C 0 km/h
2760 27-06-2011 22:00:00 22.64 C 12.73 g/m*3 22.64 C 0 km/h
2761 27-06-2011 23:00:00 21.64 C 12.28 g/m*3 21.64 C 0 km/h
2762 28-06-2011 00:00:00 20.8 C 11.84 g/m*3 20.8 C 0 km/h
2763 28-06-2011 01:00:00 19.98 C 11.74 g/m*3 19.98 C 0 km/h
2764 28-06-2011 02:00:00 18.72 C 11.77 g/m*3 18.72 C 0 km/h
2765 28-06-2011 03:00:00 17.82 C 11.55 g/m*3 17.82 C 0 km/h
2766 28-06-2011 04:00:00 16.94 C 11.42 g/m*3 16.94 C 0 km/h
2767 28-06-2011 05:00:00 16.26 C 11.29 g/m*3 16.26 C 0 km/h
2768 28-06-2011 06:00:00 17.08 C 11.92 g/m*3 17.08 C 0 km/h
2769 28-06-2011 07:00:00 18.02 C 12.36 g/m*3 18.02 C 0 km/h
2770 28-06-2011 08:00:00 19.96 C 12.62 g/m*3 19.96 C 0 km/h
2771 28-06-2011 09:00:00 22.34 C 12.51 g/m*3 22.34 C 0 km/h
2772 28-06-2011 10:00:00 25.52 C 12.56 g/m*3 25.52 C 0 km/h
2773 28-06-2011 11:00:00 29.28 C 11.02 g/m*3 29.28 C 0 km/h
2774 28-06-2011 12:00:00 29.88 C 10.24 g/m*3 29.88 C 0 km/h
2775 28-06-2011 13:00:00 32.64 C 8.94 g/m*3 32.64 C 0 km/h
Sensor: Nr:Datum:Temp:Abs-Feuchte:Windchill:Wind:
Aussen-T/F 2776 28-06-2011 14:00:00 34.58 C 7.74 g/m*3 34.58 C 0 km/h
2777 28-06-2011 15:00:00 34.7 C 7.78 g/m*3 34.7 C 0 km/h
2778 28-06-2011 16:00:00 35.3 C 8.03 g/m*3 35.3 C 0 km/h
2779 28-06-2011 17:00:00 34.96 C 7.89 g/m*3 34.96 C 0 km/h
2780 28-06-2011 18:00:00 34.12 C 7.55 g/m*3 34.12 C 0 km/h
2781 28-06-2011 19:00:00 33.18 C 7.76 g/m*3 33.18 C 0 km/h
2782 28-06-2011 20:00:00 27.44 C 9.18 g/m*3 27.44 C 0 km/h
2783 28-06-2011 21:00:00 24.72 C 8.7 g/m*3 24.72 C 0 km/h
2784 28-06-2011 22:00:00 22.32 C 9.69 g/m*3 22.32 C 0 km/h
2785 28-06-2011 23:00:00 21.4 C 9.79 g/m*3 21.4 C 0 km/h
2786 29-06-2011 00:00:00 21.1 C 10.17 g/m*3 21.1 C 0 km/h
2787 29-06-2011 01:00:00 20.64 C 10.62 g/m*3 20.64 C 0 km/h
2788 29-06-2011 02:00:00 22.56 C 11.66 g/m*3 22.56 C 0 km/h
2789 29-06-2011 03:00:00 22.8 C 12.15 g/m*3 22.8 C 0 km/h
2790 29-06-2011 04:00:00 21.46 C 12.19 g/m*3 21.46 C 0 km/h
2791 29-06-2011 05:00:00 21.8 C 12.05 g/m*3 21.8 C 0 km/h
2792 29-06-2011 06:00:00 21.4 C 12.04 g/m*3 21.4 C 0 km/h
2793 29-06-2011 07:00:00 21.84 C 12.58 g/m*3 21.84 C 0 km/h
2794 29-06-2011 08:00:00 23.48 C 12.29 g/m*3 23.48 C 0 km/h
2795 29-06-2011 09:00:00 24.18 C 12.13 g/m*3 24.18 C 0 km/h
2796 29-06-2011 10:00:00 24.22 C 12.29 g/m*3 24.22 C 0 km/h
2797 29-06-2011 11:00:00 23.98 C 12.39 g/m*3 23.98 C 0 km/h
2798 29-06-2011 12:00:00 24.82 C 11.94 g/m*3 24.82 C 0 km/h
2799 29-06-2011 13:00:00 25.72 C 12.03 g/m*3 25.72 C 0 km/h
2800 29-06-2011 14:00:00 20.96 C 11.08 g/m*3 20.96 C 0 km/h
Sensor: Nr:Datum:Temp:Abs-Feuchte:Windchill:Wind:
Aussen-T/F 2801 29-06-2011 15:00:00 18.52 C 10.99 g/m*3 18.52 C 0 km/h
2802 29-06-2011 16:00:00 17.52 C 11.19 g/m*3 17.52 C 0 km/h
2803 29-06-2011 17:00:00 17.46 C 10.68 g/m*3 17.46 C 0 km/h
2804 29-06-2011 18:00:00 17.02 C 10.4 g/m*3 17.02 C 0 km/h
2805 29-06-2011 19:00:00 17.02 C 10.14 g/m*3 17.02 C 0 km/h
2806 29-06-2011 20:00:00 16.76 C 10.5 g/m*3 16.76 C 0 km/h
2807 29-06-2011 21:00:00 16.5 C 10.7 g/m*3 16.5 C 0 km/h
2808 29-06-2011 22:00:00 16.42 C 10.87 g/m*3 16.42 C 0 km/h
2809 29-06-2011 23:00:00 16.7 C 10.35 g/m*3 16.7 C 0 km/h
2810 30-06-2011 00:00:00 16.6 C 9.69 g/m*3 16.6 C 0 km/h
2811 30-06-2011 01:00:00 16.38 C 9.2 g/m*3 16.38 C 0 km/h
2812 30-06-2011 02:00:00 15.92 C 8.81 g/m*3 15.92 C 0 km/h
2813 30-06-2011 03:00:00 15.32 C 8.18 g/m*3 15.32 C 0 km/h
2814 30-06-2011 04:00:00 14.74 C 8.13 g/m*3 14.74 C 0 km/h
2815 30-06-2011 05:00:00 13.8 C 7.72 g/m*3 13.8 C 0 km/h
2816 30-06-2011 06:00:00 12.5 C 7.83 g/m*3 12.5 C 0 km/h
2817 30-06-2011 07:00:00 13.28 C 8.05 g/m*3 13.28 C 0 km/h
2818 30-06-2011 08:00:00 15.04 C 7.12 g/m*3 15.04 C 0 km/h
2819 30-06-2011 09:00:00 15.84 C 6.99 g/m*3 15.84 C 0 km/h
2820 30-06-2011 10:00:00 16.86 C 6.37 g/m*3 16.86 C 0 km/h
2821 30-06-2011 11:00:00 18.34 C 5.92 g/m*3 18.34 C 0 km/h
2822 30-06-2011 12:00:00 18.84 C 5.84 g/m*3 18.84 C 0 km/h
2823 30-06-2011 13:00:00 22.42 C 5.45 g/m*3 22.42 C 0 km/h
2824 30-06-2011 14:00:00 25.04 C 4.61 g/m*3 25.04 C 0 km/h
2825 30-06-2011 15:00:00 23.66 C 4.52 g/m*3 23.66 C 0 km/h
Sensor: Nr:Datum:Temp:Abs-Feuchte:Windchill:Wind:
Aussen-T/F 2826 30-06-2011 16:00:00 23.18 C 5.03 g/m*3 23.18 C 0 km/h
2827 30-06-2011 17:00:00 22.9 C 5.15 g/m*3 22.9 C 0 km/h
2828 30-06-2011 18:00:00 21.2 C 5.3 g/m*3 21.2 C 0 km/h
2829 30-06-2011 19:00:00 22.88 C 4.7 g/m*3 22.88 C 0 km/h
2830 30-06-2011 20:00:00 18.44 C 5.99 g/m*3 18.44 C 0 km/h
2831 30-06-2011 21:00:00 16.54 C 6.39 g/m*3 16.54 C 0 km/h
2832 30-06-2011 22:00:00 16.42 C 6.71 g/m*3 16.42 C 0 km/h
2833 30-06-2011 23:00:00 14.14 C 7.64 g/m*3 14.14 C 0 km/h
2834 01-07-2011 00:00:00 12.2 C 8.89 g/m*3 12.2 C 0 km/h
2835 01-07-2011 01:00:00 11.64 C 8.88 g/m*3 11.64 C 0 km/h
2836 01-07-2011 02:00:00 11.42 C 8.98 g/m*3 11.42 C 0 km/h
2837 01-07-2011 03:00:00 11.78 C 9.25 g/m*3 11.78 C 0 km/h
2838 01-07-2011 04:00:00 11.3 C 8.98 g/m*3 11.3 C 0 km/h
2839 01-07-2011 05:00:00 10.4 C 8.5 g/m*3 10.4 C 0 km/h
2840 01-07-2011 06:00:00 10.84 C 8.72 g/m*3 10.84 C 0 km/h
2841 01-07-2011 07:00:00 11.72 C 8.69 g/m*3 11.72 C 0 km/h
2842 01-07-2011 08:00:00 12.04 C 8.01 g/m*3 12.04 C 0 km/h
2843 01-07-2011 09:00:00 11.5 C 8.51 g/m*3 11.5 C 0 km/h
2844 01-07-2011 10:00:00 14.1 C 8.11 g/m*3 14.1 C 0 km/h
2845 01-07-2011 11:00:00 15.6 C 7.08 g/m*3 15.6 C 0 km/h
2846 01-07-2011 12:00:00 16.42 C 6.65 g/m*3 16.42 C 0 km/h
2847 01-07-2011 13:00:00 18.52 C 6.91 g/m*3 18.52 C 0 km/h
2848 01-07-2011 14:00:00 19.82 C 5.88 g/m*3 19.82 C 0 km/h
2849 01-07-2011 15:00:00 24.52 C 5.78 g/m*3 24.52 C 0 km/h
2850 01-07-2011 16:00:00 22.96 C 5.33 g/m*3 22.96 C 0 km/h
Sensor: Nr:Datum:Temp:Abs-Feuchte:Windchill:Wind:
Aussen-T/F 2851 01-07-2011 17:00:00 21.66 C 6.28 g/m*3 21.66 C 0 km/h
2852 01-07-2011 18:00:00 22.78 C 5.48 g/m*3 22.78 C 0 km/h
2853 01-07-2011 19:00:00 17.72 C 5.74 g/m*3 17.72 C 0 km/h
2854 01-07-2011 20:00:00 15.9 C 6.39 g/m*3 15.9 C 0 km/h
2855 01-07-2011 21:00:00 14.4 C 6.95 g/m*3 14.4 C 0 km/h
2856 01-07-2011 22:00:00 12.4 C 7.17 g/m*3 12.4 C 0 km/h
2857 01-07-2011 23:00:00 11.12 C 7.66 g/m*3 11.12 C 0 km/h
2858 02-07-2011 00:00:00 10.38 C 7.58 g/m*3 10.38 C 0 km/h
2859 02-07-2011 01:00:00 9.72 C 7.72 g/m*3 9.72 C 0 km/h
2860 02-07-2011 02:00:00 9.04 C 7.55 g/m*3 9.04 C 0 km/h
2861 02-07-2011 03:00:00 8.56 C 7.51 g/m*3 8.56 C 0 km/h
2862 02-07-2011 04:00:00 9.38 C 7.86 g/m*3 9.38 C 0 km/h
2863 02-07-2011 05:00:00 8.42 C 7.42 g/m*3 8.42 C 0 km/h
2864 02-07-2011 06:00:00 9.1 C 7.81 g/m*3 9.1 C 0 km/h
2865 02-07-2011 07:00:00 10.7 C 8.03 g/m*3 10.7 C 0 km/h
2866 02-07-2011 08:00:00 13.14 C 7.78 g/m*3 13.14 C 0 km/h
2867 02-07-2011 09:00:00 14.44 C 6.99 g/m*3 14.44 C 0 km/h
2868 02-07-2011 10:00:00 16.38 C 6.38 g/m*3 16.38 C 0 km/h
2869 02-07-2011 11:00:00 15.36 C 6.4 g/m*3 15.36 C 0 km/h
2870 02-07-2011 12:00:00 16.38 C 6.19 g/m*3 16.38 C 0 km/h
2871 02-07-2011 13:00:00 17.72 C 5.65 g/m*3 17.72 C 0 km/h
2872 02-07-2011 14:00:00 20.86 C 5.78 g/m*3 20.86 C 0 km/h
2873 02-07-2011 15:00:00 21.28 C 5.44 g/m*3 21.28 C 0 km/h
2874 02-07-2011 16:00:00 19.46 C 5.29 g/m*3 19.46 C 0 km/h
2875 02-07-2011 17:00:00 18.78 C 5.4 g/m*3 18.78 C 0 km/h
Sensor: Nr:Datum:Temp:Abs-Feuchte:Windchill:Wind:
Aussen-T/F 2876 02-07-2011 18:00:00 20.34 C 5.54 g/m*3 20.34 C 0 km/h
2877 02-07-2011 19:00:00 18.16 C 5.68 g/m*3 18.16 C 0 km/h
2878 02-07-2011 20:00:00 17.04 C 5.92 g/m*3 17.04 C 0 km/h
2879 02-07-2011 21:00:00 15.86 C 6.27 g/m*3 15.86 C 0 km/h
2880 02-07-2011 22:00:00 14.9 C 6.53 g/m*3 14.9 C 0 km/h
2881 02-07-2011 23:00:00 14.94 C 6.44 g/m*3 14.94 C 0 km/h
2882 03-07-2011 00:00:00 14.44 C 6.64 g/m*3 14.44 C 0 km/h
2883 03-07-2011 01:00:00 14.16 C 6.87 g/m*3 14.16 C 0 km/h
2884 03-07-2011 02:00:00 13.72 C 7.04 g/m*3 13.72 C 0 km/h
2885 03-07-2011 03:00:00 13.36 C 6.86 g/m*3 13.36 C 0 km/h
2886 03-07-2011 04:00:00 13 C 6.8 g/m*3 13 C 0 km/h
2887 03-07-2011 05:00:00 12.9 C 6.76 g/m*3 12.9 C 0 km/h
2888 03-07-2011 06:00:00 12.88 C 6.82 g/m*3 12.88 C 0 km/h
2889 03-07-2011 07:00:00 12.62 C 7.09 g/m*3 12.62 C 0 km/h
2890 03-07-2011 08:00:00 12.6 C 7.08 g/m*3 12.6 C 0 km/h
2891 03-07-2011 09:00:00 12.6 C 7.08 g/m*3 12.6 C 0 km/h
2892 03-07-2011 10:00:00 12.6 C 7.08 g/m*3 12.6 C 0 km/h
2893 03-07-2011 14:00:00 20.16667 C 5.93 g/m*3 20.17 C 0 km/h
2894 03-07-2011 15:00:00 22.56 C 5.85 g/m*3 22.56 C 0 km/h
2895 03-07-2011 16:00:00 25.82 C 5.64 g/m*3 25.82 C 0 km/h
2896 03-07-2011 17:00:00 24.94 C 5.74 g/m*3 24.94 C 0 km/h
2897 03-07-2011 18:00:00 25.02 C 5.9 g/m*3 25.02 C 0 km/h
2898 03-07-2011 19:00:00 22.56 C 6.37 g/m*3 22.56 C 0 km/h
2899 03-07-2011 20:00:00 18.32 C 7.04 g/m*3 18.32 C 0 km/h
2900 03-07-2011 21:00:00 16.46 C 7.54 g/m*3 16.46 C 0 km/h
Sensor: Nr:Datum:Temp:Abs-Feuchte:Windchill:Wind:
Aussen-T/F 2901 03-07-2011 22:00:00 16.2 C 7.58 g/m*3 16.2 C 0 km/h
2902 03-07-2011 23:00:00 16.2 C 7.58 g/m*3 16.2 C 0 km/h
2903 04-07-2011 00:00:00 16.2 C 7.58 g/m*3 16.2 C 0 km/h
2904 04-07-2011 01:00:00 16.2 C 7.58 g/m*3 16.2 C 0 km/h
2905 04-07-2011 02:00:00 16.2 C 7.58 g/m*3 16.2 C 0 km/h
2906 04-07-2011 03:00:00 16.2 C 7.58 g/m*3 16.2 C 0 km/h
2907 04-07-2011 04:00:00 16.2 C 7.58 g/m*3 16.2 C 0 km/h
2908 04-07-2011 05:00:00 16.2 C 7.58 g/m*3 16.2 C 0 km/h
2909 04-07-2011 06:00:00 16.2 C 7.58 g/m*3 16.2 C 0 km/h
2910 04-07-2011 07:00:00 16.2 C 7.58 g/m*3 16.2 C 0 km/h
2911 05-07-2011 08:00:00 12.88 C 9.48 g/m*3 12.88 C 0 km/h
2912 05-07-2011 09:00:00 15.16 C 9.81 g/m*3 15.16 C 0 km/h
2913 05-07-2011 10:00:00 17.7 C 9.66 g/m*3 17.7 C 0 km/h
2914 05-07-2011 11:00:00 21.18 C 9.55 g/m*3 21.18 C 0 km/h
2915 05-07-2011 12:00:00 22.98 C 9.2 g/m*3 22.98 C 0 km/h
2916 05-07-2011 13:00:00 27.46 C 8.13 g/m*3 27.46 C 0 km/h
2917 05-07-2011 14:00:00 32.34 C 6.87 g/m*3 32.34 C 0 km/h
2918 05-07-2011 15:00:00 32.24 C 6.84 g/m*3 32.24 C 0 km/h
2919 05-07-2011 16:00:00 31.86 C 7.1 g/m*3 31.86 C 0 km/h
2920 05-07-2011 17:00:00 30.92 C 8.09 g/m*3 30.92 C 0 km/h
2921 05-07-2011 18:00:00 30.5 C 8.35 g/m*3 30.5 C 0 km/h
2922 05-07-2011 19:00:00 29.84 C 9.08 g/m*3 29.84 C 0 km/h
2923 05-07-2011 20:00:00 25.02 C 10.37 g/m*3 25.02 C 0 km/h
2924 05-07-2011 21:00:00 21.64 C 10.23 g/m*3 21.64 C 0 km/h
2925 05-07-2011 22:00:00 20.22 C 10.26 g/m*3 20.22 C 0 km/h
Sensor: Nr:Datum:Temp:Abs-Feuchte:Windchill:Wind:
Aussen-T/F 2926 05-07-2011 23:00:00 19.02 C 10.44 g/m*3 19.02 C 0 km/h
2927 06-07-2011 00:00:00 17.22 C 10.53 g/m*3 17.22 C 0 km/h
2928 06-07-2011 01:00:00 16.42 C 10.42 g/m*3 16.42 C 0 km/h
2929 06-07-2011 02:00:00 15.3 C 10.06 g/m*3 15.3 C 0 km/h
2930 06-07-2011 03:00:00 14.72 C 9.76 g/m*3 14.72 C 0 km/h
2931 06-07-2011 04:00:00 14.7 C 9.29 g/m*3 14.7 C 0 km/h
2932 06-07-2011 05:00:00 14.26 C 9.24 g/m*3 14.26 C 0 km/h
2933 06-07-2011 06:00:00 15.38 C 9.63 g/m*3 15.38 C 0 km/h
2934 06-07-2011 07:00:00 15.64 C 10.19 g/m*3 15.64 C 0 km/h
2935 06-07-2011 08:00:00 16.7 C 9.83 g/m*3 16.7 C 0 km/h
2936 06-07-2011 09:00:00 18.74 C 9.18 g/m*3 18.74 C 0 km/h
2937 06-07-2011 10:00:00 22.88 C 8.21 g/m*3 22.88 C 0 km/h
2938 06-07-2011 11:00:00 23.48 C 8.07 g/m*3 23.48 C 0 km/h
2939 06-07-2011 12:00:00 23.6 C 7.49 g/m*3 23.6 C 0 km/h
2940 06-07-2011 13:00:00 26.14 C 6.87 g/m*3 26.14 C 0 km/h
2941 06-07-2011 14:00:00 26.92 C 6.61 g/m*3 26.92 C 0 km/h
2942 06-07-2011 15:00:00 24.22 C 6.74 g/m*3 24.22 C 0 km/h
2943 06-07-2011 16:00:00 27.92 C 6.55 g/m*3 27.92 C 0 km/h
2944 06-07-2011 17:00:00 27.08 C 6.46 g/m*3 27.08 C 0 km/h
2945 06-07-2011 18:00:00 26.46 C 6.49 g/m*3 26.46 C 0 km/h
2946 06-07-2011 19:00:00 27.22 C 6.2 g/m*3 27.22 C 0 km/h
2947 06-07-2011 20:00:00 22.22 C 7.86 g/m*3 22.22 C 0 km/h
2948 06-07-2011 21:00:00 19.84 C 8.18 g/m*3 19.84 C 0 km/h
2949 06-07-2011 22:00:00 17 C 8.36 g/m*3 17 C 0 km/h
2950 06-07-2011 23:00:00 15.38 C 8.63 g/m*3 15.38 C 0 km/h
Sensor: Nr:Datum:Temp:Abs-Feuchte:Windchill:Wind:
Aussen-T/F 2951 07-07-2011 00:00:00 15.6 C 8.91 g/m*3 15.6 C 0 km/h
2952 07-07-2011 01:00:00 13.7 C 8.62 g/m*3 13.7 C 0 km/h
2953 07-07-2011 02:00:00 13.98 C 8.72 g/m*3 13.98 C 0 km/h
2954 07-07-2011 03:00:00 14.24 C 9.13 g/m*3 14.24 C 0 km/h
2955 07-07-2011 04:00:00 14.1 C 9.59 g/m*3 14.1 C 0 km/h
2956 07-07-2011 05:00:00 13.52 C 9.74 g/m*3 13.52 C 0 km/h
2957 07-07-2011 06:00:00 13.8 C 10.2 g/m*3 13.8 C 0 km/h
2958 07-07-2011 07:00:00 15.02 C 10.35 g/m*3 15.02 C 0 km/h
2959 07-07-2011 08:00:00 17.34 C 9.54 g/m*3 17.34 C 0 km/h
2960 07-07-2011 09:00:00 18.38 C 9.52 g/m*3 18.38 C 0 km/h
2961 07-07-2011 10:00:00 20.34 C 8.39 g/m*3 20.34 C 0 km/h
2962 07-07-2011 11:00:00 22.84 C 7.13 g/m*3 22.84 C 0 km/h
2963 07-07-2011 12:00:00 23.98 C 6.17 g/m*3 23.98 C 0 km/h
2964 07-07-2011 13:00:00 26.28 C 6.28 g/m*3 26.28 C 0 km/h
2965 07-07-2011 14:00:00 26.46 C 6.09 g/m*3 26.46 C 0 km/h
2966 07-07-2011 15:00:00 26.36 C 6.21 g/m*3 26.36 C 0 km/h
2967 07-07-2011 16:00:00 24.72 C 6.71 g/m*3 24.72 C 0 km/h
2968 07-07-2011 17:00:00 23.66 C 7.68 g/m*3 23.66 C 0 km/h
2969 07-07-2011 18:00:00 23.48 C 7.22 g/m*3 23.48 C 0 km/h
2970 07-07-2011 19:00:00 22.16 C 8.74 g/m*3 22.16 C 0 km/h
2971 07-07-2011 20:00:00 21 C 8.35 g/m*3 21 C 0 km/h
2972 07-07-2011 21:00:00 20.32 C 8.59 g/m*3 20.32 C 0 km/h
2973 07-07-2011 22:00:00 18.78 C 8.94 g/m*3 18.78 C 0 km/h
2974 07-07-2011 23:00:00 18.44 C 8.83 g/m*3 18.44 C 0 km/h
2975 08-07-2011 00:00:00 17.3 C 9.02 g/m*3 17.3 C 0 km/h
Sensor: Nr:Datum:Temp:Abs-Feuchte:Windchill:Wind:
Aussen-T/F 2976 08-07-2011 01:00:00 17.36 C 9.08 g/m*3 17.36 C 0 km/h
2977 08-07-2011 02:00:00 17.02 C 9.1 g/m*3 17.02 C 0 km/h
2978 08-07-2011 03:00:00 16.8 C 9.29 g/m*3 16.8 C 0 km/h
2979 08-07-2011 04:00:00 15.22 C 10.16 g/m*3 15.22 C 0 km/h
2980 08-07-2011 05:00:00 14.48 C 10.61 g/m*3 14.48 C 0 km/h
2981 08-07-2011 06:00:00 13.76 C 10.32 g/m*3 13.76 C 0 km/h
2982 08-07-2011 07:00:00 14.58 C 10.2 g/m*3 14.58 C 0 km/h
2983 08-07-2011 08:00:00 16.48 C 9.68 g/m*3 16.48 C 0 km/h
2984 08-07-2011 09:00:00 17.82 C 8.6 g/m*3 17.82 C 0 km/h
2985 08-07-2011 10:00:00 19.2 C 8.01 g/m*3 19.2 C 0 km/h
2986 08-07-2011 11:00:00 20.18 C 6.92 g/m*3 20.18 C 0 km/h
2987 08-07-2011 12:00:00 21 C 6.81 g/m*3 21 C 0 km/h
2988 08-07-2011 13:00:00 24.44 C 6.65 g/m*3 24.44 C 0 km/h
2989 08-07-2011 14:00:00 25.22 C 5.87 g/m*3 25.22 C 0 km/h
2990 08-07-2011 15:00:00 25.36 C 6.2 g/m*3 25.36 C 0 km/h
2991 08-07-2011 16:00:00 25.62 C 6.05 g/m*3 25.62 C 0 km/h
2992 08-07-2011 17:00:00 26.38 C 5.52 g/m*3 26.38 C 0 km/h
2993 08-07-2011 18:00:00 27.62 C 5.33 g/m*3 27.62 C 0 km/h
2994 08-07-2011 19:00:00 25.82 C 5.06 g/m*3 25.82 C 0 km/h
2995 08-07-2011 20:00:00 22.64 C 6.97 g/m*3 22.64 C 0 km/h
2996 08-07-2011 21:00:00 19.32 C 7.94 g/m*3 19.32 C 0 km/h
2997 08-07-2011 22:00:00 17.86 C 7.68 g/m*3 17.86 C 0 km/h
2998 08-07-2011 23:00:00 16.68 C 7.89 g/m*3 16.68 C 0 km/h
2999 09-07-2011 00:00:00 16.1 C 8.25 g/m*3 16.1 C 0 km/h
3000 09-07-2011 01:00:00 15.54 C 8.27 g/m*3 15.54 C 0 km/h
Sensor: Nr:Datum:Temp:Abs-Feuchte:Windchill:Wind:
Aussen-T/F 3001 09-07-2011 02:00:00 14.92 C 8.32 g/m*3 14.92 C 0 km/h
3002 09-07-2011 03:00:00 13.98 C 8.38 g/m*3 13.98 C 0 km/h
3003 09-07-2011 04:00:00 13.98 C 8.53 g/m*3 13.98 C 0 km/h
3004 09-07-2011 05:00:00 14.48 C 8.94 g/m*3 14.48 C 0 km/h
3005 09-07-2011 06:00:00 15.26 C 9.2 g/m*3 15.26 C 0 km/h
3006 09-07-2011 07:00:00 16.32 C 9.47 g/m*3 16.32 C 0 km/h
3007 09-07-2011 08:00:00 18.72 C 9.17 g/m*3 18.72 C 0 km/h
3008 09-07-2011 09:00:00 22 C 8.73 g/m*3 22 C 0 km/h
3009 09-07-2011 10:00:00 24.38 C 7.87 g/m*3 24.38 C 0 km/h
3010 09-07-2011 11:00:00 25.2 C 7.17 g/m*3 25.2 C 0 km/h
3011 09-07-2011 12:00:00 25.32 C 7.17 g/m*3 25.32 C 0 km/h
3012 09-07-2011 13:00:00 28.02 C 6.53 g/m*3 28.02 C 0 km/h
3013 09-07-2011 14:00:00 29.46 C 5.95 g/m*3 29.46 C 0 km/h
3014 09-07-2011 15:00:00 29.48 C 5.9 g/m*3 29.48 C 0 km/h
3015 09-07-2011 16:00:00 29.52 C 5.91 g/m*3 29.52 C 0 km/h
3016 09-07-2011 17:00:00 28.96 C 5.73 g/m*3 28.96 C 0 km/h
3017 09-07-2011 18:00:00 27.52 C 5.56 g/m*3 27.52 C 0 km/h
3018 09-07-2011 19:00:00 23.36 C 8.1 g/m*3 23.36 C 0 km/h
3019 09-07-2011 20:00:00 21.68 C 8.5 g/m*3 21.68 C 0 km/h
3020 09-07-2011 21:00:00 20.42 C 8.61 g/m*3 20.42 C 0 km/h
3021 09-07-2011 22:00:00 19.22 C 8.58 g/m*3 19.22 C 0 km/h
3022 09-07-2011 23:00:00 16.9 C 8.77 g/m*3 16.9 C 0 km/h
3023 10-07-2011 00:00:00 16.08 C 8.87 g/m*3 16.08 C 0 km/h
3024 10-07-2011 01:00:00 14.86 C 8.98 g/m*3 14.86 C 0 km/h
3025 10-07-2011 02:00:00 13.86 C 8.85 g/m*3 13.86 C 0 km/h
Sensor: Nr:Datum:Temp:Abs-Feuchte:Windchill:Wind:
Aussen-T/F 3026 10-07-2011 03:00:00 14.3 C 9.07 g/m*3 14.3 C 0 km/h
3027 10-07-2011 04:00:00 14.04 C 8.83 g/m*3 14.04 C 0 km/h
3028 10-07-2011 05:00:00 12.88 C 9.16 g/m*3 12.88 C 0 km/h
3029 10-07-2011 06:00:00 12.88 C 9.25 g/m*3 12.88 C 0 km/h
3030 10-07-2011 07:00:00 13.92 C 9.6 g/m*3 13.92 C 0 km/h
3031 10-07-2011 08:00:00 14.6 C 9.81 g/m*3 14.6 C 0 km/h
3032 10-07-2011 09:00:00 17 C 9.52 g/m*3 17 C 0 km/h
3033 10-07-2011 10:00:00 20.38 C 8.34 g/m*3 20.38 C 0 km/h
3034 10-07-2011 11:00:00 22.94 C 6.19 g/m*3 22.94 C 0 km/h
3035 10-07-2011 12:00:00 24.7 C 5.52 g/m*3 24.7 C 0 km/h
3036 10-07-2011 13:00:00 26.68 C 5.31 g/m*3 26.68 C 0 km/h
3037 10-07-2011 14:00:00 26.34 C 5.16 g/m*3 26.34 C 0 km/h
3038 10-07-2011 15:00:00 25.42 C 5.85 g/m*3 25.42 C 0 km/h
3039 10-07-2011 16:00:00 21.98 C 9.11 g/m*3 21.98 C 0 km/h
3040 10-07-2011 17:00:00 21.9 C 9.34 g/m*3 21.9 C 0 km/h
3041 10-07-2011 18:00:00 21.38 C 9.44 g/m*3 21.38 C 0 km/h
3042 10-07-2011 19:00:00 18.56 C 10.38 g/m*3 18.56 C 0 km/h
3043 10-07-2011 20:00:00 16.6 C 11.13 g/m*3 16.6 C 0 km/h
3044 10-07-2011 21:00:00 16.12 C 11.25 g/m*3 16.12 C 0 km/h
3045 10-07-2011 22:00:00 15.28 C 10.62 g/m*3 15.28 C 0 km/h
3046 10-07-2011 23:00:00 14.78 C 10.6 g/m*3 14.78 C 0 km/h
3047 11-07-2011 00:00:00 14.84 C 10.87 g/m*3 14.84 C 0 km/h
3048 11-07-2011 01:00:00 14.54 C 10.82 g/m*3 14.54 C 0 km/h
3049 11-07-2011 02:00:00 14.46 C 10.82 g/m*3 14.46 C 0 km/h
3050 11-07-2011 03:00:00 13.66 C 10.37 g/m*3 13.66 C 0 km/h
Sensor: Nr:Datum:Temp:Abs-Feuchte:Windchill:Wind:
Aussen-T/F 3051 11-07-2011 04:00:00 13.06 C 10.04 g/m*3 13.06 C 0 km/h
3052 11-07-2011 05:00:00 13 C 10.09 g/m*3 13 C 0 km/h
3053 11-07-2011 06:00:00 14.02 C 10.75 g/m*3 14.02 C 0 km/h
3054 11-07-2011 07:00:00 15.22 C 10.5 g/m*3 15.22 C 0 km/h
3055 11-07-2011 08:00:00 15.92 C 10.33 g/m*3 15.92 C 0 km/h
3056 11-07-2011 09:00:00 17.58 C 9.89 g/m*3 17.58 C 0 km/h
3057 11-07-2011 10:00:00 18.66 C 9.97 g/m*3 18.66 C 0 km/h
3058 11-07-2011 11:00:00 21.08 C 8.1 g/m*3 21.08 C 0 km/h
3059 11-07-2011 12:00:00 23.04 C 7.79 g/m*3 23.04 C 0 km/h
3060 11-07-2011 13:00:00 27.16 C 7.22 g/m*3 27.16 C 0 km/h
3061 11-07-2011 14:00:00 28.7 C 6.89 g/m*3 28.7 C 0 km/h
3062 11-07-2011 15:00:00 29.72 C 6.33 g/m*3 29.72 C 0 km/h
3063 11-07-2011 16:00:00 31.54 C 6.72 g/m*3 31.54 C 0 km/h
3064 11-07-2011 17:00:00 32 C 6.75 g/m*3 32 C 0 km/h
3065 11-07-2011 18:00:00 31.66 C 6.63 g/m*3 31.66 C 0 km/h
3066 11-07-2011 19:00:00 29.5 C 6.2 g/m*3 29.5 C 0 km/h
3067 11-07-2011 20:00:00 24.72 C 7.79 g/m*3 24.72 C 0 km/h
3068 11-07-2011 21:00:00 21.1 C 8.29 g/m*3 21.1 C 0 km/h
3069 11-07-2011 22:00:00 19.1 C 8.23 g/m*3 19.1 C 0 km/h
3070 11-07-2011 23:00:00 17.42 C 8.34 g/m*3 17.42 C 0 km/h
3071 12-07-2011 00:00:00 15.54 C 8.53 g/m*3 15.54 C 0 km/h
3072 12-07-2011 01:00:00 14.44 C 8.65 g/m*3 14.44 C 0 km/h
3073 12-07-2011 02:00:00 13.44 C 8.65 g/m*3 13.44 C 0 km/h
3074 12-07-2011 03:00:00 12.66 C 8.57 g/m*3 12.66 C 0 km/h
3075 12-07-2011 04:00:00 12.02 C 8.62 g/m*3 12.02 C 0 km/h
Sensor: Nr:Datum:Temp:Abs-Feuchte:Windchill:Wind:
Aussen-T/F 3076 12-07-2011 05:00:00 11.7 C 8.79 g/m*3 11.7 C 0 km/h
3077 12-07-2011 06:00:00 11.9 C 9.04 g/m*3 11.9 C 0 km/h
3078 12-07-2011 07:00:00 12.7 C 9.53 g/m*3 12.7 C 0 km/h
3079 12-07-2011 08:00:00 15.28 C 10.41 g/m*3 15.28 C 0 km/h
3080 12-07-2011 09:00:00 19.62 C 9.97 g/m*3 19.62 C 0 km/h
3081 12-07-2011 10:00:00 25.08 C 8.74 g/m*3 25.08 C 0 km/h
3082 12-07-2011 11:00:00 27.52 C 7.42 g/m*3 27.52 C 0 km/h
3083 12-07-2011 12:00:00 27.72 C 6.96 g/m*3 27.72 C 0 km/h
3084 12-07-2011 13:00:00 30.48 C 6.91 g/m*3 30.48 C 0 km/h
3085 12-07-2011 14:00:00 32.42 C 6.9 g/m*3 32.42 C 0 km/h
3086 12-07-2011 15:00:00 29.96 C 6.84 g/m*3 29.96 C 0 km/h
3087 12-07-2011 16:00:00 28.78 C 7.72 g/m*3 28.78 C 0 km/h
3088 12-07-2011 17:00:00 21.06 C 12.39 g/m*3 21.06 C 0 km/h
3089 12-07-2011 18:00:00 20.22 C 13.2 g/m*3 20.22 C 0 km/h
3090 12-07-2011 19:00:00 21.32 C 13.4 g/m*3 21.32 C 0 km/h
3091 12-07-2011 20:00:00 21 C 12.24 g/m*3 21 C 0 km/h
3092 12-07-2011 21:00:00 18.62 C 12.49 g/m*3 18.62 C 0 km/h
3093 12-07-2011 22:00:00 17.28 C 12.48 g/m*3 17.28 C 0 km/h
3094 12-07-2011 23:00:00 16.82 C 12.42 g/m*3 16.82 C 0 km/h
3095 13-07-2011 00:00:00 16.58 C 12.42 g/m*3 16.58 C 0 km/h
3096 13-07-2011 01:00:00 16.14 C 12.09 g/m*3 16.14 C 0 km/h
3097 13-07-2011 02:00:00 15.72 C 11.92 g/m*3 15.72 C 0 km/h
3098 13-07-2011 03:00:00 15.4 C 11.69 g/m*3 15.4 C 0 km/h
3099 13-07-2011 04:00:00 15.12 C 11.5 g/m*3 15.12 C 0 km/h
3100 13-07-2011 05:00:00 15.96 C 12.1 g/m*3 15.96 C 0 km/h
Sensor: Nr:Datum:Temp:Abs-Feuchte:Windchill:Wind:
Aussen-T/F 3101 13-07-2011 06:00:00 16.58 C 12.67 g/m*3 16.58 C 0 km/h
3102 13-07-2011 07:00:00 16.88 C 12.87 g/m*3 16.88 C 0 km/h
3103 13-07-2011 08:00:00 16.94 C 12.6 g/m*3 16.94 C 0 km/h
3104 13-07-2011 09:00:00 16.92 C 11.64 g/m*3 16.92 C 0 km/h
3105 13-07-2011 10:00:00 16.72 C 10.76 g/m*3 16.72 C 0 km/h
3106 13-07-2011 11:00:00 16.98 C 10.17 g/m*3 16.98 C 0 km/h
3107 13-07-2011 12:00:00 18.2 C 9.45 g/m*3 18.2 C 0 km/h
3108 13-07-2011 13:00:00 19 C 8.9 g/m*3 19 C 0 km/h
3109 13-07-2011 14:00:00 17.9 C 9.31 g/m*3 17.9 C 0 km/h
3110 13-07-2011 15:00:00 17.18 C 9.51 g/m*3 17.18 C 0 km/h
3111 13-07-2011 16:00:00 16.52 C 9.31 g/m*3 16.52 C 0 km/h
3112 13-07-2011 17:00:00 15.16 C 9.63 g/m*3 15.16 C 0 km/h
3113 13-07-2011 18:00:00 14.6 C 9.74 g/m*3 14.6 C 0 km/h
3114 13-07-2011 19:00:00 14.78 C 9.72 g/m*3 14.78 C 0 km/h
3115 13-07-2011 20:00:00 14.46 C 9.26 g/m*3 14.46 C 0 km/h
3116 13-07-2011 21:00:00 13.38 C 9.15 g/m*3 13.38 C 0 km/h
3117 13-07-2011 22:00:00 13.14 C 9.45 g/m*3 13.14 C 0 km/h
3118 13-07-2011 23:00:00 13.38 C 8.92 g/m*3 13.38 C 0 km/h
3119 14-07-2011 00:00:00 13.42 C 8.73 g/m*3 13.42 C 0 km/h
3120 14-07-2011 01:00:00 13.48 C 8.57 g/m*3 13.48 C 0 km/h
3121 14-07-2011 02:00:00 13.16 C 8.06 g/m*3 13.16 C 0 km/h
3122 14-07-2011 03:00:00 13.36 C 7.79 g/m*3 13.36 C 0 km/h
3123 14-07-2011 04:00:00 13.24 C 7.62 g/m*3 13.24 C 0 km/h
3124 14-07-2011 05:00:00 12.8 C 7.71 g/m*3 12.8 C 0 km/h
3125 14-07-2011 06:00:00 13.28 C 7.57 g/m*3 13.28 C 0 km/h
Sensor: Nr:Datum:Temp:Abs-Feuchte:Windchill:Wind:
Aussen-T/F 3126 14-07-2011 07:00:00 13.62 C 7.59 g/m*3 13.62 C 0 km/h
3127 14-07-2011 08:00:00 14.52 C 7.35 g/m*3 14.52 C 0 km/h
3128 14-07-2011 09:00:00 15.78 C 6.48 g/m*3 15.78 C 0 km/h
3129 14-07-2011 10:00:00 16.42 C 5.81 g/m*3 16.42 C 0 km/h
3130 14-07-2011 11:00:00 17.42 C 5.85 g/m*3 17.42 C 0 km/h
3131 14-07-2011 12:00:00 17.98 C 5.74 g/m*3 17.98 C 0 km/h
3132 14-07-2011 13:00:00 17.76 C 5.75 g/m*3 17.76 C 0 km/h
3133 14-07-2011 14:00:00 19.5 C 5.57 g/m*3 19.5 C 0 km/h
3134 14-07-2011 15:00:00 20.8 C 5.69 g/m*3 20.8 C 0 km/h
3135 14-07-2011 16:00:00 18.9 C 5.83 g/m*3 18.9 C 0 km/h
3136 14-07-2011 17:00:00 17.92 C 6.42 g/m*3 17.92 C 0 km/h
3137 14-07-2011 18:00:00 17.56 C 6.16 g/m*3 17.56 C 0 km/h
3138 14-07-2011 19:00:00 16.86 C 6.46 g/m*3 16.86 C 0 km/h
3139 14-07-2011 20:00:00 16 C 6.32 g/m*3 16 C 0 km/h
3140 14-07-2011 21:00:00 15.08 C 6.55 g/m*3 15.08 C 0 km/h
3141 14-07-2011 22:00:00 14.3 C 6.71 g/m*3 14.3 C 0 km/h
3142 14-07-2011 23:00:00 13.74 C 6.86 g/m*3 13.74 C 0 km/h
3143 15-07-2011 00:00:00 13.52 C 6.98 g/m*3 13.52 C 0 km/h
3144 15-07-2011 01:00:00 13.46 C 6.79 g/m*3 13.46 C 0 km/h
3145 15-07-2011 02:00:00 13.42 C 6.84 g/m*3 13.42 C 0 km/h
3146 15-07-2011 03:00:00 13.38 C 6.8 g/m*3 13.38 C 0 km/h
3147 15-07-2011 04:00:00 13.5 C 6.78 g/m*3 13.5 C 0 km/h
3148 15-07-2011 05:00:00 13.4 C 7.07 g/m*3 13.4 C 0 km/h
3149 15-07-2011 06:00:00 13.48 C 7.15 g/m*3 13.48 C 0 km/h
3150 15-07-2011 07:00:00 14.08 C 7.05 g/m*3 14.08 C 0 km/h
Sensor: Nr:Datum:Temp:Abs-Feuchte:Windchill:Wind:
Aussen-T/F 3151 15-07-2011 08:00:00 14.92 C 7.12 g/m*3 14.92 C 0 km/h
3152 15-07-2011 09:00:00 15.6 C 7.21 g/m*3 15.6 C 0 km/h
3153 15-07-2011 10:00:00 18.72 C 6.41 g/m*3 18.72 C 0 km/h
3154 15-07-2011 11:00:00 19.94 C 5.65 g/m*3 19.94 C 0 km/h
3155 15-07-2011 12:00:00 20.64 C 5.45 g/m*3 20.64 C 0 km/h
3156 15-07-2011 13:00:00 23.66 C 4.91 g/m*3 23.66 C 0 km/h
3157 15-07-2011 14:00:00 27.36 C 5.25 g/m*3 27.36 C 0 km/h
3158 15-07-2011 15:00:00 27.38 C 5.26 g/m*3 27.38 C 0 km/h
3159 15-07-2011 16:00:00 28.12 C 5.47 g/m*3 28.12 C 0 km/h
3160 15-07-2011 17:00:00 26.36 C 4.97 g/m*3 26.36 C 0 km/h
3161 15-07-2011 18:00:00 27 C 5.15 g/m*3 27 C 0 km/h
3162 15-07-2011 19:00:00 24.9 C 4.58 g/m*3 24.9 C 0 km/h
3163 15-07-2011 20:00:00 21.06 C 5.37 g/m*3 21.06 C 0 km/h
3164 15-07-2011 21:00:00 17.38 C 6.04 g/m*3 17.38 C 0 km/h
3165 15-07-2011 22:00:00 14.64 C 6.27 g/m*3 14.64 C 0 km/h
3166 15-07-2011 23:00:00 12.94 C 6.26 g/m*3 12.94 C 0 km/h
3167 16-07-2011 00:00:00 12.04 C 6.24 g/m*3 12.04 C 0 km/h
3168 16-07-2011 01:00:00 10.9 C 6.45 g/m*3 10.9 C 0 km/h
3169 16-07-2011 02:00:00 10.2 C 6.74 g/m*3 10.2 C 0 km/h
3170 16-07-2011 03:00:00 9.54 C 6.9 g/m*3 9.54 C 0 km/h
3171 16-07-2011 04:00:00 8.8 C 6.95 g/m*3 8.8 C 0 km/h
3172 16-07-2011 05:00:00 8.42 C 7.05 g/m*3 8.42 C 0 km/h
3173 16-07-2011 06:00:00 8.68 C 7.29 g/m*3 8.68 C 0 km/h
3174 16-07-2011 07:00:00 11.4 C 8.05 g/m*3 11.4 C 0 km/h
3175 16-07-2011 08:00:00 14.4 C 7.64 g/m*3 14.4 C 0 km/h
Sensor: Nr:Datum:Temp:Abs-Feuchte:Windchill:Wind:
Aussen-T/F 3176 16-07-2011 09:00:00 17.82 C 7.45 g/m*3 17.82 C 0 km/h
3177 16-07-2011 10:00:00 21.48 C 7.01 g/m*3 21.48 C 0 km/h
3178 16-07-2011 11:00:00 25.1 C 4.91 g/m*3 25.1 C 0 km/h
3179 16-07-2011 12:00:00 25.94 C 5 g/m*3 25.94 C 0 km/h
3180 16-07-2011 13:00:00 26.82 C 5.1 g/m*3 26.82 C 0 km/h
3181 16-07-2011 14:00:00 27.24 C 5.27 g/m*3 27.24 C 0 km/h
3182 16-07-2011 15:00:00 27.48 C 5.29 g/m*3 27.48 C 0 km/h
3183 16-07-2011 16:00:00 27.78 C 5.37 g/m*3 27.78 C 0 km/h
3184 16-07-2011 17:00:00 26.42 C 5.43 g/m*3 26.42 C 0 km/h
3185 16-07-2011 18:00:00 25 C 5.8 g/m*3 25 C 0 km/h
3186 16-07-2011 19:00:00 24.18 C 6.02 g/m*3 24.18 C 0 km/h
3187 16-07-2011 20:00:00 22.48 C 6.98 g/m*3 22.48 C 0 km/h
3188 16-07-2011 21:00:00 21.74 C 7.34 g/m*3 21.74 C 0 km/h
3189 16-07-2011 22:00:00 20.625 C 8.2 g/m*3 20.63 C 0 km/h
3190 16-07-2011 23:00:00 20 C 8.61 g/m*3 20 C 0 km/h
3191 17-07-2011 00:00:00 17.7 C 10.59 g/m*3 17.7 C 0 km/h
3192 17-07-2011 01:00:00 16.48 C 11.64 g/m*3 16.48 C 0 km/h
3193 17-07-2011 02:00:00 16.52 C 12.09 g/m*3 16.52 C 0 km/h
3194 17-07-2011 03:00:00 16.52 C 12.32 g/m*3 16.52 C 0 km/h
3195 17-07-2011 04:00:00 16.56 C 12.4 g/m*3 16.56 C 0 km/h
3196 17-07-2011 05:00:00 16.22 C 12.15 g/m*3 16.22 C 0 km/h
3197 17-07-2011 06:00:00 16.12 C 12.19 g/m*3 16.12 C 0 km/h
3198 17-07-2011 07:00:00 15.88 C 12.04 g/m*3 15.88 C 0 km/h
3199 17-07-2011 08:00:00 15.64 C 11.84 g/m*3 15.64 C 0 km/h
3200 17-07-2011 09:00:00 15.78 C 11.51 g/m*3 15.78 C 0 km/h
Sensor: Nr:Datum:Temp:Abs-Feuchte:Windchill:Wind:
Aussen-T/F 3201 17-07-2011 10:00:00 17.66 C 10.93 g/m*3 17.66 C 0 km/h
3202 17-07-2011 11:00:00 19.28 C 10.77 g/m*3 19.28 C 0 km/h
3203 17-07-2011 12:00:00 20.6 C 10.17 g/m*3 20.6 C 0 km/h
3204 17-07-2011 13:00:00 20.2 C 8.71 g/m*3 20.2 C 0 km/h
3205 17-07-2011 14:00:00 19.24 C 8.2 g/m*3 19.24 C 0 km/h
3206 17-07-2011